PWSweather.com
Personal Weather Stations
Station Observations
GHWX1
Golden Heights, Sturgeon County, AB T0A1N5

Golden HeightsSturgeon County, AB T0A1N5

Lat: 53.919, Lon: -113.37

Elevation: 2159

Station Type:

http://www.ghwx.ca

High Low Average
Temperature 51.9°F11.1°C 29.5°F-1.4°C 41.9°F5.5°C
Dew Point 40.5°F4.7°C 23.7°F-4.6°C 34.0°F1.1°C
Winds 20.0 mph 32.2 kmh Calm Calm 7.0 mph WSW11.3 kmh WSW
Wind Gusts -- -- --
Humidity 95% 53% 75%
Pressure 29.55 in1000.7 mb 29.36 in994.2 mb -
Precipitation 0.15 in3.8 mm - -
Hour Temp Dew Point Humidity Winds Wind Gusts Pressure Precip Precip Rate Daily Precip Total
12:01 AM 30.3°F-0.9°C 24.9°F-3.9°C 80% Calm Calm -- 29.39 in995.3 mb 0.00 in0.0 mm 0.00 in0.0 mm 0.00 in0.0 mm
12:02 AM 30.3°F-0.9°C 25.2°F-3.8°C 81% Calm Calm -- 29.39 in995.3 mb 0.00 in0.0 mm 0.00 in0.0 mm 0.00 in0.0 mm
12:03 AM 30.3°F-0.9°C 24.9°F-3.9°C 80% Calm Calm -- 29.39 in995.3 mb 0.00 in0.0 mm 0.00 in0.0 mm 0.00 in0.0 mm
12:06 AM 30.3°F-0.9°C 24.6°F-4.1°C 79% Calm Calm -- 29.39 in995.3 mb 0.00 in0.0 mm 0.00 in0.0 mm 0.00 in0.0 mm
12:07 AM 30.3°F-0.9°C 23.6°F-4.7°C 76% Calm Calm -- 29.39 in995.3 mb 0.00 in0.0 mm 0.00 in0.0 mm 0.00 in0.0 mm
12:08 AM 30.3°F-0.9°C 23.3°F-4.8°C 75% Calm Calm -- 29.39 in995.3 mb 0.00 in0.0 mm 0.00 in0.0 mm 0.00 in0.0 mm
12:10 AM 30.3°F-0.9°C 23.6°F-4.7°C 76% Calm Calm -- 29.39 in995.3 mb 0.00 in0.0 mm 0.00 in0.0 mm 0.00 in0.0 mm
12:13 AM 30.3°F-0.9°C 24.6°F-4.1°C 79% Calm Calm -- 29.39 in995.3 mb 0.00 in0.0 mm 0.00 in0.0 mm 0.00 in0.0 mm
12:15 AM 30.3°F-0.9°C 25.2°F-3.8°C 81% Calm Calm -- 29.39 in995.3 mb 0.00 in0.0 mm 0.00 in0.0 mm 0.00 in0.0 mm
12:18 AM 30.3°F-0.9°C 25.2°F-3.8°C 81% Calm Calm -- 29.38 in994.9 mb 0.00 in0.0 mm 0.00 in0.0 mm 0.00 in0.0 mm
12:20 AM 30.1°F-1.1°C 25.4°F-3.7°C 83% Calm Calm -- 29.39 in995.3 mb 0.00 in0.0 mm 0.00 in0.0 mm 0.00 in0.0 mm
12:26 AM 30.0°F-1.1°C 25.4°F-3.7°C 83% Calm Calm -- 29.38 in994.9 mb 0.00 in0.0 mm 0.00 in0.0 mm 0.00 in0.0 mm
12:27 AM 30.0°F-1.1°C 24.8°F-4.0°C 81% Calm Calm -- 29.38 in994.9 mb 0.00 in0.0 mm 0.00 in0.0 mm 0.00 in0.0 mm
12:29 AM 29.8°F-1.2°C 24.6°F-4.1°C 81% Calm Calm -- 29.39 in995.3 mb 0.00 in0.0 mm 0.00 in0.0 mm 0.00 in0.0 mm
12:33 AM 29.6°F-1.3°C 24.5°F-4.2°C 81% Calm Calm -- 29.39 in995.3 mb 0.00 in0.0 mm 0.00 in0.0 mm 0.00 in0.0 mm
12:36 AM 29.6°F-1.3°C 24.5°F-4.2°C 81% Calm Calm -- 29.38 in994.9 mb 0.00 in0.0 mm 0.00 in0.0 mm 0.00 in0.0 mm
12:38 AM 29.6°F-1.3°C 24.5°F-4.2°C 81% Calm Calm -- 29.39 in995.3 mb 0.00 in0.0 mm 0.00 in0.0 mm 0.00 in0.0 mm
12:40 AM 29.5°F-1.4°C 24.3°F-4.3°C 81% Calm Calm -- 29.39 in995.3 mb 0.00 in0.0 mm 0.00 in0.0 mm 0.00 in0.0 mm
12:41 AM 29.5°F-1.4°C 24.3°F-4.3°C 81% Calm Calm -- 29.39 in995.3 mb 0.00 in0.0 mm 0.00 in0.0 mm 0.00 in0.0 mm
12:44 AM 29.5°F-1.4°C 24.3°F-4.3°C 81% Calm Calm -- 29.38 in994.9 mb 0.00 in0.0 mm 0.00 in0.0 mm 0.00 in0.0 mm
12:48 AM 29.5°F-1.4°C 24.3°F-4.3°C 81% Calm Calm -- 29.39 in995.3 mb 0.00 in0.0 mm 0.00 in0.0 mm 0.00 in0.0 mm
12:49 AM 29.5°F-1.4°C 24.3°F-4.3°C 81% Calm Calm -- 29.38 in994.9 mb 0.00 in0.0 mm 0.00 in0.0 mm 0.00 in0.0 mm
12:50 AM 29.5°F-1.4°C 24.3°F-4.3°C 81% Calm Calm -- 29.39 in995.3 mb 0.00 in0.0 mm 0.00 in0.0 mm 0.00 in0.0 mm
12:55 AM 29.5°F-1.4°C 24.3°F-4.3°C 81% Calm Calm -- 29.38 in994.9 mb 0.00 in0.0 mm 0.00 in0.0 mm 0.00 in0.0 mm
12:57 AM 29.5°F-1.4°C 24.3°F-4.3°C 81% Calm Calm -- 29.39 in995.3 mb 0.00 in0.0 mm 0.00 in0.0 mm 0.00 in0.0 mm
01:01 AM 29.5°F-1.4°C 24.3°F-4.3°C 81% Calm Calm -- 29.38 in994.9 mb 0.00 in0.0 mm 0.00 in0.0 mm 0.00 in0.0 mm
01:02 AM 29.5°F-1.4°C 24.9°F-3.9°C 83% Calm Calm -- 29.39 in995.3 mb 0.00 in0.0 mm 0.00 in0.0 mm 0.00 in0.0 mm
01:03 AM 29.5°F-1.4°C 24.9°F-3.9°C 83% Calm Calm -- 29.38 in994.9 mb 0.00 in0.0 mm 0.00 in0.0 mm 0.00 in0.0 mm
01:04 AM 29.5°F-1.4°C 24.3°F-4.3°C 81% Calm Calm -- 29.39 in995.3 mb 0.00 in0.0 mm 0.00 in0.0 mm 0.00 in0.0 mm
01:05 AM 29.5°F-1.4°C 24.0°F-4.4°C 80% Calm Calm -- 29.39 in995.3 mb 0.00 in0.0 mm 0.00 in0.0 mm 0.00 in0.0 mm
01:06 AM 29.5°F-1.4°C 24.0°F-4.4°C 80% Calm Calm -- 29.38 in994.9 mb 0.00 in0.0 mm 0.00 in0.0 mm 0.00 in0.0 mm
01:08 AM 29.5°F-1.4°C 23.7°F-4.6°C 79% Calm Calm -- 29.38 in994.9 mb 0.00 in0.0 mm 0.00 in0.0 mm 0.00 in0.0 mm
01:09 AM 29.5°F-1.4°C 24.0°F-4.4°C 80% Calm Calm -- 29.38 in994.9 mb 0.00 in0.0 mm 0.00 in0.0 mm 0.00 in0.0 mm
01:11 AM 29.6°F-1.3°C 24.5°F-4.2°C 81% Calm Calm -- 29.38 in994.9 mb 0.00 in0.0 mm 0.00 in0.0 mm 0.00 in0.0 mm
01:14 AM 29.6°F-1.3°C 24.2°F-4.3°C 80% Calm Calm -- 29.38 in994.9 mb 0.00 in0.0 mm 0.00 in0.0 mm 0.00 in0.0 mm
01:15 AM 29.6°F-1.3°C 23.9°F-4.5°C 79% Calm Calm -- 29.38 in994.9 mb 0.00 in0.0 mm 0.00 in0.0 mm 0.00 in0.0 mm
01:16 AM 29.8°F-1.2°C 24.0°F-4.4°C 79% Calm Calm -- 29.38 in994.9 mb 0.00 in0.0 mm 0.00 in0.0 mm 0.00 in0.0 mm
01:18 AM 29.8°F-1.2°C 24.3°F-4.3°C 80% Calm Calm -- 29.38 in994.9 mb 0.00 in0.0 mm 0.00 in0.0 mm 0.00 in0.0 mm
01:19 AM 30.0°F-1.1°C 24.8°F-4.0°C 81% Calm Calm -- 29.38 in994.9 mb 0.00 in0.0 mm 0.00 in0.0 mm 0.00 in0.0 mm
01:20 AM 30.0°F-1.1°C 25.4°F-3.7°C 83% Calm Calm -- 29.38 in994.9 mb 0.00 in0.0 mm 0.00 in0.0 mm 0.00 in0.0 mm
01:24 AM 30.0°F-1.1°C 26.0°F-3.3°C 85% Calm Calm -- 29.38 in994.9 mb 0.00 in0.0 mm 0.00 in0.0 mm 0.00 in0.0 mm
01:31 AM 30.0°F-1.1°C 26.3°F-3.2°C 86% Calm Calm -- 29.38 in994.9 mb 0.00 in0.0 mm 0.00 in0.0 mm 0.00 in0.0 mm
01:36 AM 30.1°F-1.1°C 26.3°F-3.2°C 86% Calm Calm -- 29.38 in994.9 mb 0.00 in0.0 mm 0.00 in0.0 mm 0.00 in0.0 mm
01:41 AM 30.1°F-1.1°C 26.3°F-3.2°C 86% Calm Calm -- 29.39 in995.3 mb 0.00 in0.0 mm 0.00 in0.0 mm 0.00 in0.0 mm
01:42 AM 30.1°F-1.1°C 26.3°F-3.2°C 86% Calm Calm -- 29.38 in994.9 mb 0.00 in0.0 mm 0.00 in0.0 mm 0.00 in0.0 mm
01:43 AM 30.1°F-1.1°C 26.3°F-3.2°C 86% Calm Calm -- 29.39 in995.3 mb 0.00 in0.0 mm 0.00 in0.0 mm 0.00 in0.0 mm
01:44 AM 30.1°F-1.1°C 26.3°F-3.2°C 86% Calm Calm -- 29.38 in994.9 mb 0.00 in0.0 mm 0.00 in0.0 mm 0.00 in0.0 mm
01:47 AM 30.1°F-1.1°C 26.0°F-3.3°C 85% Calm Calm -- 29.38 in994.9 mb 0.00 in0.0 mm 0.00 in0.0 mm 0.00 in0.0 mm
01:48 AM 30.1°F-1.1°C 25.4°F-3.7°C 83% Calm Calm -- 29.38 in994.9 mb 0.00 in0.0 mm 0.00 in0.0 mm 0.00 in0.0 mm
01:50 AM 30.1°F-1.1°C 25.4°F-3.7°C 83% Calm Calm -- 29.37 in994.6 mb 0.00 in0.0 mm 0.00 in0.0 mm 0.00 in0.0 mm
01:51 AM 30.1°F-1.1°C 25.4°F-3.7°C 83% Calm Calm -- 29.38 in994.9 mb 0.00 in0.0 mm 0.00 in0.0 mm 0.00 in0.0 mm
01:57 AM 30.1°F-1.1°C 25.4°F-3.7°C 83% Calm Calm -- 29.38 in994.9 mb 0.00 in0.0 mm 0.00 in0.0 mm 0.00 in0.0 mm
02:00 AM 30.1°F-1.1°C 25.4°F-3.7°C 83% Calm Calm -- 29.38 in994.9 mb 0.00 in0.0 mm 0.00 in0.0 mm 0.00 in0.0 mm
02:01 AM 30.3°F-0.9°C 25.2°F-3.8°C 81% Calm Calm -- 29.38 in994.9 mb 0.00 in0.0 mm 0.00 in0.0 mm 0.00 in0.0 mm
02:02 AM 30.5°F-0.8°C 25.4°F-3.7°C 81% Calm Calm -- 29.38 in994.9 mb 0.00 in0.0 mm 0.00 in0.0 mm 0.00 in0.0 mm
02:03 AM 30.5°F-0.8°C 25.4°F-3.7°C 81% Calm Calm -- 29.38 in994.9 mb 0.00 in0.0 mm 0.00 in0.0 mm 0.00 in0.0 mm
02:06 AM 30.5°F-0.8°C 25.1°F-3.8°C 80% Calm Calm -- 29.38 in994.9 mb 0.00 in0.0 mm 0.00 in0.0 mm 0.00 in0.0 mm
02:07 AM 30.5°F-0.8°C 24.7°F-4.1°C 79% Calm Calm -- 29.38 in994.9 mb 0.00 in0.0 mm 0.00 in0.0 mm 0.00 in0.0 mm
02:08 AM 30.7°F-0.7°C 24.9°F-3.9°C 79% Calm Calm -- 29.38 in994.9 mb 0.00 in0.0 mm 0.00 in0.0 mm 0.00 in0.0 mm
02:09 AM 30.7°F-0.7°C 24.9°F-3.9°C 79% Calm Calm -- 29.37 in994.6 mb 0.00 in0.0 mm 0.00 in0.0 mm 0.00 in0.0 mm
02:10 AM 30.8°F-0.7°C 24.9°F-3.9°C 79% Calm Calm -- 29.38 in994.9 mb 0.00 in0.0 mm 0.00 in0.0 mm 0.00 in0.0 mm
02:11 AM 30.8°F-0.7°C 24.9°F-3.9°C 79% Calm Calm -- 29.38 in994.9 mb 0.00 in0.0 mm 0.00 in0.0 mm 0.00 in0.0 mm
02:12 AM 30.8°F-0.7°C 24.6°F-4.1°C 78% Calm Calm -- 29.38 in994.9 mb 0.00 in0.0 mm 0.00 in0.0 mm 0.00 in0.0 mm
02:15 AM 30.8°F-0.7°C 24.6°F-4.1°C 78% Calm Calm -- 29.38 in994.9 mb 0.00 in0.0 mm 0.00 in0.0 mm 0.00 in0.0 mm
02:17 AM 30.8°F-0.7°C 24.9°F-3.9°C 79% Calm Calm -- 29.37 in994.6 mb 0.00 in0.0 mm 0.00 in0.0 mm 0.00 in0.0 mm
02:18 AM 30.8°F-0.7°C 24.9°F-3.9°C 79% Calm Calm -- 29.37 in994.6 mb 0.00 in0.0 mm 0.00 in0.0 mm 0.00 in0.0 mm
02:19 AM 31.1°F-0.5°C 25.3°F-3.7°C 79% Calm Calm -- 29.37 in994.6 mb 0.00 in0.0 mm 0.00 in0.0 mm 0.00 in0.0 mm
02:20 AM 31.1°F-0.5°C 25.3°F-3.7°C 79% Calm Calm -- 29.38 in994.9 mb 0.00 in0.0 mm 0.00 in0.0 mm 0.00 in0.0 mm
02:24 AM 31.1°F-0.5°C 25.3°F-3.7°C 79% Calm Calm -- 29.37 in994.6 mb 0.00 in0.0 mm 0.00 in0.0 mm 0.00 in0.0 mm
02:25 AM 31.2°F-0.4°C 25.8°F-3.4°C 80% Calm Calm -- 29.37 in994.6 mb 0.00 in0.0 mm 0.00 in0.0 mm 0.00 in0.0 mm
02:26 AM 31.2°F-0.4°C 25.8°F-3.4°C 80% Calm Calm -- 29.37 in994.6 mb 0.00 in0.0 mm 0.00 in0.0 mm 0.00 in0.0 mm
02:27 AM 31.2°F-0.4°C 25.8°F-3.4°C 80% Calm Calm -- 29.37 in994.6 mb 0.00 in0.0 mm 0.00 in0.0 mm 0.00 in0.0 mm
02:28 AM 31.2°F-0.4°C 25.8°F-3.4°C 80% Calm Calm -- 29.38 in994.9 mb 0.00 in0.0 mm 0.00 in0.0 mm 0.00 in0.0 mm
02:29 AM 31.2°F-0.4°C 25.4°F-3.7°C 79% Calm Calm -- 29.38 in994.9 mb 0.00 in0.0 mm 0.00 in0.0 mm 0.00 in0.0 mm
02:31 AM 31.2°F-0.4°C 25.1°F-3.8°C 78% Calm Calm -- 29.38 in994.9 mb 0.00 in0.0 mm 0.00 in0.0 mm 0.00 in0.0 mm
02:32 AM 31.2°F-0.4°C 25.1°F-3.8°C 78% Calm Calm -- 29.37 in994.6 mb 0.00 in0.0 mm 0.00 in0.0 mm 0.00 in0.0 mm
02:33 AM 31.2°F-0.4°C 25.4°F-3.7°C 79% Calm Calm -- 29.37 in994.6 mb 0.00 in0.0 mm 0.00 in0.0 mm 0.00 in0.0 mm
02:34 AM 31.2°F-0.4°C 25.4°F-3.7°C 79% Calm Calm -- 29.38 in994.9 mb 0.00 in0.0 mm 0.00 in0.0 mm 0.00 in0.0 mm
02:35 AM 31.2°F-0.4°C 25.1°F-3.8°C 78% Calm Calm -- 29.38 in994.9 mb 0.00 in0.0 mm 0.00 in0.0 mm 0.00 in0.0 mm
02:36 AM 31.1°F-0.5°C 25.0°F-3.9°C 78% Calm Calm -- 29.37 in994.6 mb 0.00 in0.0 mm 0.00 in0.0 mm 0.00 in0.0 mm
02:37 AM 31.1°F-0.5°C 24.3°F-4.3°C 76% Calm Calm -- 29.38 in994.9 mb 0.00 in0.0 mm 0.00 in0.0 mm 0.00 in0.0 mm
02:38 AM 31.1°F-0.5°C 24.3°F-4.3°C 76% Calm Calm -- 29.38 in994.9 mb 0.00 in0.0 mm 0.00 in0.0 mm 0.00 in0.0 mm
02:39 AM 31.1°F-0.5°C 24.3°F-4.3°C 76% Calm Calm -- 29.38 in994.9 mb 0.00 in0.0 mm 0.00 in0.0 mm 0.00 in0.0 mm
02:40 AM 31.1°F-0.5°C 24.0°F-4.4°C 75% Calm Calm -- 29.38 in994.9 mb 0.00 in0.0 mm 0.00 in0.0 mm 0.00 in0.0 mm
02:41 AM 31.1°F-0.5°C 24.0°F-4.4°C 75% Calm Calm -- 29.37 in994.6 mb 0.00 in0.0 mm 0.00 in0.0 mm 0.00 in0.0 mm
02:42 AM 31.1°F-0.5°C 24.0°F-4.4°C 75% Calm Calm -- 29.37 in994.6 mb 0.00 in0.0 mm 0.00 in0.0 mm 0.00 in0.0 mm
02:43 AM 31.1°F-0.5°C 24.0°F-4.4°C 75% Calm Calm -- 29.37 in994.6 mb 0.00 in0.0 mm 0.00 in0.0 mm 0.00 in0.0 mm
02:44 AM 31.1°F-0.5°C 25.0°F-3.9°C 78% Calm Calm -- 29.37 in994.6 mb 0.00 in0.0 mm 0.00 in0.0 mm 0.00 in0.0 mm
02:45 AM 30.8°F-0.7°C 24.6°F-4.1°C 78% Calm Calm -- 29.37 in994.6 mb 0.00 in0.0 mm 0.00 in0.0 mm 0.00 in0.0 mm
02:46 AM 30.8°F-0.7°C 24.6°F-4.1°C 78% Calm Calm -- 29.38 in994.9 mb 0.00 in0.0 mm 0.00 in0.0 mm 0.00 in0.0 mm
02:47 AM 30.8°F-0.7°C 24.6°F-4.1°C 78% Calm Calm -- 29.38 in994.9 mb 0.00 in0.0 mm 0.00 in0.0 mm 0.00 in0.0 mm
02:49 AM 30.8°F-0.7°C 24.9°F-3.9°C 79% Calm Calm -- 29.38 in994.9 mb 0.00 in0.0 mm 0.00 in0.0 mm 0.00 in0.0 mm
02:50 AM 30.8°F-0.7°C 24.9°F-3.9°C 79% Calm Calm -- 29.38 in994.9 mb 0.00 in0.0 mm 0.00 in0.0 mm 0.00 in0.0 mm
02:52 AM 30.7°F-0.7°C 24.9°F-3.9°C 79% Calm Calm -- 29.38 in994.9 mb 0.00 in0.0 mm 0.00 in0.0 mm 0.00 in0.0 mm
02:53 AM 30.7°F-0.7°C 24.9°F-3.9°C 79% Calm Calm -- 29.38 in994.9 mb 0.00 in0.0 mm 0.00 in0.0 mm 0.00 in0.0 mm
02:54 AM 30.7°F-0.7°C 24.9°F-3.9°C 79% Calm Calm -- 29.38 in994.9 mb 0.00 in0.0 mm 0.00 in0.0 mm 0.00 in0.0 mm
02:55 AM 30.7°F-0.7°C 25.2°F-3.8°C 80% Calm Calm -- 29.38 in994.9 mb 0.00 in0.0 mm 0.00 in0.0 mm 0.00 in0.0 mm
02:56 AM 30.8°F-0.7°C 25.2°F-3.8°C 80% Calm Calm -- 29.38 in994.9 mb 0.00 in0.0 mm 0.00 in0.0 mm 0.00 in0.0 mm
02:57 AM 30.8°F-0.7°C 25.2°F-3.8°C 80% Calm Calm -- 29.38 in994.9 mb 0.00 in0.0 mm 0.00 in0.0 mm 0.00 in0.0 mm
02:58 AM 30.8°F-0.7°C 25.2°F-3.8°C 80% Calm Calm -- 29.38 in994.9 mb 0.00 in0.0 mm 0.00 in0.0 mm 0.00 in0.0 mm
02:59 AM 30.8°F-0.7°C 25.2°F-3.8°C 80% Calm Calm -- 29.38 in994.9 mb 0.00 in0.0 mm 0.00 in0.0 mm 0.00 in0.0 mm
03:01 AM 30.8°F-0.7°C 25.5°F-3.6°C 81% Calm Calm -- 29.38 in994.9 mb 0.00 in0.0 mm 0.00 in0.0 mm 0.00 in0.0 mm
03:03 AM 30.8°F-0.7°C 25.5°F-3.6°C 81% Calm Calm -- 29.38 in994.9 mb 0.00 in0.0 mm 0.00 in0.0 mm 0.00 in0.0 mm
03:05 AM 30.8°F-0.7°C 25.5°F-3.6°C 81% Calm Calm -- 29.38 in994.9 mb 0.00 in0.0 mm 0.00 in0.0 mm 0.00 in0.0 mm
03:07 AM 30.8°F-0.7°C 25.5°F-3.6°C 81% Calm Calm -- 29.38 in994.9 mb 0.00 in0.0 mm 0.00 in0.0 mm 0.00 in0.0 mm
03:08 AM 30.8°F-0.7°C 25.5°F-3.6°C 81% Calm Calm -- 29.37 in994.6 mb 0.00 in0.0 mm 0.00 in0.0 mm 0.00 in0.0 mm
03:09 AM 30.8°F-0.7°C 25.5°F-3.6°C 81% Calm Calm -- 29.38 in994.9 mb 0.00 in0.0 mm 0.00 in0.0 mm 0.00 in0.0 mm
03:10 AM 30.8°F-0.7°C 25.5°F-3.6°C 81% Calm Calm -- 29.38 in994.9 mb 0.00 in0.0 mm 0.00 in0.0 mm 0.00 in0.0 mm
03:13 AM 31.1°F-0.5°C 25.9°F-3.4°C 81% Calm Calm -- 29.38 in994.9 mb 0.00 in0.0 mm 0.00 in0.0 mm 0.00 in0.0 mm
03:14 AM 31.2°F-0.4°C 26.1°F-3.3°C 81% Calm Calm -- 29.37 in994.6 mb 0.00 in0.0 mm 0.00 in0.0 mm 0.00 in0.0 mm
03:15 AM 31.2°F-0.4°C 26.1°F-3.3°C 81% Calm Calm -- 29.37 in994.6 mb 0.00 in0.0 mm 0.00 in0.0 mm 0.00 in0.0 mm
03:16 AM 31.2°F-0.4°C 26.1°F-3.3°C 81% Calm Calm -- 29.38 in994.9 mb 0.00 in0.0 mm 0.00 in0.0 mm 0.00 in0.0 mm
03:18 AM 31.2°F-0.4°C 26.1°F-3.3°C 81% Calm Calm -- 29.37 in994.6 mb 0.00 in0.0 mm 0.00 in0.0 mm 0.00 in0.0 mm
03:20 AM 31.5°F-0.3°C 25.9°F-3.4°C 80% Calm Calm -- 29.37 in994.6 mb 0.00 in0.0 mm 0.00 in0.0 mm 0.00 in0.0 mm
03:21 AM 31.6°F-0.2°C 26.1°F-3.3°C 80% Calm Calm -- 29.38 in994.9 mb 0.00 in0.0 mm 0.00 in0.0 mm 0.00 in0.0 mm
03:22 AM 31.7°F-0.2°C 25.8°F-3.4°C 79% Calm Calm -- 29.38 in994.9 mb 0.00 in0.0 mm 0.00 in0.0 mm 0.00 in0.0 mm
03:23 AM 31.7°F-0.2°C 25.5°F-3.6°C 78% Calm Calm -- 29.37 in994.6 mb 0.00 in0.0 mm 0.00 in0.0 mm 0.00 in0.0 mm
03:24 AM 32.2°F0.1°C 26.0°F-3.3°C 78% Calm Calm -- 29.37 in994.6 mb 0.00 in0.0 mm 0.00 in0.0 mm 0.00 in0.0 mm
03:25 AM 32.2°F0.1°C 26.0°F-3.3°C 78% Calm Calm -- 29.37 in994.6 mb 0.00 in0.0 mm 0.00 in0.0 mm 0.00 in0.0 mm
03:26 AM 32.5°F0.3°C 26.4°F-3.1°C 78% Calm Calm -- 29.37 in994.6 mb 0.00 in0.0 mm 0.00 in0.0 mm 0.00 in0.0 mm
03:28 AM 32.5°F0.3°C 26.4°F-3.1°C 78% Calm Calm -- 29.37 in994.6 mb 0.00 in0.0 mm 0.00 in0.0 mm 0.00 in0.0 mm
03:29 AM 32.6°F0.3°C 27.0°F-2.8°C 80% Calm Calm -- 29.37 in994.6 mb 0.00 in0.0 mm 0.00 in0.0 mm 0.00 in0.0 mm
03:30 AM 32.6°F0.3°C 27.3°F-2.6°C 81% Calm Calm -- 29.37 in994.6 mb 0.00 in0.0 mm 0.00 in0.0 mm 0.00 in0.0 mm
03:33 AM 32.5°F0.3°C 27.3°F-2.6°C 81% Calm Calm -- 29.37 in994.6 mb 0.00 in0.0 mm 0.00 in0.0 mm 0.00 in0.0 mm
03:34 AM 32.4°F0.2°C 27.1°F-2.7°C 81% Calm Calm -- 29.37 in994.6 mb 0.00 in0.0 mm 0.00 in0.0 mm 0.00 in0.0 mm
03:36 AM 32.4°F0.2°C 26.8°F-2.9°C 80% Calm Calm -- 29.37 in994.6 mb 0.00 in0.0 mm 0.00 in0.0 mm 0.00 in0.0 mm
03:38 AM 32.4°F0.2°C 26.8°F-2.9°C 80% Calm Calm -- 29.37 in994.6 mb 0.00 in0.0 mm 0.00 in0.0 mm 0.00 in0.0 mm
03:39 AM 32.4°F0.2°C 26.8°F-2.9°C 80% Calm Calm -- 29.37 in994.6 mb 0.00 in0.0 mm 0.00 in0.0 mm 0.00 in0.0 mm
03:40 AM 32.4°F0.2°C 26.8°F-2.9°C 80% Calm Calm -- 29.36 in994.2 mb 0.00 in0.0 mm 0.00 in0.0 mm 0.00 in0.0 mm
03:41 AM 32.4°F0.2°C 26.8°F-2.9°C 80% Calm Calm -- 29.36 in994.2 mb 0.00 in0.0 mm 0.00 in0.0 mm 0.00 in0.0 mm
03:42 AM 32.4°F0.2°C 26.8°F-2.9°C 80% Calm Calm -- 29.36 in994.2 mb 0.00 in0.0 mm 0.00 in0.0 mm 0.00 in0.0 mm
03:43 AM 32.2°F0.1°C 26.6°F-3.0°C 80% Calm Calm -- 29.36 in994.2 mb 0.00 in0.0 mm 0.00 in0.0 mm 0.00 in0.0 mm
03:44 AM 32.2°F0.1°C 26.6°F-3.0°C 80% Calm Calm -- 29.37 in994.6 mb 0.00 in0.0 mm 0.00 in0.0 mm 0.00 in0.0 mm
03:45 AM 32.2°F0.1°C 26.6°F-3.0°C 80% Calm Calm -- 29.37 in994.6 mb 0.00 in0.0 mm 0.00 in0.0 mm 0.00 in0.0 mm
03:46 AM 32.2°F0.1°C 26.6°F-3.0°C 80% Calm Calm -- 29.37 in994.6 mb 0.00 in0.0 mm 0.00 in0.0 mm 0.00 in0.0 mm
03:54 AM 32.2°F0.1°C 26.6°F-3.0°C 80% Calm Calm -- 29.37 in994.6 mb 0.00 in0.0 mm 0.00 in0.0 mm 0.00 in0.0 mm
03:56 AM 32.2°F0.1°C 26.6°F-3.0°C 80% Calm Calm -- 29.37 in994.6 mb 0.00 in0.0 mm 0.00 in0.0 mm 0.00 in0.0 mm
03:59 AM 32.2°F0.1°C 26.6°F-3.0°C 80% Calm Calm -- 29.37 in994.6 mb 0.00 in0.0 mm 0.00 in0.0 mm 0.00 in0.0 mm
04:01 AM 32.2°F0.1°C 26.6°F-3.0°C 80% Calm Calm -- 29.37 in994.6 mb 0.00 in0.0 mm 0.00 in0.0 mm 0.00 in0.0 mm
04:03 AM 32.2°F0.1°C 26.9°F-2.8°C 81% Calm Calm -- 29.37 in994.6 mb 0.00 in0.0 mm 0.00 in0.0 mm 0.00 in0.0 mm
04:04 AM 32.2°F0.1°C 26.9°F-2.8°C 81% Calm Calm -- 29.38 in994.9 mb 0.00 in0.0 mm 0.00 in0.0 mm 0.00 in0.0 mm
04:06 AM 32.2°F0.1°C 26.9°F-2.8°C 81% Calm Calm -- 29.38 in994.9 mb 0.00 in0.0 mm 0.00 in0.0 mm 0.00 in0.0 mm
04:07 AM 32.2°F0.1°C 26.9°F-2.8°C 81% Calm Calm -- 29.38 in994.9 mb 0.00 in0.0 mm 0.00 in0.0 mm 0.00 in0.0 mm
04:09 AM 31.9°F-0.1°C 26.6°F-3.0°C 81% Calm Calm -- 29.37 in994.6 mb 0.00 in0.0 mm 0.00 in0.0 mm 0.00 in0.0 mm
04:12 AM 31.9°F-0.1°C 26.6°F-3.0°C 81% Calm Calm -- 29.37 in994.6 mb 0.00 in0.0 mm 0.00 in0.0 mm 0.00 in0.0 mm
04:13 AM 31.9°F-0.1°C 26.6°F-3.0°C 81% Calm Calm -- 29.38 in994.9 mb 0.00 in0.0 mm 0.00 in0.0 mm 0.00 in0.0 mm
04:14 AM 31.9°F-0.1°C 26.6°F-3.0°C 81% Calm Calm -- 29.37 in994.6 mb 0.00 in0.0 mm 0.00 in0.0 mm 0.00 in0.0 mm
04:15 AM 31.9°F-0.1°C 26.6°F-3.0°C 81% Calm Calm -- 29.37 in994.6 mb 0.00 in0.0 mm 0.00 in0.0 mm 0.00 in0.0 mm
04:16 AM 31.9°F-0.1°C 26.6°F-3.0°C 81% Calm Calm -- 29.38 in994.9 mb 0.00 in0.0 mm 0.00 in0.0 mm 0.00 in0.0 mm
04:17 AM 31.9°F-0.1°C 26.6°F-3.0°C 81% Calm Calm -- 29.38 in994.9 mb 0.00 in0.0 mm 0.00 in0.0 mm 0.00 in0.0 mm
04:18 AM 31.9°F-0.1°C 26.6°F-3.0°C 81% Calm Calm -- 29.38 in994.9 mb 0.00 in0.0 mm 0.00 in0.0 mm 0.00 in0.0 mm
04:19 AM 31.9°F-0.1°C 26.6°F-3.0°C 81% Calm Calm -- 29.38 in994.9 mb 0.00 in0.0 mm 0.00 in0.0 mm 0.00 in0.0 mm
04:20 AM 32.2°F0.1°C 26.9°F-2.8°C 81% Calm Calm -- 29.37 in994.6 mb 0.00 in0.0 mm 0.00 in0.0 mm 0.00 in0.0 mm
04:21 AM 32.2°F0.1°C 26.9°F-2.8°C 81% Calm Calm -- 29.37 in994.6 mb 0.00 in0.0 mm 0.00 in0.0 mm 0.00 in0.0 mm
04:28 AM 32.2°F0.1°C 26.9°F-2.8°C 81% Calm Calm -- 29.37 in994.6 mb 0.00 in0.0 mm 0.00 in0.0 mm 0.00 in0.0 mm
04:29 AM 32.2°F0.1°C 27.5°F-2.5°C 83% Calm Calm -- 29.38 in994.9 mb 0.00 in0.0 mm 0.00 in0.0 mm 0.00 in0.0 mm
04:30 AM 32.2°F0.1°C 27.5°F-2.5°C 83% Calm Calm -- 29.37 in994.6 mb 0.00 in0.0 mm 0.00 in0.0 mm 0.00 in0.0 mm
04:32 AM 31.9°F-0.1°C 27.2°F-2.7°C 83% Calm Calm -- 29.37 in994.6 mb 0.00 in0.0 mm 0.00 in0.0 mm 0.00 in0.0 mm
04:37 AM 31.7°F-0.2°C 27.0°F-2.8°C 83% Calm Calm -- 29.37 in994.6 mb 0.00 in0.0 mm 0.00 in0.0 mm 0.00 in0.0 mm
04:38 AM 31.7°F-0.2°C 27.0°F-2.8°C 83% Calm Calm -- 29.37 in994.6 mb 0.00 in0.0 mm 0.00 in0.0 mm 0.00 in0.0 mm
04:41 AM 31.7°F-0.2°C 27.0°F-2.8°C 83% Calm Calm -- 29.37 in994.6 mb 0.00 in0.0 mm 0.00 in0.0 mm 0.00 in0.0 mm
04:42 AM 31.6°F-0.2°C 27.0°F-2.8°C 83% Calm Calm -- 29.37 in994.6 mb 0.00 in0.0 mm 0.00 in0.0 mm 0.00 in0.0 mm
04:45 AM 31.5°F-0.3°C 26.8°F-2.9°C 83% Calm Calm -- 29.37 in994.6 mb 0.00 in0.0 mm 0.00 in0.0 mm 0.00 in0.0 mm
04:50 AM 31.5°F-0.3°C 26.8°F-2.9°C 83% Calm Calm -- 29.37 in994.6 mb 0.00 in0.0 mm 0.00 in0.0 mm 0.00 in0.0 mm
04:51 AM 31.5°F-0.3°C 26.8°F-2.9°C 83% Calm Calm -- 29.37 in994.6 mb 0.00 in0.0 mm 0.00 in0.0 mm 0.00 in0.0 mm
04:55 AM 31.5°F-0.3°C 26.8°F-2.9°C 83% Calm Calm -- 29.38 in994.9 mb 0.00 in0.0 mm 0.00 in0.0 mm 0.00 in0.0 mm
04:57 AM 31.5°F-0.3°C 26.8°F-2.9°C 83% Calm Calm -- 29.37 in994.6 mb 0.00 in0.0 mm 0.00 in0.0 mm 0.00 in0.0 mm
04:58 AM 31.5°F-0.3°C 26.8°F-2.9°C 83% Calm Calm -- 29.38 in994.9 mb 0.00 in0.0 mm 0.00 in0.0 mm 0.00 in0.0 mm
04:59 AM 31.6°F-0.2°C 27.0°F-2.8°C 83% 4.0 mph WNW6.4 kmh WNW -- 29.38 in994.9 mb 0.00 in0.0 mm 0.00 in0.0 mm 0.00 in0.0 mm
05:00 AM 31.6°F-0.2°C 27.0°F-2.8°C 83% 3.0 mph WNW4.8 kmh WNW -- 29.38 in994.9 mb 0.00 in0.0 mm 0.00 in0.0 mm 0.00 in0.0 mm
05:01 AM 31.7°F-0.2°C 27.0°F-2.8°C 83% 1.0 mph WNW1.6 kmh WNW -- 29.37 in994.6 mb 0.00 in0.0 mm 0.00 in0.0 mm 0.00 in0.0 mm
05:02 AM 31.7°F-0.2°C 27.0°F-2.8°C 83% Calm Calm -- 29.37 in994.6 mb 0.00 in0.0 mm 0.00 in0.0 mm 0.00 in0.0 mm
05:04 AM 31.7°F-0.2°C 27.0°F-2.8°C 83% 2.0 mph NNW3.2 kmh NNW -- 29.37 in994.6 mb 0.00 in0.0 mm 0.00 in0.0 mm 0.00 in0.0 mm
05:05 AM 31.9°F-0.1°C 27.2°F-2.7°C 83% Calm Calm -- 29.37 in994.6 mb 0.00 in0.0 mm 0.00 in0.0 mm 0.00 in0.0 mm
05:07 AM 32.2°F0.1°C 27.5°F-2.5°C 83% Calm Calm -- 29.37 in994.6 mb 0.00 in0.0 mm 0.00 in0.0 mm 0.00 in0.0 mm
05:09 AM 32.4°F0.2°C 27.7°F-2.4°C 83% Calm Calm -- 29.37 in994.6 mb 0.00 in0.0 mm 0.00 in0.0 mm 0.00 in0.0 mm
05:10 AM 32.4°F0.2°C 27.7°F-2.4°C 83% 1.0 mph 1.6 kmh -- 29.37 in994.6 mb 0.00 in0.0 mm 0.00 in0.0 mm 0.00 in0.0 mm
05:11 AM 32.4°F0.2°C 27.7°F-2.4°C 83% Calm Calm -- 29.37 in994.6 mb 0.00 in0.0 mm 0.00 in0.0 mm 0.00 in0.0 mm
05:12 AM 32.4°F0.2°C 27.7°F-2.4°C 83% Calm Calm -- 29.37 in994.6 mb 0.00 in0.0 mm 0.00 in0.0 mm 0.00 in0.0 mm
05:14 AM 32.4°F0.2°C 27.1°F-2.7°C 81% Calm Calm -- 29.37 in994.6 mb 0.00 in0.0 mm 0.00 in0.0 mm 0.00 in0.0 mm
05:15 AM 32.5°F0.3°C 27.3°F-2.6°C 81% Calm Calm -- 29.37 in994.6 mb 0.00 in0.0 mm 0.00 in0.0 mm 0.00 in0.0 mm
05:16 AM 32.6°F0.3°C 27.3°F-2.6°C 81% 1.0 mph NNE1.6 kmh NNE -- 29.37 in994.6 mb 0.00 in0.0 mm 0.00 in0.0 mm 0.00 in0.0 mm
05:17 AM 32.7°F0.4°C 27.8°F-2.3°C 82% 2.0 mph NNE3.2 kmh NNE -- 29.37 in994.6 mb 0.00 in0.0 mm 0.00 in0.0 mm 0.00 in0.0 mm
05:18 AM 32.9°F0.5°C 27.6°F-2.4°C 81% Calm Calm -- 29.37 in994.6 mb 0.00 in0.0 mm 0.00 in0.0 mm 0.00 in0.0 mm
05:19 AM 32.9°F0.5°C 27.6°F-2.4°C 81% Calm Calm -- 29.37 in994.6 mb 0.00 in0.0 mm 0.00 in0.0 mm 0.00 in0.0 mm
05:20 AM 33.0°F0.6°C 27.8°F-2.3°C 81% Calm Calm -- 29.37 in994.6 mb 0.00 in0.0 mm 0.00 in0.0 mm 0.00 in0.0 mm
05:26 AM 33.0°F0.6°C 27.8°F-2.3°C 81% Calm Calm -- 29.37 in994.6 mb 0.00 in0.0 mm 0.00 in0.0 mm 0.00 in0.0 mm
05:27 AM 33.0°F0.6°C 27.8°F-2.3°C 81% Calm Calm -- 29.37 in994.6 mb 0.00 in0.0 mm 0.00 in0.0 mm 0.00 in0.0 mm
05:28 AM 33.0°F0.6°C 27.8°F-2.3°C 81% 3.0 mph W4.8 kmh W -- 29.38 in994.9 mb 0.00 in0.0 mm 0.00 in0.0 mm 0.00 in0.0 mm
05:29 AM 33.0°F0.6°C 27.8°F-2.3°C 81% 1.0 mph SW1.6 kmh SW -- 29.38 in994.9 mb 0.00 in0.0 mm 0.00 in0.0 mm 0.00 in0.0 mm
05:30 AM 33.0°F0.6°C 27.8°F-2.3°C 81% Calm Calm -- 29.38 in994.9 mb 0.00 in0.0 mm 0.00 in0.0 mm 0.00 in0.0 mm
05:31 AM 33.0°F0.6°C 27.8°F-2.3°C 81% Calm Calm -- 29.38 in994.9 mb 0.00 in0.0 mm 0.00 in0.0 mm 0.00 in0.0 mm
05:33 AM 33.0°F0.6°C 27.8°F-2.3°C 81% Calm Calm -- 29.38 in994.9 mb 0.00 in0.0 mm 0.00 in0.0 mm 0.00 in0.0 mm
05:34 AM 33.0°F0.6°C 28.4°F-2.0°C 83% Calm Calm -- 29.38 in994.9 mb 0.00 in0.0 mm 0.00 in0.0 mm 0.00 in0.0 mm
05:35 AM 33.0°F0.6°C 28.4°F-2.0°C 83% Calm Calm -- 29.38 in994.9 mb 0.00 in0.0 mm 0.00 in0.0 mm 0.00 in0.0 mm
05:38 AM 33.0°F0.6°C 28.4°F-2.0°C 83% 2.0 mph W3.2 kmh W -- 29.38 in994.9 mb 0.00 in0.0 mm 0.00 in0.0 mm 0.00 in0.0 mm
05:40 AM 33.2°F0.7°C 28.6°F-1.9°C 83% 2.0 mph W3.2 kmh W -- 29.38 in994.9 mb 0.00 in0.0 mm 0.00 in0.0 mm 0.00 in0.0 mm
05:41 AM 33.2°F0.7°C 28.6°F-1.9°C 83% 2.0 mph NNW3.2 kmh NNW -- 29.38 in994.9 mb 0.00 in0.0 mm 0.00 in0.0 mm 0.00 in0.0 mm
05:42 AM 33.2°F0.7°C 28.6°F-1.9°C 83% 3.0 mph WNW4.8 kmh WNW -- 29.38 in994.9 mb 0.00 in0.0 mm 0.00 in0.0 mm 0.00 in0.0 mm
05:43 AM 33.5°F0.8°C 28.2°F-2.1°C 81% 1.0 mph 1.6 kmh -- 29.38 in994.9 mb 0.00 in0.0 mm 0.00 in0.0 mm 0.00 in0.0 mm
05:44 AM 33.5°F0.8°C 28.2°F-2.1°C 81% 4.0 mph SSW6.4 kmh SSW -- 29.38 in994.9 mb 0.00 in0.0 mm 0.00 in0.0 mm 0.00 in0.0 mm
05:45 AM 33.5°F0.8°C 28.2°F-2.1°C 81% 4.0 mph SW6.4 kmh SW -- 29.38 in994.9 mb 0.00 in0.0 mm 0.00 in0.0 mm 0.00 in0.0 mm
05:46 AM 33.5°F0.8°C 28.2°F-2.1°C 81% 2.0 mph WSW3.2 kmh WSW -- 29.38 in994.9 mb 0.00 in0.0 mm 0.00 in0.0 mm 0.00 in0.0 mm
05:47 AM 33.8°F1.0°C 28.2°F-2.1°C 80% Calm Calm -- 29.38 in994.9 mb 0.00 in0.0 mm 0.00 in0.0 mm 0.00 in0.0 mm
05:48 AM 34.0°F1.1°C 28.1°F-2.2°C 79% Calm Calm -- 29.38 in994.9 mb 0.00 in0.0 mm 0.00 in0.0 mm 0.00 in0.0 mm
05:49 AM 34.2°F1.2°C 27.9°F-2.3°C 78% Calm Calm -- 29.38 in994.9 mb 0.00 in0.0 mm 0.00 in0.0 mm 0.00 in0.0 mm
05:50 AM 34.2°F1.2°C 27.9°F-2.3°C 78% 3.0 mph W4.8 kmh W -- 29.38 in994.9 mb 0.00 in0.0 mm 0.00 in0.0 mm 0.00 in0.0 mm
05:51 AM 34.2°F1.2°C 28.3°F-2.1°C 79% Calm Calm -- 29.38 in994.9 mb 0.00 in0.0 mm 0.00 in0.0 mm 0.00 in0.0 mm
05:52 AM 34.2°F1.2°C 28.3°F-2.1°C 79% Calm Calm -- 29.38 in994.9 mb 0.00 in0.0 mm 0.00 in0.0 mm 0.00 in0.0 mm
05:53 AM 34.2°F1.2°C 28.3°F-2.1°C 79% Calm Calm -- 29.38 in994.9 mb 0.00 in0.0 mm 0.00 in0.0 mm 0.00 in0.0 mm
05:54 AM 34.2°F1.2°C 28.6°F-1.9°C 80% Calm Calm -- 29.38 in994.9 mb 0.00 in0.0 mm 0.00 in0.0 mm 0.00 in0.0 mm
05:55 AM 34.2°F1.2°C 28.3°F-2.1°C 79% Calm Calm -- 29.38 in994.9 mb 0.00 in0.0 mm 0.00 in0.0 mm 0.00 in0.0 mm
05:56 AM 34.5°F1.4°C 28.3°F-2.1°C 78% 2.0 mph WNW3.2 kmh WNW -- 29.38 in994.9 mb 0.00 in0.0 mm 0.00 in0.0 mm 0.00 in0.0 mm
05:57 AM 34.7°F1.5°C 27.8°F-2.3°C 76% Calm Calm -- 29.38 in994.9 mb 0.00 in0.0 mm 0.00 in0.0 mm 0.00 in0.0 mm
05:59 AM 34.7°F1.5°C 27.8°F-2.3°C 76% Calm Calm -- 29.38 in994.9 mb 0.00 in0.0 mm 0.00 in0.0 mm 0.00 in0.0 mm
06:00 AM 34.7°F1.5°C 28.5°F-1.9°C 78% 2.0 mph NW3.2 kmh NW -- 29.38 in994.9 mb 0.00 in0.0 mm 0.00 in0.0 mm 0.00 in0.0 mm
06:01 AM 35.0°F1.7°C 28.2°F-2.1°C 76% Calm Calm -- 29.38 in994.9 mb 0.00 in0.0 mm 0.00 in0.0 mm 0.00 in0.0 mm
06:02 AM 35.1°F1.7°C 28.2°F-2.1°C 76% Calm Calm -- 29.38 in994.9 mb 0.00 in0.0 mm 0.00 in0.0 mm 0.00 in0.0 mm
06:04 AM 35.1°F1.7°C 28.2°F-2.1°C 76% 2.0 mph NW3.2 kmh NW -- 29.38 in994.9 mb 0.00 in0.0 mm 0.00 in0.0 mm 0.00 in0.0 mm
06:05 AM 35.4°F1.9°C 28.5°F-1.9°C 76% 2.0 mph NW3.2 kmh NW -- 29.38 in994.9 mb 0.00 in0.0 mm 0.00 in0.0 mm 0.00 in0.0 mm
06:06 AM 35.5°F1.9°C 28.2°F-2.1°C 75% Calm Calm -- 29.38 in994.9 mb 0.00 in0.0 mm 0.00 in0.0 mm 0.00 in0.0 mm
06:07 AM 35.7°F2.1°C 28.5°F-1.9°C 75% Calm Calm -- 29.38 in994.9 mb 0.00 in0.0 mm 0.00 in0.0 mm 0.00 in0.0 mm
06:08 AM 36.1°F2.3°C 28.9°F-1.7°C 75% 4.0 mph W6.4 kmh W -- 29.38 in994.9 mb 0.00 in0.0 mm 0.00 in0.0 mm 0.00 in0.0 mm
06:09 AM 36.9°F2.7°C 29.3°F-1.5°C 74% Calm Calm -- 29.38 in994.9 mb 0.00 in0.0 mm 0.00 in0.0 mm 0.00 in0.0 mm
06:10 AM 36.9°F2.7°C 29.3°F-1.5°C 74% 2.0 mph ENE3.2 kmh ENE -- 29.38 in994.9 mb 0.00 in0.0 mm 0.00 in0.0 mm 0.00 in0.0 mm
06:11 AM 37.0°F2.8°C 29.8°F-1.2°C 75% Calm Calm -- 29.38 in994.9 mb 0.00 in0.0 mm 0.00 in0.0 mm 0.00 in0.0 mm
06:12 AM 37.0°F2.8°C 29.8°F-1.2°C 75% 1.0 mph ESE1.6 kmh ESE -- 29.38 in994.9 mb 0.00 in0.0 mm 0.00 in0.0 mm 0.00 in0.0 mm
06:13 AM 37.4°F3.0°C 29.8°F-1.2°C 74% 1.0 mph S1.6 kmh S -- 29.38 in994.9 mb 0.00 in0.0 mm 0.00 in0.0 mm 0.00 in0.0 mm
06:14 AM 37.7°F3.2°C 29.8°F-1.2°C 73% 2.0 mph SSE3.2 kmh SSE -- 29.38 in994.9 mb 0.00 in0.0 mm 0.00 in0.0 mm 0.00 in0.0 mm
06:15 AM 37.7°F3.2°C 29.8°F-1.2°C 73% 2.0 mph NNE3.2 kmh NNE -- 29.37 in994.6 mb 0.00 in0.0 mm 0.00 in0.0 mm 0.00 in0.0 mm
06:16 AM 37.7°F3.2°C 29.8°F-1.2°C 73% Calm Calm -- 29.38 in994.9 mb 0.00 in0.0 mm 0.00 in0.0 mm 0.00 in0.0 mm
06:17 AM 37.7°F3.2°C 30.1°F-1.1°C 74% Calm Calm -- 29.38 in994.9 mb 0.00 in0.0 mm 0.00 in0.0 mm 0.00 in0.0 mm
06:18 AM 37.8°F3.2°C 30.1°F-1.1°C 74% Calm Calm -- 29.37 in994.6 mb 0.00 in0.0 mm 0.00 in0.0 mm 0.00 in0.0 mm
06:19 AM 37.8°F3.2°C 30.1°F-1.1°C 74% Calm Calm -- 29.37 in994.6 mb 0.00 in0.0 mm 0.00 in0.0 mm 0.00 in0.0 mm
06:20 AM 37.7°F3.2°C 30.1°F-1.1°C 74% Calm Calm -- 29.37 in994.6 mb 0.00 in0.0 mm 0.00 in0.0 mm 0.00 in0.0 mm
06:21 AM 37.7°F3.2°C 30.1°F-1.1°C 74% Calm Calm -- 29.38 in994.9 mb 0.00 in0.0 mm 0.00 in0.0 mm 0.00 in0.0 mm
06:22 AM 37.7°F3.2°C 30.1°F-1.1°C 74% Calm Calm -- 29.38 in994.9 mb 0.00 in0.0 mm 0.00 in0.0 mm 0.00 in0.0 mm
06:23 AM 37.7°F3.2°C 29.8°F-1.2°C 73% Calm Calm -- 29.38 in994.9 mb 0.00 in0.0 mm 0.00 in0.0 mm 0.00 in0.0 mm
06:24 AM 37.7°F3.2°C 29.8°F-1.2°C 73% 2.0 mph W3.2 kmh W -- 29.38 in994.9 mb 0.00 in0.0 mm 0.00 in0.0 mm 0.00 in0.0 mm
06:25 AM 37.8°F3.2°C 29.8°F-1.2°C 73% 3.0 mph W4.8 kmh W -- 29.37 in994.6 mb 0.00 in0.0 mm 0.00 in0.0 mm 0.00 in0.0 mm
06:26 AM 38.4°F3.6°C 29.8°F-1.2°C 71% 3.0 mph W4.8 kmh W -- 29.37 in994.6 mb 0.00 in0.0 mm 0.00 in0.0 mm 0.00 in0.0 mm
06:27 AM 38.7°F3.7°C 30.0°F-1.1°C 71% 2.0 mph NW3.2 kmh NW -- 29.38 in994.9 mb 0.00 in0.0 mm 0.00 in0.0 mm 0.00 in0.0 mm
06:28 AM 39.2°F4.0°C 30.5°F-0.8°C 71% 2.0 mph NNW3.2 kmh NNW -- 29.38 in994.9 mb 0.00 in0.0 mm 0.00 in0.0 mm 0.00 in0.0 mm
06:29 AM 39.5°F4.2°C 30.8°F-0.7°C 71% 2.0 mph W3.2 kmh W -- 29.38 in994.9 mb 0.00 in0.0 mm 0.00 in0.0 mm 0.00 in0.0 mm
06:30 AM 39.7°F4.3°C 31.0°F-0.6°C 71% 3.0 mph WNW4.8 kmh WNW -- 29.38 in994.9 mb 0.00 in0.0 mm 0.00 in0.0 mm 0.00 in0.0 mm
06:31 AM 40.2°F4.6°C 31.2°F-0.4°C 70% 2.0 mph WNW3.2 kmh WNW -- 29.38 in994.9 mb 0.00 in0.0 mm 0.00 in0.0 mm 0.00 in0.0 mm
06:32 AM 40.7°F4.8°C 30.8°F-0.7°C 68% 5.0 mph NW8.0 kmh NW -- 29.38 in994.9 mb 0.00 in0.0 mm 0.00 in0.0 mm 0.00 in0.0 mm
06:33 AM 41.1°F5.1°C 30.2°F-1.0°C 65% 4.0 mph NW6.4 kmh NW -- 29.38 in994.9 mb 0.00 in0.0 mm 0.00 in0.0 mm 0.00 in0.0 mm
06:34 AM 41.5°F5.3°C 30.5°F-0.8°C 65% 1.0 mph 1.6 kmh -- 29.38 in994.9 mb 0.00 in0.0 mm 0.00 in0.0 mm 0.00 in0.0 mm
06:35 AM 41.1°F5.1°C 30.6°F-0.8°C 66% Calm Calm -- 29.38 in994.9 mb 0.00 in0.0 mm 0.00 in0.0 mm 0.00 in0.0 mm
06:36 AM 41.1°F5.1°C 30.6°F-0.8°C 66% 2.0 mph E3.2 kmh E -- 29.38 in994.9 mb 0.00 in0.0 mm 0.00 in0.0 mm 0.00 in0.0 mm
06:37 AM 41.1°F5.1°C 30.2°F-1.0°C 65% 1.0 mph E1.6 kmh E -- 29.37 in994.6 mb 0.00 in0.0 mm 0.00 in0.0 mm 0.00 in0.0 mm
06:38 AM 41.1°F5.1°C 30.2°F-1.0°C 65% 3.0 mph ESE4.8 kmh ESE -- 29.38 in994.9 mb 0.00 in0.0 mm 0.00 in0.0 mm 0.00 in0.0 mm
06:39 AM 41.5°F5.3°C 30.5°F-0.8°C 65% 2.0 mph SSE3.2 kmh SSE -- 29.38 in994.9 mb 0.00 in0.0 mm 0.00 in0.0 mm 0.00 in0.0 mm
06:40 AM 41.7°F5.4°C 30.7°F-0.7°C 65% 2.0 mph S3.2 kmh S -- 29.38 in994.9 mb 0.00 in0.0 mm 0.00 in0.0 mm 0.00 in0.0 mm
06:41 AM 41.7°F5.4°C 30.7°F-0.7°C 65% 3.0 mph S4.8 kmh S -- 29.38 in994.9 mb 0.00 in0.0 mm 0.00 in0.0 mm 0.00 in0.0 mm
06:42 AM 42.5°F5.8°C 30.6°F-0.8°C 63% 3.0 mph SE4.8 kmh SE -- 29.37 in994.6 mb 0.00 in0.0 mm 0.00 in0.0 mm 0.00 in0.0 mm
06:43 AM 42.5°F5.8°C 30.6°F-0.8°C 63% 2.0 mph SSE3.2 kmh SSE -- 29.37 in994.6 mb 0.00 in0.0 mm 0.00 in0.0 mm 0.00 in0.0 mm
06:45 AM 43.0°F6.1°C 30.3°F-0.9°C 61% 2.0 mph ESE3.2 kmh ESE -- 29.37 in994.6 mb 0.00 in0.0 mm 0.00 in0.0 mm 0.00 in0.0 mm
06:46 AM 43.2°F6.2°C 30.5°F-0.8°C 61% 3.0 mph SSE4.8 kmh SSE -- 29.38 in994.9 mb 0.00 in0.0 mm 0.00 in0.0 mm 0.00 in0.0 mm
06:47 AM 43.2°F6.2°C 30.5°F-0.8°C 61% 1.0 mph SSE1.6 kmh SSE -- 29.37 in994.6 mb 0.00 in0.0 mm 0.00 in0.0 mm 0.00 in0.0 mm
06:48 AM 43.4°F6.3°C 30.2°F-1.0°C 60% 2.0 mph S3.2 kmh S -- 29.37 in994.6 mb 0.00 in0.0 mm 0.00 in0.0 mm 0.00 in0.0 mm
06:49 AM 43.6°F6.4°C 30.4°F-0.9°C 60% 2.0 mph S3.2 kmh S -- 29.37 in994.6 mb 0.00 in0.0 mm 0.00 in0.0 mm 0.00 in0.0 mm
06:50 AM 43.6°F6.4°C 30.4°F-0.9°C 60% 3.0 mph ESE4.8 kmh ESE -- 29.37 in994.6 mb 0.00 in0.0 mm 0.00 in0.0 mm 0.00 in0.0 mm
06:51 AM 43.4°F6.3°C 30.2°F-1.0°C 60% 3.0 mph ESE4.8 kmh ESE -- 29.37 in994.6 mb 0.00 in0.0 mm 0.00 in0.0 mm 0.00 in0.0 mm
06:52 AM 43.4°F6.3°C 30.2°F-1.0°C 60% 2.0 mph ESE3.2 kmh ESE -- 29.37 in994.6 mb 0.00 in0.0 mm 0.00 in0.0 mm 0.00 in0.0 mm
06:53 AM 43.2°F6.2°C 30.5°F-0.8°C 61% 2.0 mph ESE3.2 kmh ESE -- 29.37 in994.6 mb 0.00 in0.0 mm 0.00 in0.0 mm 0.00 in0.0 mm
06:54 AM 43.2°F6.2°C 30.5°F-0.8°C 61% Calm Calm -- 29.37 in994.6 mb 0.00 in0.0 mm 0.00 in0.0 mm 0.00 in0.0 mm
06:57 AM 43.2°F6.2°C 30.5°F-0.8°C 61% 1.0 mph ESE1.6 kmh ESE -- 29.37 in994.6 mb 0.00 in0.0 mm 0.00 in0.0 mm 0.00 in0.0 mm
06:59 AM 43.2°F6.2°C 30.5°F-0.8°C 61% 2.0 mph ESE3.2 kmh ESE -- 29.37 in994.6 mb 0.00 in0.0 mm 0.00 in0.0 mm 0.00 in0.0 mm
07:00 AM 43.2°F6.2°C 30.1°F-1.1°C 60% 2.0 mph ESE3.2 kmh ESE -- 29.37 in994.6 mb 0.00 in0.0 mm 0.00 in0.0 mm 0.00 in0.0 mm
07:01 AM 43.2°F6.2°C 30.1°F-1.1°C 60% Calm Calm -- 29.37 in994.6 mb 0.00 in0.0 mm 0.00 in0.0 mm 0.00 in0.0 mm
07:02 AM 43.4°F6.3°C 30.2°F-1.0°C 60% Calm Calm -- 29.37 in994.6 mb 0.00 in0.0 mm 0.00 in0.0 mm 0.00 in0.0 mm
07:03 AM 43.6°F6.4°C 30.4°F-0.9°C 60% 1.0 mph E1.6 kmh E -- 29.37 in994.6 mb 0.00 in0.0 mm 0.00 in0.0 mm 0.00 in0.0 mm
07:05 AM 43.6°F6.4°C 30.4°F-0.9°C 60% Calm Calm -- 29.37 in994.6 mb 0.00 in0.0 mm 0.00 in0.0 mm 0.00 in0.0 mm
07:06 AM 43.6°F6.4°C 30.4°F-0.9°C 60% Calm Calm -- 29.37 in994.6 mb 0.00 in0.0 mm 0.00 in0.0 mm 0.00 in0.0 mm
07:07 AM 43.6°F6.4°C 30.4°F-0.9°C 60% Calm Calm -- 29.37 in994.6 mb 0.00 in0.0 mm 0.00 in0.0 mm 0.00 in0.0 mm
07:08 AM 43.6°F6.4°C 30.4°F-0.9°C 60% Calm Calm -- 29.37 in994.6 mb 0.00 in0.0 mm 0.00 in0.0 mm 0.00 in0.0 mm
07:09 AM 43.6°F6.4°C 30.4°F-0.9°C 60% Calm Calm -- 29.37 in994.6 mb 0.00 in0.0 mm 0.00 in0.0 mm 0.00 in0.0 mm
07:10 AM 43.6°F6.4°C 30.4°F-0.9°C 60% Calm Calm -- 29.37 in994.6 mb 0.00 in0.0 mm 0.00 in0.0 mm 0.00 in0.0 mm
07:12 AM 43.7°F6.5°C 30.6°F-0.8°C 60% Calm Calm -- 29.37 in994.6 mb 0.00 in0.0 mm 0.00 in0.0 mm 0.00 in0.0 mm
07:13 AM 43.6°F6.4°C 30.4°F-0.9°C 60% Calm Calm -- 29.37 in994.6 mb 0.00 in0.0 mm 0.00 in0.0 mm 0.00 in0.0 mm
07:14 AM 43.6°F6.4°C 30.4°F-0.9°C 60% Calm Calm -- 29.37 in994.6 mb 0.00 in0.0 mm 0.00 in0.0 mm 0.00 in0.0 mm
07:17 AM 43.6°F6.4°C 30.4°F-0.9°C 60% Calm Calm -- 29.37 in994.6 mb 0.00 in0.0 mm 0.00 in0.0 mm 0.00 in0.0 mm
07:18 AM 43.6°F6.4°C 30.4°F-0.9°C 60% Calm Calm -- 29.37 in994.6 mb 0.00 in0.0 mm 0.00 in0.0 mm 0.00 in0.0 mm
07:23 AM 43.6°F6.4°C 30.8°F-0.7°C 61% Calm Calm -- 29.37 in994.6 mb 0.00 in0.0 mm 0.00 in0.0 mm 0.00 in0.0 mm
07:26 AM 43.6°F6.4°C 30.8°F-0.7°C 61% Calm Calm -- 29.37 in994.6 mb 0.00 in0.0 mm 0.00 in0.0 mm 0.00 in0.0 mm
07:27 AM 43.6°F6.4°C 30.8°F-0.7°C 61% Calm Calm -- 29.37 in994.6 mb 0.00 in0.0 mm 0.00 in0.0 mm 0.00 in0.0 mm
07:28 AM 43.6°F6.4°C 31.6°F-0.2°C 63% 4.0 mph WNW6.4 kmh WNW -- 29.37 in994.6 mb 0.00 in0.0 mm 0.00 in0.0 mm 0.00 in0.0 mm
07:29 AM 43.4°F6.3°C 32.2°F0.1°C 65% 6.0 mph WNW9.7 kmh WNW -- 29.37 in994.6 mb 0.00 in0.0 mm 0.00 in0.0 mm 0.00 in0.0 mm
07:30 AM 43.0°F6.1°C 33.0°F0.6°C 68% 7.0 mph NW11.3 kmh NW -- 29.37 in994.6 mb 0.00 in0.0 mm 0.00 in0.0 mm 0.00 in0.0 mm
07:31 AM 42.7°F5.9°C 31.9°F-0.1°C 66% 7.0 mph W11.3 kmh W -- 29.38 in994.9 mb 0.00 in0.0 mm 0.00 in0.0 mm 0.00 in0.0 mm
07:32 AM 42.7°F5.9°C 31.6°F-0.2°C 65% 5.0 mph W8.0 kmh W -- 29.38 in994.9 mb 0.00 in0.0 mm 0.00 in0.0 mm 0.00 in0.0 mm
07:33 AM 42.5°F5.8°C 31.4°F-0.3°C 65% 4.0 mph W6.4 kmh W -- 29.38 in994.9 mb 0.00 in0.0 mm 0.00 in0.0 mm 0.00 in0.0 mm
07:34 AM 42.5°F5.8°C 31.4°F-0.3°C 65% 3.0 mph W4.8 kmh W -- 29.38 in994.9 mb 0.00 in0.0 mm 0.00 in0.0 mm 0.00 in0.0 mm
07:35 AM 42.4°F5.8°C 31.4°F-0.3°C 65% 3.0 mph W4.8 kmh W -- 29.38 in994.9 mb 0.00 in0.0 mm 0.00 in0.0 mm 0.00 in0.0 mm
07:36 AM 42.4°F5.8°C 31.4°F-0.3°C 65% 3.0 mph WNW4.8 kmh WNW -- 29.38 in994.9 mb 0.00 in0.0 mm 0.00 in0.0 mm 0.00 in0.0 mm
07:37 AM 42.4°F5.8°C 31.8°F-0.1°C 66% 4.0 mph W6.4 kmh W -- 29.38 in994.9 mb 0.00 in0.0 mm 0.00 in0.0 mm 0.00 in0.0 mm
07:38 AM 42.3°F5.7°C 31.2°F-0.4°C 65% 5.0 mph W8.0 kmh W -- 29.38 in994.9 mb 0.00 in0.0 mm 0.00 in0.0 mm 0.00 in0.0 mm
07:39 AM 42.3°F5.7°C 31.2°F-0.4°C 65% 8.0 mph W12.9 kmh W -- 29.38 in994.9 mb 0.00 in0.0 mm 0.00 in0.0 mm 0.00 in0.0 mm
07:40 AM 42.3°F5.7°C 31.2°F-0.4°C 65% 6.0 mph W9.7 kmh W -- 29.38 in994.9 mb 0.00 in0.0 mm 0.00 in0.0 mm 0.00 in0.0 mm
07:42 AM 42.1°F5.6°C 31.4°F-0.3°C 66% 5.0 mph W8.0 kmh W -- 29.38 in994.9 mb 0.00 in0.0 mm 0.00 in0.0 mm 0.00 in0.0 mm
07:43 AM 41.9°F5.5°C 31.2°F-0.4°C 66% 4.0 mph W6.4 kmh W -- 29.38 in994.9 mb 0.00 in0.0 mm 0.00 in0.0 mm 0.00 in0.0 mm
07:44 AM 41.9°F5.5°C 31.2°F-0.4°C 66% 7.0 mph WSW11.3 kmh WSW -- 29.38 in994.9 mb 0.00 in0.0 mm 0.00 in0.0 mm 0.00 in0.0 mm
07:45 AM 41.9°F5.5°C 31.2°F-0.4°C 66% 5.0 mph W8.0 kmh W -- 29.38 in994.9 mb 0.00 in0.0 mm 0.00 in0.0 mm 0.00 in0.0 mm
07:46 AM 41.7°F5.4°C 31.1°F-0.5°C 66% 4.0 mph W6.4 kmh W -- 29.38 in994.9 mb 0.00 in0.0 mm 0.00 in0.0 mm 0.00 in0.0 mm
07:47 AM 41.7°F5.4°C 31.1°F-0.5°C 66% 5.0 mph W8.0 kmh W -- 29.38 in994.9 mb 0.00 in0.0 mm 0.00 in0.0 mm 0.00 in0.0 mm
07:48 AM 41.7°F5.4°C 31.1°F-0.5°C 66% 4.0 mph W6.4 kmh W -- 29.38 in994.9 mb 0.00 in0.0 mm 0.00 in0.0 mm 0.00 in0.0 mm
07:49 AM 41.7°F5.4°C 31.1°F-0.5°C 66% 5.0 mph W8.0 kmh W -- 29.38 in994.9 mb 0.00 in0.0 mm 0.00 in0.0 mm 0.00 in0.0 mm
07:50 AM 41.7°F5.4°C 31.1°F-0.5°C 66% 3.0 mph SW4.8 kmh SW -- 29.38 in994.9 mb 0.00 in0.0 mm 0.00 in0.0 mm 0.00 in0.0 mm
07:51 AM 41.7°F5.4°C 30.7°F-0.7°C 65% 6.0 mph WSW9.7 kmh WSW -- 29.39 in995.3 mb 0.00 in0.0 mm 0.00 in0.0 mm 0.00 in0.0 mm
07:52 AM 41.7°F5.4°C 30.7°F-0.7°C 65% 5.0 mph WSW8.0 kmh WSW -- 29.39 in995.3 mb 0.00 in0.0 mm 0.00 in0.0 mm 0.00 in0.0 mm
07:53 AM 41.9°F5.5°C 30.9°F-0.6°C 65% 7.0 mph SW11.3 kmh SW -- 29.39 in995.3 mb 0.00 in0.0 mm 0.00 in0.0 mm 0.00 in0.0 mm
07:54 AM 41.9°F5.5°C 30.9°F-0.6°C 65% 4.0 mph W6.4 kmh W -- 29.39 in995.3 mb 0.00 in0.0 mm 0.00 in0.0 mm 0.00 in0.0 mm
07:55 AM 41.9°F5.5°C 30.9°F-0.6°C 65% 6.0 mph W9.7 kmh W -- 29.38 in994.9 mb 0.00 in0.0 mm 0.00 in0.0 mm 0.00 in0.0 mm
07:56 AM 41.9°F5.5°C 30.9°F-0.6°C 65% 5.0 mph W8.0 kmh W -- 29.38 in994.9 mb 0.00 in0.0 mm 0.00 in0.0 mm 0.00 in0.0 mm
07:57 AM 41.9°F5.5°C 30.9°F-0.6°C 65% 4.0 mph W6.4 kmh W -- 29.39 in995.3 mb 0.00 in0.0 mm 0.00 in0.0 mm 0.00 in0.0 mm
07:58 AM 41.9°F5.5°C 31.2°F-0.4°C 66% 5.0 mph W8.0 kmh W -- 29.39 in995.3 mb 0.00 in0.0 mm 0.00 in0.0 mm 0.00 in0.0 mm
07:59 AM 41.9°F5.5°C 31.2°F-0.4°C 66% 2.0 mph WNW3.2 kmh WNW -- 29.39 in995.3 mb 0.00 in0.0 mm 0.00 in0.0 mm 0.00 in0.0 mm
08:00 AM 41.7°F5.4°C 31.1°F-0.5°C 66% 3.0 mph NNW4.8 kmh NNW -- 29.39 in995.3 mb 0.00 in0.0 mm 0.00 in0.0 mm 0.00 in0.0 mm
08:01 AM 41.7°F5.4°C 31.1°F-0.5°C 66% 3.0 mph W4.8 kmh W -- 29.39 in995.3 mb 0.00 in0.0 mm 0.00 in0.0 mm 0.00 in0.0 mm
08:02 AM 41.7°F5.4°C 31.1°F-0.5°C 66% 4.0 mph NW6.4 kmh NW -- 29.39 in995.3 mb 0.00 in0.0 mm 0.00 in0.0 mm 0.00 in0.0 mm
08:03 AM 41.7°F5.4°C 31.1°F-0.5°C 66% Calm Calm -- 29.39 in995.3 mb 0.00 in0.0 mm 0.00 in0.0 mm 0.00 in0.0 mm
08:06 AM 41.7°F5.4°C 31.8°F-0.1°C 68% Calm Calm -- 29.39 in995.3 mb 0.00 in0.0 mm 0.00 in0.0 mm 0.00 in0.0 mm
08:07 AM 41.7°F5.4°C 31.8°F-0.1°C 68% 4.0 mph NNW6.4 kmh NNW -- 29.39 in995.3 mb 0.00 in0.0 mm 0.00 in0.0 mm 0.00 in0.0 mm
08:08 AM 41.7°F5.4°C 31.8°F-0.1°C 68% 3.0 mph WNW4.8 kmh WNW -- 29.39 in995.3 mb 0.00 in0.0 mm 0.00 in0.0 mm 0.00 in0.0 mm
08:09 AM 41.7°F5.4°C 31.8°F-0.1°C 68% 2.0 mph W3.2 kmh W -- 29.39 in995.3 mb 0.00 in0.0 mm 0.00 in0.0 mm 0.00 in0.0 mm
08:11 AM 41.9°F5.5°C 32.0°F0.0°C 68% 1.0 mph WSW1.6 kmh WSW -- 29.39 in995.3 mb 0.00 in0.0 mm 0.00 in0.0 mm 0.00 in0.0 mm
08:12 AM 41.9°F5.5°C 32.0°F0.0°C 68% Calm Calm -- 29.39 in995.3 mb 0.00 in0.0 mm 0.00 in0.0 mm 0.00 in0.0 mm
08:13 AM 41.9°F5.5°C 32.0°F0.0°C 68% Calm Calm -- 29.38 in994.9 mb 0.00 in0.0 mm 0.00 in0.0 mm 0.00 in0.0 mm
08:14 AM 41.9°F5.5°C 32.0°F0.0°C 68% 2.0 mph W3.2 kmh W -- 29.38 in994.9 mb 0.00 in0.0 mm 0.00 in0.0 mm 0.00 in0.0 mm
08:15 AM 42.1°F5.6°C 32.2°F0.1°C 68% 1.0 mph WNW1.6 kmh WNW -- 29.39 in995.3 mb 0.00 in0.0 mm 0.00 in0.0 mm 0.00 in0.0 mm
08:16 AM 42.1°F5.6°C 32.2°F0.1°C 68% Calm Calm -- 29.39 in995.3 mb 0.00 in0.0 mm 0.00 in0.0 mm 0.00 in0.0 mm
08:17 AM 42.3°F5.7°C 32.3°F0.2°C 68% Calm Calm -- 29.39 in995.3 mb 0.00 in0.0 mm 0.00 in0.0 mm 0.00 in0.0 mm
08:18 AM 42.3°F5.7°C 32.3°F0.2°C 68% Calm Calm -- 29.39 in995.3 mb 0.00 in0.0 mm 0.00 in0.0 mm 0.00 in0.0 mm
08:19 AM 42.3°F5.7°C 32.3°F0.2°C 68% Calm Calm -- 29.39 in995.3 mb 0.00 in0.0 mm 0.00 in0.0 mm 0.00 in0.0 mm
08:20 AM 42.4°F5.8°C 32.9°F0.5°C 69% Calm Calm -- 29.39 in995.3 mb 0.00 in0.0 mm 0.00 in0.0 mm 0.00 in0.0 mm
08:22 AM 42.5°F5.8°C 32.9°F0.5°C 69% 5.0 mph W8.0 kmh W -- 29.39 in995.3 mb 0.00 in0.0 mm 0.00 in0.0 mm 0.00 in0.0 mm
08:23 AM 43.0°F6.1°C 33.0°F0.6°C 68% 4.0 mph W6.4 kmh W -- 29.38 in994.9 mb 0.00 in0.0 mm 0.00 in0.0 mm 0.00 in0.0 mm
08:25 AM 43.2°F6.2°C 32.4°F0.2°C 66% 3.0 mph WNW4.8 kmh WNW -- 29.38 in994.9 mb 0.00 in0.0 mm 0.00 in0.0 mm 0.00 in0.0 mm
08:26 AM 43.2°F6.2°C 32.4°F0.2°C 66% 4.0 mph WNW6.4 kmh WNW -- 29.38 in994.9 mb 0.00 in0.0 mm 0.00 in0.0 mm 0.00 in0.0 mm
08:27 AM 43.4°F6.3°C 32.6°F0.3°C 66% 4.0 mph W6.4 kmh W -- 29.38 in994.9 mb 0.00 in0.0 mm 0.00 in0.0 mm 0.00 in0.0 mm
08:28 AM 43.6°F6.4°C 32.8°F0.4°C 66% 5.0 mph WNW8.0 kmh WNW -- 29.38 in994.9 mb 0.00 in0.0 mm 0.00 in0.0 mm 0.00 in0.0 mm
08:29 AM 43.6°F6.4°C 32.8°F0.4°C 66% 4.0 mph W6.4 kmh W -- 29.38 in994.9 mb 0.00 in0.0 mm 0.00 in0.0 mm 0.00 in0.0 mm
08:30 AM 43.9°F6.6°C 33.1°F0.6°C 66% 4.0 mph W6.4 kmh W -- 29.38 in994.9 mb 0.00 in0.0 mm 0.00 in0.0 mm 0.00 in0.0 mm
08:31 AM 43.9°F6.6°C 32.8°F0.4°C 65% 3.0 mph W4.8 kmh W -- 29.38 in994.9 mb 0.00 in0.0 mm 0.00 in0.0 mm 0.00 in0.0 mm
08:32 AM 44.0°F6.7°C 32.9°F0.5°C 65% 3.0 mph W4.8 kmh W -- 29.38 in994.9 mb 0.00 in0.0 mm 0.00 in0.0 mm 0.00 in0.0 mm
08:33 AM 44.0°F6.7°C 32.9°F0.5°C 65% 3.0 mph W4.8 kmh W -- 29.39 in995.3 mb 0.00 in0.0 mm 0.00 in0.0 mm 0.00 in0.0 mm
08:34 AM 44.2°F6.8°C 33.1°F0.6°C 65% 5.0 mph W8.0 kmh W -- 29.39 in995.3 mb 0.00 in0.0 mm 0.00 in0.0 mm 0.00 in0.0 mm
08:35 AM 44.2°F6.8°C 33.1°F0.6°C 65% 3.0 mph W4.8 kmh W -- 29.38 in994.9 mb 0.00 in0.0 mm 0.00 in0.0 mm 0.00 in0.0 mm
08:36 AM 44.2°F6.8°C 33.1°F0.6°C 65% 4.0 mph W6.4 kmh W -- 29.38 in994.9 mb 0.00 in0.0 mm 0.00 in0.0 mm 0.00 in0.0 mm
08:37 AM 44.4°F6.9°C 33.3°F0.7°C 65% 5.0 mph W8.0 kmh W -- 29.38 in994.9 mb 0.00 in0.0 mm 0.00 in0.0 mm 0.00 in0.0 mm
08:38 AM 44.4°F6.9°C 33.3°F0.7°C 65% 4.0 mph W6.4 kmh W -- 29.38 in994.9 mb 0.00 in0.0 mm 0.00 in0.0 mm 0.00 in0.0 mm
08:39 AM 44.4°F6.9°C 33.3°F0.7°C 65% 6.0 mph W9.7 kmh W -- 29.39 in995.3 mb 0.00 in0.0 mm 0.00 in0.0 mm 0.00 in0.0 mm
08:40 AM 44.6°F7.0°C 32.7°F0.4°C 63% 10.0 mph W16.1 kmh W -- 29.39 in995.3 mb 0.00 in0.0 mm 0.00 in0.0 mm 0.00 in0.0 mm
08:41 AM 44.6°F7.0°C 32.7°F0.4°C 63% 6.0 mph W9.7 kmh W -- 29.39 in995.3 mb 0.00 in0.0 mm 0.00 in0.0 mm 0.00 in0.0 mm
08:42 AM 44.6°F7.0°C 32.7°F0.4°C 63% 5.0 mph W8.0 kmh W -- 29.39 in995.3 mb 0.00 in0.0 mm 0.00 in0.0 mm 0.00 in0.0 mm
08:43 AM 44.6°F7.0°C 32.7°F0.4°C 63% 6.0 mph WSW9.7 kmh WSW -- 29.39 in995.3 mb 0.00 in0.0 mm 0.00 in0.0 mm 0.00 in0.0 mm
08:44 AM 44.4°F6.9°C 32.5°F0.3°C 63% 9.0 mph W14.5 kmh W -- 29.38 in994.9 mb 0.00 in0.0 mm 0.00 in0.0 mm 0.00 in0.0 mm
08:45 AM 44.4°F6.9°C 32.5°F0.3°C 63% 7.0 mph W11.3 kmh W -- 29.39 in995.3 mb 0.00 in0.0 mm 0.00 in0.0 mm 0.00 in0.0 mm
08:46 AM 44.2°F6.8°C 32.3°F0.2°C 63% 7.0 mph WSW11.3 kmh WSW -- 29.39 in995.3 mb 0.00 in0.0 mm 0.00 in0.0 mm 0.00 in0.0 mm
08:47 AM 44.2°F6.8°C 32.3°F0.2°C 63% 5.0 mph W8.0 kmh W -- 29.39 in995.3 mb 0.00 in0.0 mm 0.00 in0.0 mm 0.00 in0.0 mm
08:48 AM 44.0°F6.7°C 32.9°F0.5°C 65% 6.0 mph W9.7 kmh W -- 29.39 in995.3 mb 0.00 in0.0 mm 0.00 in0.0 mm 0.00 in0.0 mm
08:49 AM 43.9°F6.6°C 32.0°F0.0°C 63% 6.0 mph W9.7 kmh W -- 29.39 in995.3 mb 0.00 in0.0 mm 0.00 in0.0 mm 0.00 in0.0 mm
08:50 AM 43.9°F6.6°C 32.0°F0.0°C 63% 7.0 mph WSW11.3 kmh WSW -- 29.39 in995.3 mb 0.00 in0.0 mm 0.00 in0.0 mm 0.00 in0.0 mm
08:51 AM 43.4°F6.3°C 31.5°F-0.3°C 63% 6.0 mph W9.7 kmh W -- 29.39 in995.3 mb 0.00 in0.0 mm 0.00 in0.0 mm 0.00 in0.0 mm
08:52 AM 43.2°F6.2°C 31.3°F-0.4°C 63% 7.0 mph W11.3 kmh W -- 29.39 in995.3 mb 0.00 in0.0 mm 0.00 in0.0 mm 0.00 in0.0 mm
08:53 AM 43.0°F6.1°C 31.1°F-0.5°C 63% 11.0 mph W17.7 kmh W -- 29.39 in995.3 mb 0.00 in0.0 mm 0.00 in0.0 mm 0.00 in0.0 mm
08:54 AM 42.7°F5.9°C 31.6°F-0.2°C 65% 7.0 mph W11.3 kmh W -- 29.39 in995.3 mb 0.00 in0.0 mm 0.00 in0.0 mm 0.00 in0.0 mm
08:55 AM 42.5°F5.8°C 31.4°F-0.3°C 65% 5.0 mph W8.0 kmh W -- 29.40 in995.6 mb 0.00 in0.0 mm 0.00 in0.0 mm 0.00 in0.0 mm
08:56 AM 42.4°F5.8°C 31.4°F-0.3°C 65% 6.0 mph W9.7 kmh W -- 29.39 in995.3 mb 0.00 in0.0 mm 0.00 in0.0 mm 0.00 in0.0 mm
08:57 AM 42.4°F5.8°C 31.8°F-0.1°C 66% 6.0 mph W9.7 kmh W -- 29.39 in995.3 mb 0.00 in0.0 mm 0.00 in0.0 mm 0.00 in0.0 mm
08:58 AM 42.4°F5.8°C 31.8°F-0.1°C 66% 8.0 mph W12.9 kmh W -- 29.39 in995.3 mb 0.00 in0.0 mm 0.00 in0.0 mm 0.00 in0.0 mm
08:59 AM 42.4°F5.8°C 31.8°F-0.1°C 66% 5.0 mph W8.0 kmh W -- 29.40 in995.6 mb 0.00 in0.0 mm 0.00 in0.0 mm 0.00 in0.0 mm
09:00 AM 42.3°F5.7°C 31.6°F-0.2°C 66% 5.0 mph W8.0 kmh W -- 29.39 in995.3 mb 0.00 in0.0 mm 0.00 in0.0 mm 0.00 in0.0 mm
09:01 AM 42.3°F5.7°C 31.6°F-0.2°C 66% 7.0 mph W11.3 kmh W -- 29.40 in995.6 mb 0.00 in0.0 mm 0.00 in0.0 mm 0.00 in0.0 mm
09:02 AM 42.3°F5.7°C 31.6°F-0.2°C 66% 5.0 mph W8.0 kmh W -- 29.40 in995.6 mb 0.00 in0.0 mm 0.00 in0.0 mm 0.00 in0.0 mm
09:03 AM 42.3°F5.7°C 32.3°F0.2°C 68% 5.0 mph W8.0 kmh W -- 29.40 in995.6 mb 0.00 in0.0 mm 0.00 in0.0 mm 0.00 in0.0 mm
09:04 AM 42.3°F5.7°C 32.3°F0.2°C 68% 6.0 mph WNW9.7 kmh WNW -- 29.39 in995.3 mb 0.00 in0.0 mm 0.00 in0.0 mm 0.00 in0.0 mm
09:05 AM 42.3°F5.7°C 32.3°F0.2°C 68% 4.0 mph W6.4 kmh W -- 29.40 in995.6 mb 0.00 in0.0 mm 0.00 in0.0 mm 0.00 in0.0 mm
09:06 AM 42.3°F5.7°C 32.3°F0.2°C 68% 2.0 mph W3.2 kmh W -- 29.40 in995.6 mb 0.00 in0.0 mm 0.00 in0.0 mm 0.00 in0.0 mm
09:07 AM 42.3°F5.7°C 32.3°F0.2°C 68% 8.0 mph W12.9 kmh W -- 29.40 in995.6 mb 0.00 in0.0 mm 0.00 in0.0 mm 0.00 in0.0 mm
09:08 AM 42.3°F5.7°C 32.3°F0.2°C 68% 4.0 mph NW6.4 kmh NW -- 29.40 in995.6 mb 0.00 in0.0 mm 0.00 in0.0 mm 0.00 in0.0 mm
09:09 AM 42.4°F5.8°C 32.5°F0.3°C 68% 5.0 mph WNW8.0 kmh WNW -- 29.40 in995.6 mb 0.00 in0.0 mm 0.00 in0.0 mm 0.00 in0.0 mm
09:10 AM 42.4°F5.8°C 32.5°F0.3°C 68% 5.0 mph NNW8.0 kmh NNW -- 29.40 in995.6 mb 0.00 in0.0 mm 0.00 in0.0 mm 0.00 in0.0 mm
09:11 AM 42.4°F5.8°C 32.5°F0.3°C 68% 3.0 mph W4.8 kmh W -- 29.40 in995.6 mb 0.00 in0.0 mm 0.00 in0.0 mm 0.00 in0.0 mm
09:12 AM 42.5°F5.8°C 32.5°F0.3°C 68% 8.0 mph WNW12.9 kmh WNW -- 29.40 in995.6 mb 0.00 in0.0 mm 0.00 in0.0 mm 0.00 in0.0 mm
09:13 AM 42.4°F5.8°C 31.8°F-0.1°C 66% 9.0 mph W14.5 kmh W -- 29.40 in995.6 mb 0.00 in0.0 mm 0.00 in0.0 mm 0.00 in0.0 mm
09:14 AM 42.4°F5.8°C 31.8°F-0.1°C 66% 5.0 mph WNW8.0 kmh WNW -- 29.40 in995.6 mb 0.00 in0.0 mm 0.00 in0.0 mm 0.00 in0.0 mm
09:15 AM 42.3°F5.7°C 32.3°F0.2°C 68% 5.0 mph W8.0 kmh W -- 29.40 in995.6 mb 0.00 in0.0 mm 0.00 in0.0 mm 0.00 in0.0 mm
09:16 AM 42.4°F5.8°C 32.5°F0.3°C 68% 7.0 mph WNW11.3 kmh WNW -- 29.40 in995.6 mb 0.00 in0.0 mm 0.00 in0.0 mm 0.00 in0.0 mm
09:17 AM 42.4°F5.8°C 32.5°F0.3°C 68% 4.0 mph W6.4 kmh W -- 29.41 in995.9 mb 0.00 in0.0 mm 0.00 in0.0 mm 0.00 in0.0 mm
09:18 AM 42.5°F5.8°C 32.9°F0.5°C 69% 5.0 mph SW8.0 kmh SW -- 29.41 in995.9 mb 0.00 in0.0 mm 0.00 in0.0 mm 0.00 in0.0 mm
09:19 AM 42.5°F5.8°C 32.9°F0.5°C 69% 4.0 mph W6.4 kmh W -- 29.40 in995.6 mb 0.00 in0.0 mm 0.00 in0.0 mm 0.00 in0.0 mm
09:20 AM 42.7°F5.9°C 33.0°F0.6°C 69% 7.0 mph W11.3 kmh W -- 29.40 in995.6 mb 0.00 in0.0 mm 0.00 in0.0 mm 0.00 in0.0 mm
09:21 AM 43.0°F6.1°C 33.4°F0.8°C 69% 5.0 mph W8.0 kmh W -- 29.40 in995.6 mb 0.00 in0.0 mm 0.00 in0.0 mm 0.00 in0.0 mm
09:23 AM 43.0°F6.1°C 33.4°F0.8°C 69% 6.0 mph NNW9.7 kmh NNW -- 29.40 in995.6 mb 0.00 in0.0 mm 0.00 in0.0 mm 0.00 in0.0 mm
09:24 AM 43.0°F6.1°C 33.0°F0.6°C 68% 6.0 mph W9.7 kmh W -- 29.40 in995.6 mb 0.00 in0.0 mm 0.00 in0.0 mm 0.00 in0.0 mm
09:25 AM 43.0°F6.1°C 33.0°F0.6°C 68% 4.0 mph WSW6.4 kmh WSW -- 29.40 in995.6 mb 0.00 in0.0 mm 0.00 in0.0 mm 0.00 in0.0 mm
09:26 AM 43.2°F6.2°C 33.2°F0.7°C 68% 5.0 mph WNW8.0 kmh WNW -- 29.40 in995.6 mb 0.00 in0.0 mm 0.00 in0.0 mm 0.00 in0.0 mm
09:27 AM 43.2°F6.2°C 33.2°F0.7°C 68% 5.0 mph W8.0 kmh W -- 29.40 in995.6 mb 0.00 in0.0 mm 0.00 in0.0 mm 0.00 in0.0 mm
09:30 AM 43.4°F6.3°C 33.4°F0.8°C 68% 7.0 mph W11.3 kmh W -- 29.40 in995.6 mb 0.00 in0.0 mm 0.00 in0.0 mm 0.00 in0.0 mm
09:31 AM 43.4°F6.3°C 33.4°F0.8°C 68% 5.0 mph WNW8.0 kmh WNW -- 29.40 in995.6 mb 0.00 in0.0 mm 0.00 in0.0 mm 0.00 in0.0 mm
09:32 AM 43.6°F6.4°C 33.5°F0.8°C 68% 8.0 mph W12.9 kmh W -- 29.40 in995.6 mb 0.00 in0.0 mm 0.00 in0.0 mm 0.00 in0.0 mm
09:33 AM 43.4°F6.3°C 33.4°F0.8°C 68% 6.0 mph W9.7 kmh W -- 29.40 in995.6 mb 0.00 in0.0 mm 0.00 in0.0 mm 0.00 in0.0 mm
09:34 AM 43.4°F6.3°C 33.4°F0.8°C 68% 8.0 mph W12.9 kmh W -- 29.40 in995.6 mb 0.00 in0.0 mm 0.00 in0.0 mm 0.00 in0.0 mm
09:35 AM 43.6°F6.4°C 33.5°F0.8°C 68% 7.0 mph W11.3 kmh W -- 29.40 in995.6 mb 0.00 in0.0 mm 0.00 in0.0 mm 0.00 in0.0 mm
09:36 AM 43.6°F6.4°C 33.5°F0.8°C 68% 9.0 mph W14.5 kmh W -- 29.40 in995.6 mb 0.00 in0.0 mm 0.00 in0.0 mm 0.00 in0.0 mm
09:37 AM 43.4°F6.3°C 33.4°F0.8°C 68% 6.0 mph W9.7 kmh W -- 29.40 in995.6 mb 0.00 in0.0 mm 0.00 in0.0 mm 0.00 in0.0 mm
09:38 AM 43.6°F6.4°C 33.5°F0.8°C 68% 7.0 mph W11.3 kmh W -- 29.40 in995.6 mb 0.00 in0.0 mm 0.00 in0.0 mm 0.00 in0.0 mm
09:39 AM 43.6°F6.4°C 33.5°F0.8°C 68% 9.0 mph WNW14.5 kmh WNW -- 29.40 in995.6 mb 0.00 in0.0 mm 0.00 in0.0 mm 0.00 in0.0 mm
09:40 AM 43.6°F6.4°C 33.5°F0.8°C 68% 4.0 mph W6.4 kmh W -- 29.40 in995.6 mb 0.00 in0.0 mm 0.00 in0.0 mm 0.00 in0.0 mm
09:41 AM 43.9°F6.6°C 33.9°F1.1°C 68% 4.0 mph W6.4 kmh W -- 29.40 in995.6 mb 0.00 in0.0 mm 0.00 in0.0 mm 0.00 in0.0 mm
09:42 AM 44.0°F6.7°C 34.1°F1.2°C 68% 2.0 mph W3.2 kmh W -- 29.40 in995.6 mb 0.00 in0.0 mm 0.00 in0.0 mm 0.00 in0.0 mm
09:43 AM 44.0°F6.7°C 34.1°F1.2°C 68% 6.0 mph WNW9.7 kmh WNW -- 29.40 in995.6 mb 0.00 in0.0 mm 0.00 in0.0 mm 0.00 in0.0 mm
09:44 AM 44.0°F6.7°C 33.3°F0.7°C 66% 5.0 mph WNW8.0 kmh WNW -- 29.40 in995.6 mb 0.00 in0.0 mm 0.00 in0.0 mm 0.00 in0.0 mm
09:45 AM 44.0°F6.7°C 33.3°F0.7°C 66% 8.0 mph W12.9 kmh W -- 29.40 in995.6 mb 0.00 in0.0 mm 0.00 in0.0 mm 0.00 in0.0 mm
09:46 AM 44.0°F6.7°C 33.3°F0.7°C 66% 6.0 mph W9.7 kmh W -- 29.40 in995.6 mb 0.00 in0.0 mm 0.00 in0.0 mm 0.00 in0.0 mm
09:47 AM 44.0°F6.7°C 33.3°F0.7°C 66% 7.0 mph W11.3 kmh W -- 29.40 in995.6 mb 0.00 in0.0 mm 0.00 in0.0 mm 0.00 in0.0 mm
09:48 AM 44.2°F6.8°C 33.5°F0.8°C 66% 7.0 mph W11.3 kmh W -- 29.40 in995.6 mb 0.00 in0.0 mm 0.00 in0.0 mm 0.00 in0.0 mm
09:49 AM 44.2°F6.8°C 33.1°F0.6°C 65% 7.0 mph W11.3 kmh W -- 29.40 in995.6 mb 0.00 in0.0 mm 0.00 in0.0 mm 0.00 in0.0 mm
09:50 AM 44.2°F6.8°C 33.1°F0.6°C 65% 8.0 mph WNW12.9 kmh WNW -- 29.40 in995.6 mb 0.00 in0.0 mm 0.00 in0.0 mm 0.00 in0.0 mm
09:51 AM 44.0°F6.7°C 32.9°F0.5°C 65% 6.0 mph W9.7 kmh W -- 29.40 in995.6 mb 0.00 in0.0 mm 0.00 in0.0 mm 0.00 in0.0 mm
09:52 AM 44.0°F6.7°C 32.9°F0.5°C 65% 5.0 mph W8.0 kmh W -- 29.40 in995.6 mb 0.00 in0.0 mm 0.00 in0.0 mm 0.00 in0.0 mm
09:53 AM 44.2°F6.8°C 33.1°F0.6°C 65% 11.0 mph W17.7 kmh W -- 29.40 in995.6 mb 0.00 in0.0 mm 0.00 in0.0 mm 0.00 in0.0 mm
09:54 AM 44.0°F6.7°C 32.9°F0.5°C 65% 6.0 mph W9.7 kmh W -- 29.41 in995.9 mb 0.00 in0.0 mm 0.00 in0.0 mm 0.00 in0.0 mm
09:56 AM 43.9°F6.6°C 32.0°F0.0°C 63% 7.0 mph W11.3 kmh W -- 29.41 in995.9 mb 0.00 in0.0 mm 0.00 in0.0 mm 0.00 in0.0 mm
09:57 AM 43.9°F6.6°C 32.0°F0.0°C 63% 5.0 mph WNW8.0 kmh WNW -- 29.40 in995.6 mb 0.00 in0.0 mm 0.00 in0.0 mm 0.00 in0.0 mm
09:58 AM 43.9°F6.6°C 32.0°F0.0°C 63% 6.0 mph WNW9.7 kmh WNW -- 29.40 in995.6 mb 0.00 in0.0 mm 0.00 in0.0 mm 0.00 in0.0 mm
09:59 AM 43.9°F6.6°C 32.0°F0.0°C 63% 6.0 mph W9.7 kmh W -- 29.40 in995.6 mb 0.00 in0.0 mm 0.00 in0.0 mm 0.00 in0.0 mm
10:01 AM 43.9°F6.6°C 32.0°F0.0°C 63% 5.0 mph WNW8.0 kmh WNW -- 29.40 in995.6 mb 0.00 in0.0 mm 0.00 in0.0 mm 0.00 in0.0 mm
10:02 AM 43.9°F6.6°C 32.8°F0.4°C 65% 10.0 mph WNW16.1 kmh WNW -- 29.40 in995.6 mb 0.00 in0.0 mm 0.00 in0.0 mm 0.00 in0.0 mm
10:03 AM 44.0°F6.7°C 32.1°F0.1°C 63% 6.0 mph W9.7 kmh W -- 29.40 in995.6 mb 0.00 in0.0 mm 0.00 in0.0 mm 0.00 in0.0 mm
10:04 AM 44.0°F6.7°C 32.1°F0.1°C 63% 9.0 mph 14.5 kmh -- 29.40 in995.6 mb 0.00 in0.0 mm 0.00 in0.0 mm 0.00 in0.0 mm
10:05 AM 44.0°F6.7°C 32.1°F0.1°C 63% 7.0 mph W11.3 kmh W -- 29.40 in995.6 mb 0.00 in0.0 mm 0.00 in0.0 mm 0.00 in0.0 mm
10:06 AM 44.0°F6.7°C 32.1°F0.1°C 63% 6.0 mph W9.7 kmh W -- 29.40 in995.6 mb 0.00 in0.0 mm 0.00 in0.0 mm 0.00 in0.0 mm
10:07 AM 44.0°F6.7°C 32.1°F0.1°C 63% 11.0 mph WNW17.7 kmh WNW -- 29.40 in995.6 mb 0.00 in0.0 mm 0.00 in0.0 mm 0.00 in0.0 mm
10:08 AM 44.0°F6.7°C 32.1°F0.1°C 63% 6.0 mph W9.7 kmh W -- 29.40 in995.6 mb 0.00 in0.0 mm 0.00 in0.0 mm 0.00 in0.0 mm
10:09 AM 44.0°F6.7°C 32.1°F0.1°C 63% 9.0 mph W14.5 kmh W -- 29.40 in995.6 mb 0.00 in0.0 mm 0.00 in0.0 mm 0.00 in0.0 mm
10:10 AM 43.9°F6.6°C 32.0°F0.0°C 63% 8.0 mph WNW12.9 kmh WNW -- 29.40 in995.6 mb 0.00 in0.0 mm 0.00 in0.0 mm 0.00 in0.0 mm
10:11 AM 43.9°F6.6°C 32.0°F0.0°C 63% 4.0 mph W6.4 kmh W -- 29.40 in995.6 mb 0.00 in0.0 mm 0.00 in0.0 mm 0.00 in0.0 mm
10:12 AM 44.0°F6.7°C 32.1°F0.1°C 63% 4.0 mph W6.4 kmh W -- 29.41 in995.9 mb 0.00 in0.0 mm 0.00 in0.0 mm 0.00 in0.0 mm
10:13 AM 44.0°F6.7°C 32.1°F0.1°C 63% 7.0 mph W11.3 kmh W -- 29.41 in995.9 mb 0.00 in0.0 mm 0.00 in0.0 mm 0.00 in0.0 mm
10:14 AM 44.2°F6.8°C 32.3°F0.2°C 63% 7.0 mph W11.3 kmh W -- 29.40 in995.6 mb 0.00 in0.0 mm 0.00 in0.0 mm 0.00 in0.0 mm
10:15 AM 44.2°F6.8°C 32.3°F0.2°C 63% 4.0 mph W6.4 kmh W -- 29.40 in995.6 mb 0.00 in0.0 mm 0.00 in0.0 mm 0.00 in0.0 mm
10:16 AM 44.2°F6.8°C 32.3°F0.2°C 63% 7.0 mph W11.3 kmh W -- 29.41 in995.9 mb 0.00 in0.0 mm 0.00 in0.0 mm 0.00 in0.0 mm
10:17 AM 44.2°F6.8°C 32.3°F0.2°C 63% 8.0 mph NW12.9 kmh NW -- 29.41 in995.9 mb 0.00 in0.0 mm 0.00 in0.0 mm 0.00 in0.0 mm
10:18 AM 44.4°F6.9°C 32.5°F0.3°C 63% 5.0 mph SW8.0 kmh SW -- 29.40 in995.6 mb 0.00 in0.0 mm 0.00 in0.0 mm 0.00 in0.0 mm
10:19 AM 44.4°F6.9°C 32.5°F0.3°C 63% 7.0 mph W11.3 kmh W -- 29.40 in995.6 mb 0.00 in0.0 mm 0.00 in0.0 mm 0.00 in0.0 mm
10:20 AM 44.4°F6.9°C 32.5°F0.3°C 63% 4.0 mph WNW6.4 kmh WNW -- 29.40 in995.6 mb 0.00 in0.0 mm 0.00 in0.0 mm 0.00 in0.0 mm
10:21 AM 44.4°F6.9°C 32.5°F0.3°C 63% 5.0 mph WNW8.0 kmh WNW -- 29.40 in995.6 mb 0.00 in0.0 mm 0.00 in0.0 mm 0.00 in0.0 mm
10:22 AM 44.6°F7.0°C 32.7°F0.4°C 63% 7.0 mph WNW11.3 kmh WNW -- 29.40 in995.6 mb 0.00 in0.0 mm 0.00 in0.0 mm 0.00 in0.0 mm
10:23 AM 44.8°F7.1°C 32.8°F0.4°C 63% 7.0 mph W11.3 kmh W -- 29.40 in995.6 mb 0.00 in0.0 mm 0.00 in0.0 mm 0.00 in0.0 mm
10:24 AM 44.8°F7.1°C 32.8°F0.4°C 63% 4.0 mph WNW6.4 kmh WNW -- 29.40 in995.6 mb 0.00 in0.0 mm 0.00 in0.0 mm 0.00 in0.0 mm
10:26 AM 45.0°F7.2°C 33.0°F0.6°C 63% 5.0 mph WNW8.0 kmh WNW -- 29.40 in995.6 mb 0.00 in0.0 mm 0.00 in0.0 mm 0.00 in0.0 mm
10:27 AM 45.0°F7.2°C 33.0°F0.6°C 63% 7.0 mph WNW11.3 kmh WNW -- 29.40 in995.6 mb 0.00 in0.0 mm 0.00 in0.0 mm 0.00 in0.0 mm
10:28 AM 45.2°F7.3°C 33.2°F0.7°C 63% 6.0 mph WNW9.7 kmh WNW -- 29.40 in995.6 mb 0.00 in0.0 mm 0.00 in0.0 mm 0.00 in0.0 mm
10:29 AM 45.2°F7.3°C 32.4°F0.2°C 61% 10.0 mph W16.1 kmh W -- 29.41 in995.9 mb 0.00 in0.0 mm 0.00 in0.0 mm 0.00 in0.0 mm
10:30 AM 45.2°F7.3°C 32.4°F0.2°C 61% 8.0 mph WNW12.9 kmh WNW -- 29.40 in995.6 mb 0.00 in0.0 mm 0.00 in0.0 mm 0.00 in0.0 mm
10:31 AM 45.0°F7.2°C 32.2°F0.1°C 61% 9.0 mph NW14.5 kmh NW -- 29.40 in995.6 mb 0.00 in0.0 mm 0.00 in0.0 mm 0.00 in0.0 mm
10:32 AM 45.0°F7.2°C 32.2°F0.1°C 61% 6.0 mph W9.7 kmh W -- 29.40 in995.6 mb 0.00 in0.0 mm 0.00 in0.0 mm 0.00 in0.0 mm
10:33 AM 45.0°F7.2°C 32.2°F0.1°C 61% 4.0 mph SW6.4 kmh SW -- 29.40 in995.6 mb 0.00 in0.0 mm 0.00 in0.0 mm 0.00 in0.0 mm
10:34 AM 45.0°F7.2°C 32.2°F0.1°C 61% 7.0 mph W11.3 kmh W -- 29.40 in995.6 mb 0.00 in0.0 mm 0.00 in0.0 mm 0.00 in0.0 mm
10:35 AM 45.0°F7.2°C 32.2°F0.1°C 61% 8.0 mph WNW12.9 kmh WNW -- 29.40 in995.6 mb 0.00 in0.0 mm 0.00 in0.0 mm 0.00 in0.0 mm
10:36 AM 45.2°F7.3°C 31.5°F-0.3°C 59% 6.0 mph W9.7 kmh W -- 29.40 in995.6 mb 0.00 in0.0 mm 0.00 in0.0 mm 0.00 in0.0 mm
10:37 AM 45.5°F7.5°C 31.9°F-0.1°C 59% 6.0 mph W9.7 kmh W -- 29.40 in995.6 mb 0.00 in0.0 mm 0.00 in0.0 mm 0.00 in0.0 mm
10:38 AM 45.7°F7.6°C 32.0°F0.0°C 59% 10.0 mph W16.1 kmh W -- 29.40 in995.6 mb 0.00 in0.0 mm 0.00 in0.0 mm 0.00 in0.0 mm
10:39 AM 45.5°F7.5°C 30.6°F-0.8°C 56% 4.0 mph W6.4 kmh W -- 29.40 in995.6 mb 0.00 in0.0 mm 0.00 in0.0 mm 0.00 in0.0 mm
10:40 AM 45.5°F7.5°C 30.6°F-0.8°C 56% 5.0 mph WNW8.0 kmh WNW -- 29.40 in995.6 mb 0.00 in0.0 mm 0.00 in0.0 mm 0.00 in0.0 mm
10:41 AM 45.5°F7.5°C 30.1°F-1.1°C 55% 8.0 mph WNW12.9 kmh WNW -- 29.40 in995.6 mb 0.00 in0.0 mm 0.00 in0.0 mm 0.00 in0.0 mm
10:42 AM 45.7°F7.6°C 30.3°F-0.9°C 55% 7.0 mph S11.3 kmh S -- 29.40 in995.6 mb 0.00 in0.0 mm 0.00 in0.0 mm 0.00 in0.0 mm
10:43 AM 45.7°F7.6°C 30.3°F-0.9°C 55% 6.0 mph WNW9.7 kmh WNW -- 29.40 in995.6 mb 0.00 in0.0 mm 0.00 in0.0 mm 0.00 in0.0 mm
10:44 AM 45.7°F7.6°C 30.7°F-0.7°C 56% 6.0 mph WNW9.7 kmh WNW -- 29.40 in995.6 mb 0.00 in0.0 mm 0.00 in0.0 mm 0.00 in0.0 mm
10:45 AM 45.9°F7.7°C 30.4°F-0.9°C 55% 7.0 mph WNW11.3 kmh WNW -- 29.40 in995.6 mb 0.00 in0.0 mm 0.00 in0.0 mm 0.00 in0.0 mm
10:46 AM 45.9°F7.7°C 30.4°F-0.9°C 55% 5.0 mph NW8.0 kmh NW -- 29.40 in995.6 mb 0.00 in0.0 mm 0.00 in0.0 mm 0.00 in0.0 mm
10:47 AM 45.9°F7.7°C 30.4°F-0.9°C 55% 8.0 mph WNW12.9 kmh WNW -- 29.40 in995.6 mb 0.00 in0.0 mm 0.00 in0.0 mm 0.00 in0.0 mm
10:48 AM 45.9°F7.7°C 30.4°F-0.9°C 55% 6.0 mph NNW9.7 kmh NNW -- 29.40 in995.6 mb 0.00 in0.0 mm 0.00 in0.0 mm 0.00 in0.0 mm
10:49 AM 45.9°F7.7°C 30.4°F-0.9°C 55% 6.0 mph W9.7 kmh W -- 29.40 in995.6 mb 0.00 in0.0 mm 0.00 in0.0 mm 0.00 in0.0 mm
10:50 AM 45.9°F7.7°C 30.4°F-0.9°C 55% 5.0 mph W8.0 kmh W -- 29.40 in995.6 mb 0.00 in0.0 mm 0.00 in0.0 mm 0.00 in0.0 mm
10:51 AM 45.9°F7.7°C 30.9°F-0.6°C 56% 4.0 mph NNW6.4 kmh NNW -- 29.40 in995.6 mb 0.00 in0.0 mm 0.00 in0.0 mm 0.00 in0.0 mm
10:52 AM 45.9°F7.7°C 30.9°F-0.6°C 56% 4.0 mph NW6.4 kmh NW -- 29.40 in995.6 mb 0.00 in0.0 mm 0.00 in0.0 mm 0.00 in0.0 mm
10:53 AM 45.9°F7.7°C 30.9°F-0.6°C 56% 7.0 mph W11.3 kmh W -- 29.40 in995.6 mb 0.00 in0.0 mm 0.00 in0.0 mm 0.00 in0.0 mm
10:54 AM 45.9°F7.7°C 30.9°F-0.6°C 56% 3.0 mph S4.8 kmh S -- 29.40 in995.6 mb 0.00 in0.0 mm 0.00 in0.0 mm 0.00 in0.0 mm
10:55 AM 46.1°F7.8°C 31.1°F-0.5°C 56% 6.0 mph ESE9.7 kmh ESE -- 29.40 in995.6 mb 0.00 in0.0 mm 0.00 in0.0 mm 0.00 in0.0 mm
10:56 AM 46.1°F7.8°C 31.1°F-0.5°C 56% 4.0 mph ESE6.4 kmh ESE -- 29.39 in995.3 mb 0.00 in0.0 mm 0.00 in0.0 mm 0.00 in0.0 mm
10:57 AM 46.1°F7.8°C 31.1°F-0.5°C 56% 4.0 mph SE6.4 kmh SE -- 29.40 in995.6 mb 0.00 in0.0 mm 0.00 in0.0 mm 0.00 in0.0 mm
10:58 AM 46.1°F7.8°C 31.1°F-0.5°C 56% 6.0 mph WNW9.7 kmh WNW -- 29.40 in995.6 mb 0.00 in0.0 mm 0.00 in0.0 mm 0.00 in0.0 mm
10:59 AM 46.1°F7.8°C 31.1°F-0.5°C 56% 4.0 mph W6.4 kmh W -- 29.40 in995.6 mb 0.00 in0.0 mm 0.00 in0.0 mm 0.00 in0.0 mm
11:00 AM 46.1°F7.8°C 31.1°F-0.5°C 56% 5.0 mph W8.0 kmh W -- 29.40 in995.6 mb 0.00 in0.0 mm 0.00 in0.0 mm 0.00 in0.0 mm
11:01 AM 46.4°F8.0°C 32.3°F0.2°C 58% 6.0 mph W9.7 kmh W -- 29.40 in995.6 mb 0.00 in0.0 mm 0.00 in0.0 mm 0.00 in0.0 mm
11:02 AM 46.5°F8.1°C 31.6°F-0.2°C 56% 9.0 mph WNW14.5 kmh WNW -- 29.40 in995.6 mb 0.00 in0.0 mm 0.00 in0.0 mm 0.00 in0.0 mm
11:03 AM 46.5°F8.1°C 31.1°F-0.5°C 55% 9.0 mph W14.5 kmh W -- 29.40 in995.6 mb 0.00 in0.0 mm 0.00 in0.0 mm 0.00 in0.0 mm
11:04 AM 46.5°F8.1°C 31.1°F-0.5°C 55% 5.0 mph WNW8.0 kmh WNW -- 29.40 in995.6 mb 0.00 in0.0 mm 0.00 in0.0 mm 0.00 in0.0 mm
11:05 AM 46.7°F8.2°C 31.3°F-0.4°C 55% 8.0 mph WNW12.9 kmh WNW -- 29.40 in995.6 mb 0.00 in0.0 mm 0.00 in0.0 mm 0.00 in0.0 mm
11:06 AM 46.9°F8.3°C 31.5°F-0.3°C 55% 8.0 mph W12.9 kmh W -- 29.40 in995.6 mb 0.00 in0.0 mm 0.00 in0.0 mm 0.00 in0.0 mm
11:07 AM 46.9°F8.3°C 31.5°F-0.3°C 55% 7.0 mph W11.3 kmh W -- 29.40 in995.6 mb 0.00 in0.0 mm 0.00 in0.0 mm 0.00 in0.0 mm
11:08 AM 46.7°F8.2°C 31.3°F-0.4°C 55% 9.0 mph W14.5 kmh W -- 29.40 in995.6 mb 0.00 in0.0 mm 0.00 in0.0 mm 0.00 in0.0 mm
11:10 AM 46.7°F8.2°C 31.3°F-0.4°C 55% 7.0 mph W11.3 kmh W -- 29.40 in995.6 mb 0.00 in0.0 mm 0.00 in0.0 mm 0.00 in0.0 mm
11:12 AM 46.8°F8.2°C 31.3°F-0.4°C 55% 9.0 mph WNW14.5 kmh WNW -- 29.40 in995.6 mb 0.00 in0.0 mm 0.00 in0.0 mm 0.00 in0.0 mm
11:13 AM 47.3°F8.5°C 31.8°F-0.1°C 55% 9.0 mph W14.5 kmh W -- 29.40 in995.6 mb 0.00 in0.0 mm 0.00 in0.0 mm 0.00 in0.0 mm
11:14 AM 47.3°F8.5°C 31.8°F-0.1°C 55% 11.0 mph WNW17.7 kmh WNW -- 29.40 in995.6 mb 0.00 in0.0 mm 0.00 in0.0 mm 0.00 in0.0 mm
11:15 AM 47.1°F8.4°C 31.6°F-0.2°C 55% 7.0 mph W11.3 kmh W -- 29.40 in995.6 mb 0.00 in0.0 mm 0.00 in0.0 mm 0.00 in0.0 mm
11:16 AM 47.1°F8.4°C 31.6°F-0.2°C 55% 10.0 mph W16.1 kmh W -- 29.40 in995.6 mb 0.00 in0.0 mm 0.00 in0.0 mm 0.00 in0.0 mm
11:17 AM 47.1°F8.4°C 31.6°F-0.2°C 55% 7.0 mph W11.3 kmh W -- 29.40 in995.6 mb 0.00 in0.0 mm 0.00 in0.0 mm 0.00 in0.0 mm
11:18 AM 47.1°F8.4°C 31.6°F-0.2°C 55% 9.0 mph W14.5 kmh W -- 29.40 in995.6 mb 0.00 in0.0 mm 0.00 in0.0 mm 0.00 in0.0 mm
11:19 AM 47.1°F8.4°C 31.6°F-0.2°C 55% 7.0 mph W11.3 kmh W -- 29.40 in995.6 mb 0.00 in0.0 mm 0.00 in0.0 mm 0.00 in0.0 mm
11:20 AM 47.1°F8.4°C 31.6°F-0.2°C 55% 6.0 mph WNW9.7 kmh WNW -- 29.40 in995.6 mb 0.00 in0.0 mm 0.00 in0.0 mm 0.00 in0.0 mm
11:21 AM 47.1°F8.4°C 31.6°F-0.2°C 55% 9.0 mph W14.5 kmh W -- 29.40 in995.6 mb 0.00 in0.0 mm 0.00 in0.0 mm 0.00 in0.0 mm
11:22 AM 47.1°F8.4°C 31.6°F-0.2°C 55% 6.0 mph WNW9.7 kmh WNW -- 29.40 in995.6 mb 0.00 in0.0 mm 0.00 in0.0 mm 0.00 in0.0 mm
11:23 AM 47.3°F8.5°C 31.8°F-0.1°C 55% 7.0 mph NW11.3 kmh NW -- 29.40 in995.6 mb 0.00 in0.0 mm 0.00 in0.0 mm 0.00 in0.0 mm
11:24 AM 47.3°F8.5°C 31.8°F-0.1°C 55% 8.0 mph W12.9 kmh W -- 29.40 in995.6 mb 0.00 in0.0 mm 0.00 in0.0 mm 0.00 in0.0 mm
11:25 AM 47.3°F8.5°C 33.1°F0.6°C 58% 11.0 mph WNW17.7 kmh WNW -- 29.40 in995.6 mb 0.00 in0.0 mm 0.00 in0.0 mm 0.00 in0.0 mm
11:26 AM 47.3°F8.5°C 33.1°F0.6°C 58% 8.0 mph WNW12.9 kmh WNW -- 29.40 in995.6 mb 0.00 in0.0 mm 0.00 in0.0 mm 0.00 in0.0 mm
11:27 AM 47.3°F8.5°C 33.1°F0.6°C 58% 7.0 mph NW11.3 kmh NW -- 29.40 in995.6 mb 0.00 in0.0 mm 0.00 in0.0 mm 0.00 in0.0 mm
11:28 AM 47.3°F8.5°C 33.1°F0.6°C 58% 9.0 mph W14.5 kmh W -- 29.40 in995.6 mb 0.00 in0.0 mm 0.00 in0.0 mm 0.00 in0.0 mm
11:31 AM 47.6°F8.7°C 33.9°F1.1°C 59% 7.0 mph W11.3 kmh W -- 29.40 in995.6 mb 0.00 in0.0 mm 0.00 in0.0 mm 0.00 in0.0 mm
11:32 AM 48.0°F8.9°C 34.2°F1.2°C 59% 11.0 mph W17.7 kmh W -- 29.40 in995.6 mb 0.00 in0.0 mm 0.00 in0.0 mm 0.00 in0.0 mm
11:33 AM 48.0°F8.9°C 34.2°F1.2°C 59% 10.0 mph WSW16.1 kmh WSW -- 29.40 in995.6 mb 0.00 in0.0 mm 0.00 in0.0 mm 0.00 in0.0 mm
11:34 AM 47.7°F8.7°C 33.9°F1.1°C 59% 6.0 mph WNW9.7 kmh WNW -- 29.40 in995.6 mb 0.00 in0.0 mm 0.00 in0.0 mm 0.00 in0.0 mm
11:35 AM 47.7°F8.7°C 33.9°F1.1°C 59% 9.0 mph W14.5 kmh W -- 29.40 in995.6 mb 0.00 in0.0 mm 0.00 in0.0 mm 0.00 in0.0 mm
11:36 AM 47.7°F8.7°C 33.9°F1.1°C 59% 8.0 mph SW12.9 kmh SW -- 29.40 in995.6 mb 0.00 in0.0 mm 0.00 in0.0 mm 0.00 in0.0 mm
11:37 AM 48.0°F8.9°C 34.7°F1.5°C 60% 8.0 mph NNW12.9 kmh NNW -- 29.40 in995.6 mb 0.00 in0.0 mm 0.00 in0.0 mm 0.00 in0.0 mm
11:38 AM 48.0°F8.9°C 34.7°F1.5°C 60% 9.0 mph WNW14.5 kmh WNW -- 29.40 in995.6 mb 0.00 in0.0 mm 0.00 in0.0 mm 0.00 in0.0 mm
11:39 AM 48.2°F9.0°C 34.8°F1.6°C 60% 6.0 mph WNW9.7 kmh WNW -- 29.40 in995.6 mb 0.00 in0.0 mm 0.00 in0.0 mm 0.00 in0.0 mm
11:40 AM 48.5°F9.2°C 35.2°F1.8°C 60% 5.0 mph NNW8.0 kmh NNW -- 29.40 in995.6 mb 0.00 in0.0 mm 0.00 in0.0 mm 0.00 in0.0 mm
11:41 AM 48.6°F9.2°C 35.2°F1.8°C 60% 9.0 mph WNW14.5 kmh WNW -- 29.40 in995.6 mb 0.00 in0.0 mm 0.00 in0.0 mm 0.00 in0.0 mm
11:42 AM 48.9°F9.4°C 35.1°F1.7°C 59% 6.0 mph WNW9.7 kmh WNW -- 29.40 in995.6 mb 0.00 in0.0 mm 0.00 in0.0 mm 0.00 in0.0 mm
11:44 AM 49.0°F9.4°C 34.6°F1.4°C 58% 7.0 mph W11.3 kmh W -- 29.40 in995.6 mb 0.00 in0.0 mm 0.00 in0.0 mm 0.00 in0.0 mm
11:45 AM 49.2°F9.6°C 35.0°F1.7°C 58% 12.0 mph W19.3 kmh W -- 29.40 in995.6 mb 0.00 in0.0 mm 0.00 in0.0 mm 0.00 in0.0 mm
11:46 AM 49.0°F9.4°C 34.6°F1.4°C 58% 7.0 mph W11.3 kmh W -- 29.40 in995.6 mb 0.00 in0.0 mm 0.00 in0.0 mm 0.00 in0.0 mm
11:47 AM 49.0°F9.4°C 34.6°F1.4°C 58% 9.0 mph NW14.5 kmh NW -- 29.40 in995.6 mb 0.00 in0.0 mm 0.00 in0.0 mm 0.00 in0.0 mm
11:48 AM 49.0°F9.4°C 34.6°F1.4°C 58% 10.0 mph NW16.1 kmh NW -- 29.40 in995.6 mb 0.00 in0.0 mm 0.00 in0.0 mm 0.00 in0.0 mm
11:49 AM 48.9°F9.4°C 34.6°F1.4°C 58% 10.0 mph W16.1 kmh W -- 29.41 in995.9 mb 0.00 in0.0 mm 0.00 in0.0 mm 0.00 in0.0 mm
11:50 AM 48.9°F9.4°C 34.6°F1.4°C 58% 8.0 mph W12.9 kmh W -- 29.40 in995.6 mb 0.00 in0.0 mm 0.00 in0.0 mm 0.00 in0.0 mm
11:51 AM 49.4°F9.7°C 35.2°F1.8°C 58% 8.0 mph WNW12.9 kmh WNW -- 29.40 in995.6 mb 0.00 in0.0 mm 0.00 in0.0 mm 0.00 in0.0 mm
11:52 AM 49.4°F9.7°C 35.2°F1.8°C 58% 10.0 mph WNW16.1 kmh WNW -- 29.40 in995.6 mb 0.00 in0.0 mm 0.00 in0.0 mm 0.00 in0.0 mm
11:53 AM 49.4°F9.7°C 35.2°F1.8°C 58% 17.0 mph W27.4 kmh W -- 29.40 in995.6 mb 0.00 in0.0 mm 0.00 in0.0 mm 0.00 in0.0 mm
11:54 AM 49.4°F9.7°C 34.3°F1.3°C 56% 6.0 mph W9.7 kmh W -- 29.40 in995.6 mb 0.00 in0.0 mm 0.00 in0.0 mm 0.00 in0.0 mm
11:55 AM 49.4°F9.7°C 34.3°F1.3°C 56% 7.0 mph W11.3 kmh W -- 29.40 in995.6 mb 0.00 in0.0 mm 0.00 in0.0 mm 0.00 in0.0 mm
11:56 AM 49.4°F9.7°C 34.3°F1.3°C 56% 6.0 mph W9.7 kmh W -- 29.40 in995.6 mb 0.00 in0.0 mm 0.00 in0.0 mm 0.00 in0.0 mm
11:57 AM 49.6°F9.8°C 34.4°F1.3°C 56% 9.0 mph WNW14.5 kmh WNW -- 29.40 in995.6 mb 0.00 in0.0 mm 0.00 in0.0 mm 0.00 in0.0 mm
11:58 AM 49.6°F9.8°C 34.0°F1.1°C 55% 9.0 mph W14.5 kmh W -- 29.40 in995.6 mb 0.00 in0.0 mm 0.00 in0.0 mm 0.00 in0.0 mm
11:59 AM 49.8°F9.9°C 34.1°F1.2°C 55% 8.0 mph WNW12.9 kmh WNW -- 29.40 in995.6 mb 0.00 in0.0 mm 0.00 in0.0 mm 0.00 in0.0 mm
12:00 PM 50.1°F10.1°C 34.5°F1.4°C 55% 5.0 mph W8.0 kmh W -- 29.40 in995.6 mb 0.00 in0.0 mm 0.00 in0.0 mm 0.00 in0.0 mm
12:01 PM 50.3°F10.2°C 34.7°F1.5°C 55% 9.0 mph W14.5 kmh W -- 29.40 in995.6 mb 0.00 in0.0 mm 0.00 in0.0 mm 0.00 in0.0 mm
12:02 PM 50.3°F10.2°C 34.7°F1.5°C 55% 15.0 mph WNW24.1 kmh WNW -- 29.40 in995.6 mb 0.00 in0.0 mm 0.00 in0.0 mm 0.00 in0.0 mm
12:03 PM 50.0°F10.0°C 34.3°F1.3°C 55% 8.0 mph W12.9 kmh W -- 29.40 in995.6 mb 0.00 in0.0 mm 0.00 in0.0 mm 0.00 in0.0 mm
12:04 PM 49.8°F9.9°C 34.1°F1.2°C 55% 6.0 mph W9.7 kmh W -- 29.40 in995.6 mb 0.00 in0.0 mm 0.00 in0.0 mm 0.00 in0.0 mm
12:05 PM 49.8°F9.9°C 34.1°F1.2°C 55% 8.0 mph NW12.9 kmh NW -- 29.40 in995.6 mb 0.00 in0.0 mm 0.00 in0.0 mm 0.00 in0.0 mm
12:06 PM 50.1°F10.1°C 34.5°F1.4°C 55% 10.0 mph WNW16.1 kmh WNW -- 29.40 in995.6 mb 0.00 in0.0 mm 0.00 in0.0 mm 0.00 in0.0 mm
12:07 PM 50.1°F10.1°C 34.5°F1.4°C 55% 8.0 mph W12.9 kmh W -- 29.40 in995.6 mb 0.00 in0.0 mm 0.00 in0.0 mm 0.00 in0.0 mm
12:08 PM 50.1°F10.1°C 34.5°F1.4°C 55% 6.0 mph 9.7 kmh -- 29.40 in995.6 mb 0.00 in0.0 mm 0.00 in0.0 mm 0.00 in0.0 mm
12:09 PM 50.3°F10.2°C 34.7°F1.5°C 55% 9.0 mph NW14.5 kmh NW -- 29.40 in995.6 mb 0.00 in0.0 mm 0.00 in0.0 mm 0.00 in0.0 mm
12:10 PM 50.3°F10.2°C 34.7°F1.5°C 55% 11.0 mph WNW17.7 kmh WNW -- 29.40 in995.6 mb 0.00 in0.0 mm 0.00 in0.0 mm 0.00 in0.0 mm
12:11 PM 50.3°F10.2°C 34.7°F1.5°C 55% 9.0 mph WNW14.5 kmh WNW -- 29.40 in995.6 mb 0.00 in0.0 mm 0.00 in0.0 mm 0.00 in0.0 mm
12:12 PM 50.3°F10.2°C 34.7°F1.5°C 55% 8.0 mph NNW12.9 kmh NNW -- 29.40 in995.6 mb 0.00 in0.0 mm 0.00 in0.0 mm 0.00 in0.0 mm
12:13 PM 50.3°F10.2°C 34.7°F1.5°C 55% 11.0 mph W17.7 kmh W -- 29.40 in995.6 mb 0.00 in0.0 mm 0.00 in0.0 mm 0.00 in0.0 mm
12:14 PM 50.5°F10.3°C 34.8°F1.6°C 55% 8.0 mph WNW12.9 kmh WNW -- 29.40 in995.6 mb 0.00 in0.0 mm 0.00 in0.0 mm 0.00 in0.0 mm
12:15 PM 50.5°F10.3°C 34.4°F1.3°C 54% 5.0 mph W8.0 kmh W -- 29.40 in995.6 mb 0.00 in0.0 mm 0.00 in0.0 mm 0.00 in0.0 mm
12:16 PM 50.9°F10.5°C 34.2°F1.2°C 53% 9.0 mph W14.5 kmh W -- 29.40 in995.6 mb 0.00 in0.0 mm 0.00 in0.0 mm 0.00 in0.0 mm
12:17 PM 50.9°F10.5°C 34.7°F1.5°C 54% 7.0 mph W11.3 kmh W -- 29.40 in995.6 mb 0.00 in0.0 mm 0.00 in0.0 mm 0.00 in0.0 mm
12:18 PM 50.9°F10.5°C 34.7°F1.5°C 54% 9.0 mph WNW14.5 kmh WNW -- 29.40 in995.6 mb 0.00 in0.0 mm 0.00 in0.0 mm 0.00 in0.0 mm
12:19 PM 50.7°F10.4°C 34.5°F1.4°C 54% 12.0 mph NNW19.3 kmh NNW -- 29.40 in995.6 mb 0.00 in0.0 mm 0.00 in0.0 mm 0.00 in0.0 mm
12:20 PM 50.7°F10.4°C 34.5°F1.4°C 54% 6.0 mph NW9.7 kmh NW -- 29.41 in995.9 mb 0.00 in0.0 mm 0.00 in0.0 mm 0.00 in0.0 mm
12:21 PM 51.0°F10.6°C 34.9°F1.6°C 54% 12.0 mph WNW19.3 kmh WNW -- 29.40 in995.6 mb 0.00 in0.0 mm 0.00 in0.0 mm 0.00 in0.0 mm
12:22 PM 50.9°F10.5°C 34.7°F1.5°C 54% 10.0 mph W16.1 kmh W -- 29.40 in995.6 mb 0.00 in0.0 mm 0.00 in0.0 mm 0.00 in0.0 mm
12:23 PM 50.7°F10.4°C 34.5°F1.4°C 54% 8.0 mph W12.9 kmh W -- 29.40 in995.6 mb 0.00 in0.0 mm 0.00 in0.0 mm 0.00 in0.0 mm
12:24 PM 50.9°F10.5°C 34.7°F1.5°C 54% 9.0 mph WNW14.5 kmh WNW -- 29.40 in995.6 mb 0.00 in0.0 mm 0.00 in0.0 mm 0.00 in0.0 mm
12:25 PM 50.9°F10.5°C 34.7°F1.5°C 54% 12.0 mph W19.3 kmh W -- 29.40 in995.6 mb 0.00 in0.0 mm 0.00 in0.0 mm 0.00 in0.0 mm
12:26 PM 50.9°F10.5°C 34.7°F1.5°C 54% 7.0 mph NW11.3 kmh NW -- 29.41 in995.9 mb 0.00 in0.0 mm 0.00 in0.0 mm 0.00 in0.0 mm
12:27 PM 50.9°F10.5°C 34.7°F1.5°C 54% 7.0 mph WNW11.3 kmh WNW -- 29.41 in995.9 mb 0.00 in0.0 mm 0.00 in0.0 mm 0.00 in0.0 mm
12:28 PM 50.9°F10.5°C 34.7°F1.5°C 54% 5.0 mph NW8.0 kmh NW -- 29.40 in995.6 mb 0.00 in0.0 mm 0.00 in0.0 mm 0.00 in0.0 mm
12:29 PM 51.3°F10.7°C 35.0°F1.7°C 54% 7.0 mph WNW11.3 kmh WNW -- 29.41 in995.9 mb 0.00 in0.0 mm 0.00 in0.0 mm 0.00 in0.0 mm
12:30 PM 51.3°F10.7°C 35.0°F1.7°C 54% 9.0 mph NNW14.5 kmh NNW -- 29.41 in995.9 mb 0.00 in0.0 mm 0.00 in0.0 mm 0.00 in0.0 mm
12:31 PM 51.3°F10.7°C 35.5°F1.9°C 55% 12.0 mph WNW19.3 kmh WNW -- 29.40 in995.6 mb 0.00 in0.0 mm 0.00 in0.0 mm 0.00 in0.0 mm
12:32 PM 50.9°F10.5°C 35.6°F2.0°C 56% 7.0 mph W11.3 kmh W -- 29.41 in995.9 mb 0.00 in0.0 mm 0.00 in0.0 mm 0.00 in0.0 mm
12:33 PM 50.9°F10.5°C 36.5°F2.5°C 58% 8.0 mph WSW12.9 kmh WSW -- 29.41 in995.9 mb 0.00 in0.0 mm 0.00 in0.0 mm 0.00 in0.0 mm
12:34 PM 50.9°F10.5°C 36.9°F2.7°C 59% 7.0 mph W11.3 kmh W -- 29.41 in995.9 mb 0.00 in0.0 mm 0.00 in0.0 mm 0.00 in0.0 mm
12:35 PM 50.9°F10.5°C 36.9°F2.7°C 59% 13.0 mph W20.9 kmh W -- 29.41 in995.9 mb 0.00 in0.0 mm 0.00 in0.0 mm 0.00 in0.0 mm
12:36 PM 50.5°F10.3°C 36.6°F2.6°C 59% 15.0 mph W24.1 kmh W -- 29.41 in995.9 mb 0.00 in0.0 mm 0.00 in0.0 mm 0.00 in0.0 mm
12:37 PM 50.1°F10.1°C 36.3°F2.4°C 59% 10.0 mph W16.1 kmh W -- 29.41 in995.9 mb 0.00 in0.0 mm 0.00 in0.0 mm 0.00 in0.0 mm
12:38 PM 49.8°F9.9°C 36.8°F2.7°C 61% 11.0 mph NNW17.7 kmh NNW -- 29.41 in995.9 mb 0.00 in0.0 mm 0.00 in0.0 mm 0.00 in0.0 mm
12:39 PM 49.4°F9.7°C 38.1°F3.4°C 65% 9.0 mph W14.5 kmh W -- 29.41 in995.9 mb 0.00 in0.0 mm 0.00 in0.0 mm 0.00 in0.0 mm
12:40 PM 49.4°F9.7°C 38.1°F3.4°C 65% 11.0 mph W17.7 kmh W -- 29.41 in995.9 mb 0.00 in0.0 mm 0.00 in0.0 mm 0.00 in0.0 mm
12:41 PM 49.2°F9.6°C 38.3°F3.5°C 66% 12.0 mph W19.3 kmh W -- 29.41 in995.9 mb 0.00 in0.0 mm 0.00 in0.0 mm 0.00 in0.0 mm
12:42 PM 49.0°F9.4°C 37.9°F3.3°C 66% 10.0 mph W16.1 kmh W -- 29.40 in995.6 mb 0.00 in0.0 mm 0.00 in0.0 mm 0.00 in0.0 mm
12:43 PM 49.0°F9.4°C 37.9°F3.3°C 66% 10.0 mph W16.1 kmh W -- 29.41 in995.9 mb 0.00 in0.0 mm 0.00 in0.0 mm 0.00 in0.0 mm
12:44 PM 49.0°F9.4°C 38.7°F3.7°C 68% 10.0 mph W16.1 kmh W -- 29.41 in995.9 mb 0.00 in0.0 mm 0.00 in0.0 mm 0.00 in0.0 mm
12:45 PM 49.0°F9.4°C 39.1°F3.9°C 69% 7.0 mph W11.3 kmh W -- 29.41 in995.9 mb 0.00 in0.0 mm 0.00 in0.0 mm 0.00 in0.0 mm
12:46 PM 49.2°F9.6°C 39.4°F4.1°C 69% 15.0 mph W24.1 kmh W -- 29.41 in995.9 mb 0.00 in0.0 mm 0.00 in0.0 mm 0.00 in0.0 mm
12:47 PM 49.2°F9.6°C 39.1°F3.9°C 68% 14.0 mph W22.5 kmh W -- 29.41 in995.9 mb 0.00 in0.0 mm 0.00 in0.0 mm 0.00 in0.0 mm
12:48 PM 49.0°F9.4°C 38.7°F3.7°C 68% 12.0 mph WNW19.3 kmh WNW -- 29.41 in995.9 mb 0.00 in0.0 mm 0.00 in0.0 mm 0.00 in0.0 mm
12:49 PM 49.0°F9.4°C 39.1°F3.9°C 69% 7.0 mph W11.3 kmh W -- 29.41 in995.9 mb 0.00 in0.0 mm 0.00 in0.0 mm 0.00 in0.0 mm
12:50 PM 49.0°F9.4°C 39.1°F3.9°C 69% 8.0 mph W12.9 kmh W -- 29.41 in995.9 mb 0.00 in0.0 mm 0.00 in0.0 mm 0.00 in0.0 mm
12:51 PM 49.0°F9.4°C 37.9°F3.3°C 66% 14.0 mph W22.5 kmh W -- 29.41 in995.9 mb 0.00 in0.0 mm 0.00 in0.0 mm 0.00 in0.0 mm
12:52 PM 48.9°F9.4°C 37.9°F3.3°C 66% 14.0 mph WNW22.5 kmh WNW -- 29.41 in995.9 mb 0.00 in0.0 mm 0.00 in0.0 mm 0.00 in0.0 mm
12:53 PM 48.6°F9.2°C 37.6°F3.1°C 66% 8.0 mph WNW12.9 kmh WNW -- 29.41 in995.9 mb 0.00 in0.0 mm 0.00 in0.0 mm 0.00 in0.0 mm
12:54 PM 48.5°F9.2°C 37.6°F3.1°C 66% 10.0 mph WNW16.1 kmh WNW -- 29.41 in995.9 mb 0.00 in0.0 mm 0.00 in0.0 mm 0.00 in0.0 mm
12:55 PM 48.5°F9.2°C 37.6°F3.1°C 66% 13.0 mph W20.9 kmh W -- 29.41 in995.9 mb 0.00 in0.0 mm 0.00 in0.0 mm 0.00 in0.0 mm
12:56 PM 48.5°F9.2°C 37.6°F3.1°C 66% 7.0 mph W11.3 kmh W -- 29.41 in995.9 mb 0.00 in0.0 mm 0.00 in0.0 mm 0.00 in0.0 mm
12:57 PM 48.7°F9.3°C 38.5°F3.6°C 68% 11.0 mph NW17.7 kmh NW -- 29.41 in995.9 mb 0.00 in0.0 mm 0.00 in0.0 mm 0.00 in0.0 mm
12:58 PM 48.9°F9.4°C 37.9°F3.3°C 66% 10.0 mph W16.1 kmh W -- 29.41 in995.9 mb 0.00 in0.0 mm 0.00 in0.0 mm 0.00 in0.0 mm
12:59 PM 48.9°F9.4°C 37.9°F3.3°C 66% 10.0 mph NW16.1 kmh NW -- 29.41 in995.9 mb 0.00 in0.0 mm 0.00 in0.0 mm 0.00 in0.0 mm
01:00 PM 49.0°F9.4°C 38.7°F3.7°C 68% 13.0 mph W20.9 kmh W -- 29.41 in995.9 mb 0.00 in0.0 mm 0.00 in0.0 mm 0.00 in0.0 mm
01:01 PM 48.9°F9.4°C 38.7°F3.7°C 68% 13.0 mph W20.9 kmh W -- 29.41 in995.9 mb 0.00 in0.0 mm 0.00 in0.0 mm 0.00 in0.0 mm
01:02 PM 48.9°F9.4°C 38.7°F3.7°C 68% 11.0 mph WSW17.7 kmh WSW -- 29.41 in995.9 mb 0.00 in0.0 mm 0.00 in0.0 mm 0.00 in0.0 mm
01:03 PM 49.0°F9.4°C 38.7°F3.7°C 68% 14.0 mph NW22.5 kmh NW -- 29.41 in995.9 mb 0.00 in0.0 mm 0.00 in0.0 mm 0.00 in0.0 mm
01:04 PM 49.0°F9.4°C 37.9°F3.3°C 66% 10.0 mph W16.1 kmh W -- 29.41 in995.9 mb 0.00 in0.0 mm 0.00 in0.0 mm 0.00 in0.0 mm
01:05 PM 49.0°F9.4°C 37.9°F3.3°C 66% 9.0 mph W14.5 kmh W -- 29.41 in995.9 mb 0.00 in0.0 mm 0.00 in0.0 mm 0.00 in0.0 mm
01:07 PM 49.0°F9.4°C 37.9°F3.3°C 66% 11.0 mph NW17.7 kmh NW -- 29.41 in995.9 mb 0.00 in0.0 mm 0.00 in0.0 mm 0.00 in0.0 mm
01:08 PM 49.3°F9.6°C 38.7°F3.7°C 67% 11.0 mph NW17.7 kmh NW -- 29.41 in995.9 mb 0.00 in0.0 mm 0.00 in0.0 mm 0.00 in0.0 mm
01:09 PM 49.0°F9.4°C 37.9°F3.3°C 66% 10.0 mph WNW16.1 kmh WNW -- 29.41 in995.9 mb 0.00 in0.0 mm 0.00 in0.0 mm 0.00 in0.0 mm
01:10 PM 48.9°F9.4°C 37.9°F3.3°C 66% 14.0 mph W22.5 kmh W -- 29.41 in995.9 mb 0.00 in0.0 mm 0.00 in0.0 mm 0.00 in0.0 mm
01:11 PM 48.9°F9.4°C 38.7°F3.7°C 68% 11.0 mph WSW17.7 kmh WSW -- 29.41 in995.9 mb 0.00 in0.0 mm 0.00 in0.0 mm 0.00 in0.0 mm
01:12 PM 49.2°F9.6°C 39.1°F3.9°C 68% 11.0 mph W17.7 kmh W -- 29.41 in995.9 mb 0.00 in0.0 mm 0.00 in0.0 mm 0.00 in0.0 mm
01:13 PM 49.2°F9.6°C 39.1°F3.9°C 68% 9.0 mph W14.5 kmh W -- 29.41 in995.9 mb 0.00 in0.0 mm 0.00 in0.0 mm 0.00 in0.0 mm
01:14 PM 49.4°F9.7°C 39.2°F4.0°C 68% 15.0 mph NW24.1 kmh NW -- 29.41 in995.9 mb 0.00 in0.0 mm 0.00 in0.0 mm 0.00 in0.0 mm
01:15 PM 49.6°F9.8°C 38.2°F3.4°C 65% 15.0 mph NW24.1 kmh NW -- 29.41 in995.9 mb 0.00 in0.0 mm 0.00 in0.0 mm 0.00 in0.0 mm
01:16 PM 49.6°F9.8°C 38.2°F3.4°C 65% 13.0 mph W20.9 kmh W -- 29.41 in995.9 mb 0.00 in0.0 mm 0.00 in0.0 mm 0.00 in0.0 mm
01:17 PM 49.2°F9.6°C 37.9°F3.3°C 65% 11.0 mph WNW17.7 kmh WNW -- 29.41 in995.9 mb 0.00 in0.0 mm 0.00 in0.0 mm 0.00 in0.0 mm
01:18 PM 48.9°F9.4°C 37.9°F3.3°C 66% 5.0 mph WNW8.0 kmh WNW -- 29.41 in995.9 mb 0.00 in0.0 mm 0.00 in0.0 mm 0.00 in0.0 mm
01:19 PM 48.9°F9.4°C 37.9°F3.3°C 66% 11.0 mph W17.7 kmh W -- 29.41 in995.9 mb 0.00 in0.0 mm 0.00 in0.0 mm 0.00 in0.0 mm
01:20 PM 48.9°F9.4°C 38.7°F3.7°C 68% 9.0 mph W14.5 kmh W -- 29.41 in995.9 mb 0.00 in0.0 mm 0.00 in0.0 mm 0.00 in0.0 mm
01:21 PM 49.2°F9.6°C 39.1°F3.9°C 68% 10.0 mph W16.1 kmh W -- 29.41 in995.9 mb 0.00 in0.0 mm 0.00 in0.0 mm 0.00 in0.0 mm
01:22 PM 49.4°F9.7°C 39.2°F4.0°C 68% 13.0 mph W20.9 kmh W -- 29.41 in995.9 mb 0.00 in0.0 mm 0.00 in0.0 mm 0.00 in0.0 mm
01:23 PM 49.2°F9.6°C 38.3°F3.5°C 66% 12.0 mph W19.3 kmh W -- 29.41 in995.9 mb 0.00 in0.0 mm 0.00 in0.0 mm 0.00 in0.0 mm
01:24 PM 49.2°F9.6°C 38.3°F3.5°C 66% 13.0 mph WNW20.9 kmh WNW -- 29.41 in995.9 mb 0.00 in0.0 mm 0.00 in0.0 mm 0.00 in0.0 mm
01:25 PM 49.4°F9.7°C 38.5°F3.6°C 66% 13.0 mph WNW20.9 kmh WNW -- 29.41 in995.9 mb 0.00 in0.0 mm 0.00 in0.0 mm 0.00 in0.0 mm
01:26 PM 49.6°F9.8°C 38.6°F3.7°C 66% 8.0 mph W12.9 kmh W -- 29.41 in995.9 mb 0.00 in0.0 mm 0.00 in0.0 mm 0.00 in0.0 mm
01:27 PM 49.6°F9.8°C 39.0°F3.9°C 67% 9.0 mph NW14.5 kmh NW -- 29.41 in995.9 mb 0.00 in0.0 mm 0.00 in0.0 mm 0.00 in0.0 mm
01:28 PM 50.1°F10.1°C 38.8°F3.8°C 65% 10.0 mph W16.1 kmh W -- 29.41 in995.9 mb 0.00 in0.0 mm 0.00 in0.0 mm 0.00 in0.0 mm
01:29 PM 50.3°F10.2°C 38.9°F3.8°C 65% 17.0 mph WNW27.4 kmh WNW -- 29.41 in995.9 mb 0.00 in0.0 mm 0.00 in0.0 mm 0.00 in0.0 mm
01:30 PM 50.1°F10.1°C 38.8°F3.8°C 65% 14.0 mph NNW22.5 kmh NNW -- 29.41 in995.9 mb 0.00 in0.0 mm 0.00 in0.0 mm 0.00 in0.0 mm
01:31 PM 50.1°F10.1°C 38.8°F3.8°C 65% 10.0 mph WNW16.1 kmh WNW -- 29.41 in995.9 mb 0.00 in0.0 mm 0.00 in0.0 mm 0.00 in0.0 mm
01:32 PM 50.5°F10.3°C 39.1°F3.9°C 65% 11.0 mph WNW17.7 kmh WNW -- 29.41 in995.9 mb 0.00 in0.0 mm 0.00 in0.0 mm 0.00 in0.0 mm
01:33 PM 51.0°F10.6°C 39.6°F4.2°C 65% 12.0 mph WNW19.3 kmh WNW -- 29.41 in995.9 mb 0.00 in0.0 mm 0.00 in0.0 mm 0.00 in0.0 mm
01:34 PM 51.4°F10.8°C 40.0°F4.4°C 65% 12.0 mph WNW19.3 kmh WNW -- 29.41 in995.9 mb 0.00 in0.0 mm 0.00 in0.0 mm 0.00 in0.0 mm
01:35 PM 51.0°F10.6°C 39.6°F4.2°C 65% 12.0 mph W19.3 kmh W -- 29.41 in995.9 mb 0.00 in0.0 mm 0.00 in0.0 mm 0.00 in0.0 mm
01:36 PM 50.9°F10.5°C 39.4°F4.1°C 65% 12.0 mph WNW19.3 kmh WNW -- 29.42 in996.3 mb 0.00 in0.0 mm 0.00 in0.0 mm 0.00 in0.0 mm
01:37 PM 50.3°F10.2°C 38.9°F3.8°C 65% 12.0 mph WNW19.3 kmh WNW -- 29.41 in995.9 mb 0.00 in0.0 mm 0.00 in0.0 mm 0.00 in0.0 mm
01:38 PM 50.0°F10.0°C 38.6°F3.7°C 65% 15.0 mph WNW24.1 kmh WNW -- 29.41 in995.9 mb 0.00 in0.0 mm 0.00 in0.0 mm 0.00 in0.0 mm
01:39 PM 50.1°F10.1°C 38.8°F3.8°C 65% 10.0 mph W16.1 kmh W -- 29.41 in995.9 mb 0.00 in0.0 mm 0.00 in0.0 mm 0.00 in0.0 mm
01:40 PM 50.5°F10.3°C 39.1°F3.9°C 65% 9.0 mph WNW14.5 kmh WNW -- 29.41 in995.9 mb 0.00 in0.0 mm 0.00 in0.0 mm 0.00 in0.0 mm
01:41 PM 50.5°F10.3°C 39.1°F3.9°C 65% 13.0 mph W20.9 kmh W -- 29.41 in995.9 mb 0.00 in0.0 mm 0.00 in0.0 mm 0.00 in0.0 mm
01:42 PM 50.7°F10.4°C 39.3°F4.1°C 65% 15.0 mph W24.1 kmh W -- 29.42 in996.3 mb 0.00 in0.0 mm 0.00 in0.0 mm 0.00 in0.0 mm
01:43 PM 50.7°F10.4°C 39.3°F4.1°C 65% 16.0 mph W25.7 kmh W -- 29.42 in996.3 mb 0.00 in0.0 mm 0.00 in0.0 mm 0.00 in0.0 mm
01:44 PM 50.0°F10.0°C 38.6°F3.7°C 65% 12.0 mph W19.3 kmh W -- 29.42 in996.3 mb 0.00 in0.0 mm 0.00 in0.0 mm 0.00 in0.0 mm
01:45 PM 50.0°F10.0°C 38.6°F3.7°C 65% 9.0 mph W14.5 kmh W -- 29.41 in995.9 mb 0.00 in0.0 mm 0.00 in0.0 mm 0.00 in0.0 mm
01:46 PM 50.3°F10.2°C 39.3°F4.1°C 66% 10.0 mph W16.1 kmh W -- 29.42 in996.3 mb 0.00 in0.0 mm 0.00 in0.0 mm 0.00 in0.0 mm
01:47 PM 50.3°F10.2°C 38.9°F3.8°C 65% 13.0 mph WNW20.9 kmh WNW -- 29.42 in996.3 mb 0.00 in0.0 mm 0.00 in0.0 mm 0.00 in0.0 mm
01:48 PM 50.0°F10.0°C 38.6°F3.7°C 65% 10.0 mph WNW16.1 kmh WNW -- 29.42 in996.3 mb 0.00 in0.0 mm 0.00 in0.0 mm 0.00 in0.0 mm
01:49 PM 50.0°F10.0°C 39.0°F3.9°C 66% 11.0 mph WNW17.7 kmh WNW -- 29.42 in996.3 mb 0.00 in0.0 mm 0.00 in0.0 mm 0.00 in0.0 mm
01:50 PM 50.0°F10.0°C 39.0°F3.9°C 66% 10.0 mph W16.1 kmh W -- 29.42 in996.3 mb 0.00 in0.0 mm 0.00 in0.0 mm 0.00 in0.0 mm
01:51 PM 50.0°F10.0°C 39.7°F4.3°C 68% 8.0 mph W12.9 kmh W -- 29.42 in996.3 mb 0.00 in0.0 mm 0.00 in0.0 mm 0.00 in0.0 mm
01:52 PM 50.7°F10.4°C 39.7°F4.3°C 66% 13.0 mph W20.9 kmh W -- 29.42 in996.3 mb 0.00 in0.0 mm 0.00 in0.0 mm 0.00 in0.0 mm
01:53 PM 50.7°F10.4°C 39.3°F4.1°C 65% 13.0 mph W20.9 kmh W -- 29.42 in996.3 mb 0.00 in0.0 mm 0.00 in0.0 mm 0.00 in0.0 mm
01:54 PM 50.7°F10.4°C 39.3°F4.1°C 65% 9.0 mph W14.5 kmh W -- 29.42 in996.3 mb 0.00 in0.0 mm 0.00 in0.0 mm 0.00 in0.0 mm
01:55 PM 50.7°F10.4°C 39.3°F4.1°C 65% 10.0 mph W16.1 kmh W -- 29.42 in996.3 mb 0.00 in0.0 mm 0.00 in0.0 mm 0.00 in0.0 mm
01:56 PM 50.9°F10.5°C 39.4°F4.1°C 65% 11.0 mph NNW17.7 kmh NNW -- 29.42 in996.3 mb 0.00 in0.0 mm 0.00 in0.0 mm 0.00 in0.0 mm
01:57 PM 51.0°F10.6°C 39.6°F4.2°C 65% 13.0 mph W20.9 kmh W -- 29.42 in996.3 mb 0.00 in0.0 mm 0.00 in0.0 mm 0.00 in0.0 mm
01:58 PM 50.7°F10.4°C 39.3°F4.1°C 65% 8.0 mph W12.9 kmh W -- 29.42 in996.3 mb 0.00 in0.0 mm 0.00 in0.0 mm 0.00 in0.0 mm
01:59 PM 50.5°F10.3°C 39.1°F3.9°C 65% 10.0 mph W16.1 kmh W -- 29.42 in996.3 mb 0.00 in0.0 mm 0.00 in0.0 mm 0.00 in0.0 mm
02:00 PM 50.7°F10.4°C 39.7°F4.3°C 66% 12.0 mph W19.3 kmh W -- 29.42 in996.3 mb 0.00 in0.0 mm 0.00 in0.0 mm 0.00 in0.0 mm
02:01 PM 51.3°F10.7°C 40.2°F4.6°C 66% 13.0 mph W20.9 kmh W -- 29.42 in996.3 mb 0.00 in0.0 mm 0.00 in0.0 mm 0.00 in0.0 mm
02:02 PM 51.9°F11.1°C 40.5°F4.7°C 65% 14.0 mph WNW22.5 kmh WNW -- 29.42 in996.3 mb 0.00 in0.0 mm 0.00 in0.0 mm 0.00 in0.0 mm
02:03 PM 51.5°F10.8°C 40.0°F4.4°C 65% 12.0 mph WNW19.3 kmh WNW -- 29.42 in996.3 mb 0.00 in0.0 mm 0.00 in0.0 mm 0.00 in0.0 mm
02:04 PM 51.4°F10.8°C 39.1°F3.9°C 63% 11.0 mph WNW17.7 kmh WNW -- 29.42 in996.3 mb 0.00 in0.0 mm 0.00 in0.0 mm 0.00 in0.0 mm
02:05 PM 51.0°F10.6°C 38.8°F3.8°C 63% 12.0 mph W19.3 kmh W -- 29.42 in996.3 mb 0.00 in0.0 mm 0.00 in0.0 mm 0.00 in0.0 mm
02:06 PM 50.9°F10.5°C 38.6°F3.7°C 63% 9.0 mph W14.5 kmh W -- 29.42 in996.3 mb 0.00 in0.0 mm 0.00 in0.0 mm 0.00 in0.0 mm
02:07 PM 50.9°F10.5°C 39.4°F4.1°C 65% 12.0 mph W19.3 kmh W -- 29.42 in996.3 mb 0.00 in0.0 mm 0.00 in0.0 mm 0.00 in0.0 mm
02:08 PM 50.9°F10.5°C 39.4°F4.1°C 65% 13.0 mph NW20.9 kmh NW -- 29.42 in996.3 mb 0.00 in0.0 mm 0.00 in0.0 mm 0.00 in0.0 mm
02:09 PM 50.7°F10.4°C 39.3°F4.1°C 65% 11.0 mph W17.7 kmh W -- 29.42 in996.3 mb 0.00 in0.0 mm 0.00 in0.0 mm 0.00 in0.0 mm
02:10 PM 50.3°F10.2°C 38.9°F3.8°C 65% 11.0 mph W17.7 kmh W -- 29.42 in996.3 mb 0.00 in0.0 mm 0.00 in0.0 mm 0.00 in0.0 mm
02:12 PM 50.3°F10.2°C 38.9°F3.8°C 65% 16.0 mph NNW25.7 kmh NNW -- 29.42 in996.3 mb 0.00 in0.0 mm 0.00 in0.0 mm 0.00 in0.0 mm
02:13 PM 50.5°F10.3°C 39.1°F3.9°C 65% 13.0 mph W20.9 kmh W -- 29.42 in996.3 mb 0.00 in0.0 mm 0.00 in0.0 mm 0.00 in0.0 mm
02:14 PM 50.7°F10.4°C 39.3°F4.1°C 65% 10.0 mph W16.1 kmh W -- 29.42 in996.3 mb 0.00 in0.0 mm 0.00 in0.0 mm 0.00 in0.0 mm
02:15 PM 51.4°F10.8°C 40.0°F4.4°C 65% 11.0 mph W17.7 kmh W -- 29.42 in996.3 mb 0.00 in0.0 mm 0.00 in0.0 mm 0.00 in0.0 mm
02:16 PM 51.3°F10.7°C 39.8°F4.3°C 65% 11.0 mph W17.7 kmh W -- 29.42 in996.3 mb 0.00 in0.0 mm 0.00 in0.0 mm 0.00 in0.0 mm
02:17 PM 51.0°F10.6°C 39.6°F4.2°C 65% 13.0 mph W20.9 kmh W -- 29.42 in996.3 mb 0.00 in0.0 mm 0.00 in0.0 mm 0.00 in0.0 mm
02:18 PM 50.7°F10.4°C 39.3°F4.1°C 65% 8.0 mph W12.9 kmh W -- 29.43 in996.6 mb 0.00 in0.0 mm 0.00 in0.0 mm 0.00 in0.0 mm
02:19 PM 50.7°F10.4°C 39.3°F4.1°C 65% 10.0 mph WSW16.1 kmh WSW -- 29.43 in996.6 mb 0.00 in0.0 mm 0.00 in0.0 mm 0.00 in0.0 mm
02:20 PM 50.7°F10.4°C 39.3°F4.1°C 65% 11.0 mph W17.7 kmh W -- 29.43 in996.6 mb 0.00 in0.0 mm 0.00 in0.0 mm 0.00 in0.0 mm
02:21 PM 50.7°F10.4°C 39.3°F4.1°C 65% 9.0 mph W14.5 kmh W -- 29.42 in996.3 mb 0.00 in0.0 mm 0.00 in0.0 mm 0.00 in0.0 mm
02:22 PM 51.0°F10.6°C 39.6°F4.2°C 65% 8.0 mph W12.9 kmh W -- 29.43 in996.6 mb 0.00 in0.0 mm 0.00 in0.0 mm 0.00 in0.0 mm
02:23 PM 50.9°F10.5°C 39.4°F4.1°C 65% 16.0 mph W25.7 kmh W -- 29.43 in996.6 mb 0.00 in0.0 mm 0.00 in0.0 mm 0.00 in0.0 mm
02:24 PM 50.7°F10.4°C 39.3°F4.1°C 65% 13.0 mph W20.9 kmh W -- 29.43 in996.6 mb 0.00 in0.0 mm 0.00 in0.0 mm 0.00 in0.0 mm
02:25 PM 50.0°F10.0°C 38.6°F3.7°C 65% 14.0 mph WNW22.5 kmh WNW -- 29.42 in996.3 mb 0.00 in0.0 mm 0.00 in0.0 mm 0.00 in0.0 mm
02:26 PM 49.2°F9.6°C 38.3°F3.5°C 66% 11.0 mph WNW17.7 kmh WNW -- 29.43 in996.6 mb 0.00 in0.0 mm 0.00 in0.0 mm 0.00 in0.0 mm
02:27 PM 49.0°F9.4°C 38.7°F3.7°C 68% 15.0 mph NW24.1 kmh NW -- 29.43 in996.6 mb 0.00 in0.0 mm 0.00 in0.0 mm 0.00 in0.0 mm
02:28 PM 48.9°F9.4°C 38.7°F3.7°C 68% 11.0 mph W17.7 kmh W -- 29.43 in996.6 mb 0.00 in0.0 mm 0.00 in0.0 mm 0.00 in0.0 mm
02:29 PM 48.9°F9.4°C 38.7°F3.7°C 68% 9.0 mph W14.5 kmh W -- 29.42 in996.3 mb 0.00 in0.0 mm 0.00 in0.0 mm 0.00 in0.0 mm
02:30 PM 48.5°F9.2°C 38.4°F3.6°C 68% 10.0 mph WNW16.1 kmh WNW -- 29.42 in996.3 mb 0.00 in0.0 mm 0.00 in0.0 mm 0.00 in0.0 mm
02:31 PM 48.5°F9.2°C 38.7°F3.7°C 69% 9.0 mph W14.5 kmh W -- 29.43 in996.6 mb 0.00 in0.0 mm 0.00 in0.0 mm 0.00 in0.0 mm
02:32 PM 48.5°F9.2°C 38.7°F3.7°C 69% 12.0 mph W19.3 kmh W -- 29.43 in996.6 mb 0.00 in0.0 mm 0.00 in0.0 mm 0.00 in0.0 mm
02:33 PM 48.5°F9.2°C 38.7°F3.7°C 69% 13.0 mph W20.9 kmh W -- 29.43 in996.6 mb 0.00 in0.0 mm 0.00 in0.0 mm 0.00 in0.0 mm
02:34 PM 48.5°F9.2°C 39.1°F3.9°C 70% 9.0 mph WNW14.5 kmh WNW -- 29.43 in996.6 mb 0.00 in0.0 mm 0.00 in0.0 mm 0.00 in0.0 mm
02:35 PM 48.6°F9.2°C 39.1°F3.9°C 70% 12.0 mph WNW19.3 kmh WNW -- 29.43 in996.6 mb 0.00 in0.0 mm 0.00 in0.0 mm 0.00 in0.0 mm
02:37 PM 48.7°F9.3°C 39.3°F4.1°C 70% 12.0 mph WNW19.3 kmh WNW -- 29.43 in996.6 mb 0.00 in0.0 mm 0.00 in0.0 mm 0.00 in0.0 mm
02:38 PM 48.5°F9.2°C 39.1°F3.9°C 70% 12.0 mph W19.3 kmh W -- 29.43 in996.6 mb 0.00 in0.0 mm 0.00 in0.0 mm 0.00 in0.0 mm
02:40 PM 48.5°F9.2°C 39.1°F3.9°C 70% 10.0 mph W16.1 kmh W -- 29.43 in996.6 mb 0.00 in0.0 mm 0.00 in0.0 mm 0.00 in0.0 mm
02:41 PM 48.9°F9.4°C 39.5°F4.2°C 70% 13.0 mph W20.9 kmh W -- 29.43 in996.6 mb 0.00 in0.0 mm 0.00 in0.0 mm 0.00 in0.0 mm
02:42 PM 48.9°F9.4°C 39.5°F4.2°C 70% 10.0 mph W16.1 kmh W -- 29.43 in996.6 mb 0.00 in0.0 mm 0.00 in0.0 mm 0.00 in0.0 mm
02:43 PM 49.2°F9.6°C 39.8°F4.3°C 70% 11.0 mph W17.7 kmh W -- 29.43 in996.6 mb 0.00 in0.0 mm 0.00 in0.0 mm 0.00 in0.0 mm
02:44 PM 49.4°F9.7°C 40.0°F4.4°C 70% 13.0 mph W20.9 kmh W -- 29.43 in996.6 mb 0.00 in0.0 mm 0.00 in0.0 mm 0.00 in0.0 mm
02:45 PM 49.4°F9.7°C 39.6°F4.2°C 69% 13.0 mph W20.9 kmh W -- 29.43 in996.6 mb 0.00 in0.0 mm 0.00 in0.0 mm 0.00 in0.0 mm
02:46 PM 49.2°F9.6°C 39.4°F4.1°C 69% 10.0 mph W16.1 kmh W -- 29.43 in996.6 mb 0.00 in0.0 mm 0.00 in0.0 mm 0.00 in0.0 mm
02:47 PM 49.2°F9.6°C 39.4°F4.1°C 69% 11.0 mph W17.7 kmh W -- 29.43 in996.6 mb 0.00 in0.0 mm 0.00 in0.0 mm 0.00 in0.0 mm
02:48 PM 49.2°F9.6°C 39.4°F4.1°C 69% 14.0 mph W22.5 kmh W -- 29.43 in996.6 mb 0.00 in0.0 mm 0.00 in0.0 mm 0.00 in0.0 mm
02:49 PM 49.4°F9.7°C 39.6°F4.2°C 69% 8.0 mph WNW12.9 kmh WNW -- 29.43 in996.6 mb 0.00 in0.0 mm 0.00 in0.0 mm 0.00 in0.0 mm
02:50 PM 49.6°F9.8°C 39.8°F4.3°C 69% 10.0 mph NW16.1 kmh NW -- 29.43 in996.6 mb 0.00 in0.0 mm 0.00 in0.0 mm 0.00 in0.0 mm
02:51 PM 49.6°F9.8°C 39.8°F4.3°C 69% 15.0 mph WSW24.1 kmh WSW -- 29.43 in996.6 mb 0.00 in0.0 mm 0.00 in0.0 mm 0.00 in0.0 mm
02:52 PM 49.0°F9.4°C 39.1°F3.9°C 69% 9.0 mph WSW14.5 kmh WSW -- 29.43 in996.6 mb 0.00 in0.0 mm 0.00 in0.0 mm 0.00 in0.0 mm
02:53 PM 48.9°F9.4°C 39.1°F3.9°C 69% 14.0 mph W22.5 kmh W -- 29.43 in996.6 mb 0.00 in0.0 mm 0.00 in0.0 mm 0.00 in0.0 mm
02:54 PM 48.6°F9.2°C 38.7°F3.7°C 69% 9.0 mph W14.5 kmh W -- 29.43 in996.6 mb 0.00 in0.0 mm 0.00 in0.0 mm 0.00 in0.0 mm
02:55 PM 49.0°F9.4°C 39.5°F4.2°C 70% 8.0 mph ESE12.9 kmh ESE -- 29.43 in996.6 mb 0.00 in0.0 mm 0.00 in0.0 mm 0.00 in0.0 mm
02:56 PM 49.0°F9.4°C 39.1°F3.9°C 69% 9.0 mph WSW14.5 kmh WSW -- 29.43 in996.6 mb 0.00 in0.0 mm 0.00 in0.0 mm 0.00 in0.0 mm
02:57 PM 49.0°F9.4°C 39.1°F3.9°C 69% 13.0 mph W20.9 kmh W -- 29.43 in996.6 mb 0.00 in0.0 mm 0.00 in0.0 mm 0.00 in0.0 mm
02:58 PM 49.0°F9.4°C 39.1°F3.9°C 69% 11.0 mph W17.7 kmh W -- 29.43 in996.6 mb 0.00 in0.0 mm 0.00 in0.0 mm 0.00 in0.0 mm
02:59 PM 49.2°F9.6°C 39.4°F4.1°C 69% 10.0 mph W16.1 kmh W -- 29.43 in996.6 mb 0.00 in0.0 mm 0.00 in0.0 mm 0.00 in0.0 mm
03:00 PM 49.6°F9.8°C 40.2°F4.6°C 70% 10.0 mph W16.1 kmh W -- 29.43 in996.6 mb 0.00 in0.0 mm 0.00 in0.0 mm 0.00 in0.0 mm
03:01 PM 49.8°F9.9°C 40.3°F4.6°C 70% 15.0 mph W24.1 kmh W -- 29.43 in996.6 mb 0.00 in0.0 mm 0.00 in0.0 mm 0.00 in0.0 mm
03:02 PM 50.0°F10.0°C 40.1°F4.5°C 69% 10.0 mph W16.1 kmh W -- 29.43 in996.6 mb 0.00 in0.0 mm 0.00 in0.0 mm 0.00 in0.0 mm
03:03 PM 49.8°F9.9°C 40.0°F4.4°C 69% 14.0 mph WNW22.5 kmh WNW -- 29.43 in996.6 mb 0.00 in0.0 mm 0.00 in0.0 mm 0.00 in0.0 mm
03:04 PM 49.4°F9.7°C 39.6°F4.2°C 69% 12.0 mph W19.3 kmh W -- 29.43 in996.6 mb 0.00 in0.0 mm 0.00 in0.0 mm 0.00 in0.0 mm
03:05 PM 49.4°F9.7°C 39.6°F4.2°C 69% 9.0 mph WNW14.5 kmh WNW -- 29.43 in996.6 mb 0.00 in0.0 mm 0.00 in0.0 mm 0.00 in0.0 mm
03:06 PM 49.2°F9.6°C 39.4°F4.1°C 69% 9.0 mph W14.5 kmh W -- 29.43 in996.6 mb 0.00 in0.0 mm 0.00 in0.0 mm 0.00 in0.0 mm
03:07 PM 49.2°F9.6°C 39.4°F4.1°C 69% 12.0 mph WNW19.3 kmh WNW -- 29.43 in996.6 mb 0.00 in0.0 mm 0.00 in0.0 mm 0.00 in0.0 mm
03:08 PM 49.2°F9.6°C 39.4°F4.1°C 69% 10.0 mph W16.1 kmh W -- 29.43 in996.6 mb 0.00 in0.0 mm 0.00 in0.0 mm 0.00 in0.0 mm
03:09 PM 49.2°F9.6°C 39.4°F4.1°C 69% 9.0 mph W14.5 kmh W -- 29.43 in996.6 mb 0.00 in0.0 mm 0.00 in0.0 mm 0.00 in0.0 mm
03:10 PM 49.6°F9.8°C 40.2°F4.6°C 70% 18.0 mph W29.0 kmh W -- 29.44 in997.0 mb 0.00 in0.0 mm 0.00 in0.0 mm 0.00 in0.0 mm
03:11 PM 49.8°F9.9°C 40.0°F4.4°C 69% 10.0 mph W16.1 kmh W -- 29.43 in996.6 mb 0.00 in0.0 mm 0.00 in0.0 mm 0.00 in0.0 mm
03:12 PM 49.8°F9.9°C 40.0°F4.4°C 69% 11.0 mph WNW17.7 kmh WNW -- 29.43 in996.6 mb 0.00 in0.0 mm 0.00 in0.0 mm 0.00 in0.0 mm
03:13 PM 49.6°F9.8°C 39.8°F4.3°C 69% 13.0 mph WSW20.9 kmh WSW -- 29.43 in996.6 mb 0.00 in0.0 mm 0.00 in0.0 mm 0.00 in0.0 mm
03:14 PM 49.6°F9.8°C 39.8°F4.3°C 69% 13.0 mph W20.9 kmh W -- 29.43 in996.6 mb 0.00 in0.0 mm 0.00 in0.0 mm 0.00 in0.0 mm
03:15 PM 49.0°F9.4°C 39.1°F3.9°C 69% 14.0 mph NW22.5 kmh NW -- 29.43 in996.6 mb 0.00 in0.0 mm 0.00 in0.0 mm 0.00 in0.0 mm
03:16 PM 48.5°F9.2°C 39.1°F3.9°C 70% 14.0 mph W22.5 kmh W -- 29.43 in996.6 mb 0.00 in0.0 mm 0.00 in0.0 mm 0.00 in0.0 mm
03:17 PM 48.4°F9.1°C 38.9°F3.8°C 70% 10.0 mph W16.1 kmh W -- 29.43 in996.6 mb 0.00 in0.0 mm 0.00 in0.0 mm 0.00 in0.0 mm
03:19 PM 48.5°F9.2°C 39.1°F3.9°C 70% 16.0 mph W25.7 kmh W -- 29.43 in996.6 mb 0.00 in0.0 mm 0.00 in0.0 mm 0.00 in0.0 mm
03:20 PM 48.5°F9.2°C 39.1°F3.9°C 70% 10.0 mph W16.1 kmh W -- 29.43 in996.6 mb 0.00 in0.0 mm 0.00 in0.0 mm 0.00 in0.0 mm
03:21 PM 48.5°F9.2°C 39.1°F3.9°C 70% 9.0 mph W14.5 kmh W -- 29.44 in997.0 mb 0.00 in0.0 mm 0.00 in0.0 mm 0.00 in0.0 mm
03:22 PM 48.4°F9.1°C 38.9°F3.8°C 70% 12.0 mph W19.3 kmh W -- 29.44 in997.0 mb 0.00 in0.0 mm 0.00 in0.0 mm 0.00 in0.0 mm
03:23 PM 48.4°F9.1°C 38.9°F3.8°C 70% 9.0 mph W14.5 kmh W -- 29.43 in996.6 mb 0.00 in0.0 mm 0.00 in0.0 mm 0.00 in0.0 mm
03:24 PM 48.4°F9.1°C 38.9°F3.8°C 70% 13.0 mph W20.9 kmh W -- 29.43 in996.6 mb 0.00 in0.0 mm 0.00 in0.0 mm 0.00 in0.0 mm
03:25 PM 48.4°F9.1°C 38.9°F3.8°C 70% 14.0 mph W22.5 kmh W -- 29.43 in996.6 mb 0.00 in0.0 mm 0.00 in0.0 mm 0.00 in0.0 mm
03:26 PM 48.0°F8.9°C 38.6°F3.7°C 70% 11.0 mph W17.7 kmh W -- 29.43 in996.6 mb 0.00 in0.0 mm 0.00 in0.0 mm 0.00 in0.0 mm
03:27 PM 47.7°F8.7°C 38.3°F3.5°C 70% 9.0 mph W14.5 kmh W -- 29.44 in997.0 mb 0.00 in0.0 mm 0.00 in0.0 mm 0.00 in0.0 mm
03:28 PM 47.7°F8.7°C 38.3°F3.5°C 70% 11.0 mph W17.7 kmh W -- 29.43 in996.6 mb 0.00 in0.0 mm 0.00 in0.0 mm 0.00 in0.0 mm
03:29 PM 47.7°F8.7°C 38.3°F3.5°C 70% 13.0 mph W20.9 kmh W -- 29.43 in996.6 mb 0.00 in0.0 mm 0.00 in0.0 mm 0.00 in0.0 mm
03:30 PM 47.7°F8.7°C 38.6°F3.7°C 71% 19.0 mph W30.6 kmh W -- 29.43 in996.6 mb 0.00 in0.0 mm 0.00 in0.0 mm 0.00 in0.0 mm
03:31 PM 47.1°F8.4°C 38.1°F3.4°C 71% 10.0 mph W16.1 kmh W -- 29.43 in996.6 mb 0.00 in0.0 mm 0.00 in0.0 mm 0.00 in0.0 mm
03:32 PM 46.7°F8.2°C 37.8°F3.2°C 71% 11.0 mph W17.7 kmh W -- 29.43 in996.6 mb 0.00 in0.0 mm 0.00 in0.0 mm 0.00 in0.0 mm
03:33 PM 46.7°F8.2°C 37.8°F3.2°C 71% 10.0 mph W16.1 kmh W -- 29.43 in996.6 mb 0.00 in0.0 mm 0.00 in0.0 mm 0.00 in0.0 mm
03:35 PM 46.5°F8.1°C 38.3°F3.5°C 73% 9.0 mph W14.5 kmh W -- 29.44 in997.0 mb 0.00 in0.0 mm 0.00 in0.0 mm 0.00 in0.0 mm
03:36 PM 46.4°F8.0°C 38.5°F3.6°C 74% 13.0 mph WNW20.9 kmh WNW -- 29.44 in997.0 mb 0.00 in0.0 mm 0.00 in0.0 mm 0.00 in0.0 mm
03:37 PM 46.4°F8.0°C 38.5°F3.6°C 74% 10.0 mph W16.1 kmh W -- 29.44 in997.0 mb 0.00 in0.0 mm 0.00 in0.0 mm 0.00 in0.0 mm
03:38 PM 46.4°F8.0°C 38.5°F3.6°C 74% 10.0 mph WNW16.1 kmh WNW -- 29.44 in997.0 mb 0.00 in0.0 mm 0.00 in0.0 mm 0.00 in0.0 mm
03:39 PM 45.9°F7.7°C 38.0°F3.3°C 74% 12.0 mph W19.3 kmh W -- 29.44 in997.0 mb 0.00 in0.0 mm 0.00 in0.0 mm 0.00 in0.0 mm
03:40 PM 45.9°F7.7°C 38.3°F3.5°C 75% 11.0 mph W17.7 kmh W -- 29.44 in997.0 mb 0.00 in0.0 mm 0.00 in0.0 mm 0.00 in0.0 mm
03:41 PM 45.9°F7.7°C 38.3°F3.5°C 75% 10.0 mph W16.1 kmh W -- 29.44 in997.0 mb 0.00 in0.0 mm 0.00 in0.0 mm 0.00 in0.0 mm
03:42 PM 45.9°F7.7°C 38.3°F3.5°C 75% 18.0 mph W29.0 kmh W -- 29.44 in997.0 mb 0.00 in0.0 mm 0.00 in0.0 mm 0.00 in0.0 mm
03:43 PM 45.9°F7.7°C 38.3°F3.5°C 75% 11.0 mph W17.7 kmh W -- 29.44 in997.0 mb 0.00 in0.0 mm 0.00 in0.0 mm 0.00 in0.0 mm
03:45 PM 46.1°F7.8°C 38.5°F3.6°C 75% 13.0 mph NNW20.9 kmh NNW -- 29.43 in996.6 mb 0.00 in0.0 mm 0.00 in0.0 mm 0.00 in0.0 mm
03:46 PM 46.1°F7.8°C 38.1°F3.4°C 74% 13.0 mph W20.9 kmh W -- 29.43 in996.6 mb 0.00 in0.0 mm 0.00 in0.0 mm 0.00 in0.0 mm
03:47 PM 45.9°F7.7°C 38.0°F3.3°C 74% 10.0 mph W16.1 kmh W -- 29.44 in997.0 mb 0.00 in0.0 mm 0.00 in0.0 mm 0.00 in0.0 mm
03:48 PM 45.9°F7.7°C 38.0°F3.3°C 74% 17.0 mph W27.4 kmh W -- 29.44 in997.0 mb 0.00 in0.0 mm 0.00 in0.0 mm 0.00 in0.0 mm
03:49 PM 45.9°F7.7°C 38.0°F3.3°C 74% 12.0 mph W19.3 kmh W -- 29.44 in997.0 mb 0.00 in0.0 mm 0.00 in0.0 mm 0.00 in0.0 mm
03:50 PM 46.1°F7.8°C 38.1°F3.4°C 74% 11.0 mph WSW17.7 kmh WSW -- 29.44 in997.0 mb 0.00 in0.0 mm 0.00 in0.0 mm 0.00 in0.0 mm
03:51 PM 46.1°F7.8°C 38.1°F3.4°C 74% 14.0 mph NW22.5 kmh NW -- 29.44 in997.0 mb 0.00 in0.0 mm 0.00 in0.0 mm 0.00 in0.0 mm
03:52 PM 46.4°F8.0°C 38.5°F3.6°C 74% 8.0 mph WNW12.9 kmh WNW -- 29.44 in997.0 mb 0.00 in0.0 mm 0.00 in0.0 mm 0.00 in0.0 mm
03:53 PM 46.7°F8.2°C 38.8°F3.8°C 74% 11.0 mph W17.7 kmh W -- 29.44 in997.0 mb 0.00 in0.0 mm 0.00 in0.0 mm 0.00 in0.0 mm
03:54 PM 46.9°F8.3°C 39.0°F3.9°C 74% 11.0 mph NNW17.7 kmh NNW -- 29.44 in997.0 mb 0.00 in0.0 mm 0.00 in0.0 mm 0.00 in0.0 mm
03:55 PM 46.9°F8.3°C 39.0°F3.9°C 74% 9.0 mph NW14.5 kmh NW -- 29.44 in997.0 mb 0.00 in0.0 mm 0.00 in0.0 mm 0.00 in0.0 mm
03:56 PM 47.3°F8.5°C 39.0°F3.9°C 73% 18.0 mph W29.0 kmh W -- 29.44 in997.0 mb 0.00 in0.0 mm 0.00 in0.0 mm 0.00 in0.0 mm
03:57 PM 47.3°F8.5°C 39.0°F3.9°C 73% 10.0 mph 16.1 kmh -- 29.44 in997.0 mb 0.00 in0.0 mm 0.00 in0.0 mm 0.00 in0.0 mm
03:58 PM 47.5°F8.6°C 39.2°F4.0°C 73% 9.0 mph W14.5 kmh W -- 29.44 in997.0 mb 0.00 in0.0 mm 0.00 in0.0 mm 0.00 in0.0 mm
03:59 PM 47.7°F8.7°C 38.6°F3.7°C 71% 14.0 mph W22.5 kmh W -- 29.44 in997.0 mb 0.00 in0.0 mm 0.00 in0.0 mm 0.00 in0.0 mm
04:00 PM 48.0°F8.9°C 39.0°F3.9°C 71% 12.0 mph W19.3 kmh W -- 29.44 in997.0 mb 0.00 in0.0 mm 0.00 in0.0 mm 0.00 in0.0 mm
04:01 PM 48.2°F9.0°C 39.1°F3.9°C 71% 10.0 mph W16.1 kmh W -- 29.44 in997.0 mb 0.00 in0.0 mm 0.00 in0.0 mm 0.00 in0.0 mm
04:02 PM 48.4°F9.1°C 38.9°F3.8°C 70% 10.0 mph WNW16.1 kmh WNW -- 29.44 in997.0 mb 0.00 in0.0 mm 0.00 in0.0 mm 0.00 in0.0 mm
04:03 PM 48.4°F9.1°C 38.9°F3.8°C 70% 16.0 mph NW25.7 kmh NW -- 29.44 in997.0 mb 0.00 in0.0 mm 0.00 in0.0 mm 0.00 in0.0 mm
04:04 PM 48.2°F9.0°C 38.8°F3.8°C 70% 8.0 mph W12.9 kmh W -- 29.44 in997.0 mb 0.00 in0.0 mm 0.00 in0.0 mm 0.00 in0.0 mm
04:05 PM 48.4°F9.1°C 39.3°F4.1°C 71% 10.0 mph SW16.1 kmh SW -- 29.44 in997.0 mb 0.00 in0.0 mm 0.00 in0.0 mm 0.00 in0.0 mm
04:06 PM 48.4°F9.1°C 39.3°F4.1°C 71% 12.0 mph WNW19.3 kmh WNW -- 29.44 in997.0 mb 0.00 in0.0 mm 0.00 in0.0 mm 0.00 in0.0 mm
04:07 PM 48.2°F9.0°C 39.1°F3.9°C 71% 10.0 mph W16.1 kmh W -- 29.44 in997.0 mb 0.00 in0.0 mm 0.00 in0.0 mm 0.00 in0.0 mm
04:08 PM 48.0°F8.9°C 39.0°F3.9°C 71% 11.0 mph WNW17.7 kmh WNW -- 29.43 in996.6 mb 0.00 in0.0 mm 0.00 in0.0 mm 0.00 in0.0 mm
04:09 PM 47.7°F8.7°C 38.6°F3.7°C 71% 12.0 mph NW19.3 kmh NW -- 29.44 in997.0 mb 0.00 in0.0 mm 0.00 in0.0 mm 0.00 in0.0 mm
04:10 PM 48.0°F8.9°C 39.7°F4.3°C 73% 15.0 mph W24.1 kmh W -- 29.44 in997.0 mb 0.00 in0.0 mm 0.00 in0.0 mm 0.00 in0.0 mm
04:11 PM 47.6°F8.7°C 39.3°F4.1°C 73% 15.0 mph W24.1 kmh W -- 29.44 in997.0 mb 0.00 in0.0 mm 0.00 in0.0 mm 0.00 in0.0 mm
04:12 PM 47.1°F8.4°C 38.8°F3.8°C 73% 8.0 mph W12.9 kmh W -- 29.44 in997.0 mb 0.00 in0.0 mm 0.00 in0.0 mm 0.00 in0.0 mm
04:13 PM 47.3°F8.5°C 39.0°F3.9°C 73% 10.0 mph WNW16.1 kmh WNW -- 29.44 in997.0 mb 0.00 in0.0 mm 0.00 in0.0 mm 0.00 in0.0 mm
04:14 PM 47.5°F8.6°C 39.2°F4.0°C 73% 10.0 mph W16.1 kmh W -- 29.44 in997.0 mb 0.00 in0.0 mm 0.00 in0.0 mm 0.00 in0.0 mm
04:15 PM 47.3°F8.5°C 39.0°F3.9°C 73% 9.0 mph W14.5 kmh W -- 29.44 in997.0 mb 0.00 in0.0 mm 0.00 in0.0 mm 0.00 in0.0 mm
04:16 PM 47.3°F8.5°C 39.3°F4.1°C 74% 13.0 mph W20.9 kmh W -- 29.44 in997.0 mb 0.00 in0.0 mm 0.00 in0.0 mm 0.00 in0.0 mm
04:17 PM 47.1°F8.4°C 39.2°F4.0°C 74% 12.0 mph W19.3 kmh W -- 29.44 in997.0 mb 0.00 in0.0 mm 0.00 in0.0 mm 0.00 in0.0 mm
04:18 PM 46.7°F8.2°C 38.8°F3.8°C 74% 9.0 mph W14.5 kmh W -- 29.45 in997.3 mb 0.00 in0.0 mm 0.00 in0.0 mm 0.00 in0.0 mm
04:19 PM 46.9°F8.3°C 39.0°F3.9°C 74% 7.0 mph WSW11.3 kmh WSW -- 29.44 in997.0 mb 0.00 in0.0 mm 0.00 in0.0 mm 0.00 in0.0 mm
04:20 PM 47.1°F8.4°C 39.2°F4.0°C 74% 13.0 mph W20.9 kmh W -- 29.44 in997.0 mb 0.00 in0.0 mm 0.00 in0.0 mm 0.00 in0.0 mm
04:21 PM 46.9°F8.3°C 39.0°F3.9°C 74% 12.0 mph W19.3 kmh W -- 29.44 in997.0 mb 0.00 in0.0 mm 0.00 in0.0 mm 0.00 in0.0 mm
04:22 PM 46.5°F8.1°C 38.6°F3.7°C 74% 9.0 mph W14.5 kmh W -- 29.44 in997.0 mb 0.00 in0.0 mm 0.00 in0.0 mm 0.00 in0.0 mm
04:23 PM 46.7°F8.2°C 39.2°F4.0°C 75% 8.0 mph W12.9 kmh W -- 29.44 in997.0 mb 0.00 in0.0 mm 0.00 in0.0 mm 0.00 in0.0 mm
04:24 PM 46.7°F8.2°C 39.2°F4.0°C 75% 10.0 mph W16.1 kmh W -- 29.44 in997.0 mb 0.00 in0.0 mm 0.00 in0.0 mm 0.00 in0.0 mm
04:25 PM 46.7°F8.2°C 38.8°F3.8°C 74% 14.0 mph W22.5 kmh W -- 29.45 in997.3 mb 0.00 in0.0 mm 0.00 in0.0 mm 0.00 in0.0 mm
04:26 PM 46.5°F8.1°C 39.0°F3.9°C 75% 10.0 mph WSW16.1 kmh WSW -- 29.44 in997.0 mb 0.00 in0.0 mm 0.00 in0.0 mm 0.00 in0.0 mm
04:27 PM 46.5°F8.1°C 39.0°F3.9°C 75% 12.0 mph WNW19.3 kmh WNW -- 29.44 in997.0 mb 0.00 in0.0 mm 0.00 in0.0 mm 0.00 in0.0 mm
04:28 PM 46.5°F8.1°C 39.0°F3.9°C 75% 10.0 mph W16.1 kmh W -- 29.44 in997.0 mb 0.00 in0.0 mm 0.00 in0.0 mm 0.00 in0.0 mm
04:29 PM 46.5°F8.1°C 39.0°F3.9°C 75% 8.0 mph W12.9 kmh W -- 29.44 in997.0 mb 0.00 in0.0 mm 0.00 in0.0 mm 0.00 in0.0 mm
04:31 PM 46.5°F8.1°C 39.0°F3.9°C 75% 8.0 mph NW12.9 kmh NW -- 29.44 in997.0 mb 0.00 in0.0 mm 0.00 in0.0 mm 0.00 in0.0 mm
04:32 PM 46.5°F8.1°C 39.0°F3.9°C 75% 9.0 mph W14.5 kmh W -- 29.44 in997.0 mb 0.00 in0.0 mm 0.00 in0.0 mm 0.00 in0.0 mm
04:33 PM 46.5°F8.1°C 39.0°F3.9°C 75% 12.0 mph W19.3 kmh W -- 29.44 in997.0 mb 0.00 in0.0 mm 0.00 in0.0 mm 0.00 in0.0 mm
04:34 PM 46.4°F8.0°C 38.8°F3.8°C 75% 12.0 mph WNW19.3 kmh WNW -- 29.44 in997.0 mb 0.00 in0.0 mm 0.00 in0.0 mm 0.00 in0.0 mm
04:35 PM 46.4°F8.0°C 38.8°F3.8°C 75% 13.0 mph W20.9 kmh W -- 29.44 in997.0 mb 0.00 in0.0 mm 0.00 in0.0 mm 0.00 in0.0 mm
04:36 PM 46.1°F7.8°C 38.5°F3.6°C 75% 17.0 mph W27.4 kmh W -- 29.44 in997.0 mb 0.00 in0.0 mm 0.00 in0.0 mm 0.00 in0.0 mm
04:37 PM 46.1°F7.8°C 38.5°F3.6°C 75% 13.0 mph W20.9 kmh W -- 29.45 in997.3 mb 0.00 in0.0 mm 0.00 in0.0 mm 0.00 in0.0 mm
04:38 PM 45.9°F7.7°C 38.3°F3.5°C 75% 13.0 mph W20.9 kmh W -- 29.45 in997.3 mb 0.00 in0.0 mm 0.00 in0.0 mm 0.00 in0.0 mm
04:39 PM 45.9°F7.7°C 38.3°F3.5°C 75% 12.0 mph W19.3 kmh W -- 29.45 in997.3 mb 0.00 in0.0 mm 0.00 in0.0 mm 0.00 in0.0 mm
04:40 PM 45.9°F7.7°C 38.3°F3.5°C 75% 7.0 mph NW11.3 kmh NW -- 29.44 in997.0 mb 0.00 in0.0 mm 0.00 in0.0 mm 0.00 in0.0 mm
04:41 PM 45.9°F7.7°C 38.3°F3.5°C 75% 16.0 mph W25.7 kmh W -- 29.44 in997.0 mb 0.00 in0.0 mm 0.00 in0.0 mm 0.00 in0.0 mm
04:42 PM 45.9°F7.7°C 38.3°F3.5°C 75% 11.0 mph WNW17.7 kmh WNW -- 29.44 in997.0 mb 0.00 in0.0 mm 0.00 in0.0 mm 0.00 in0.0 mm
04:43 PM 45.9°F7.7°C 38.3°F3.5°C 75% 10.0 mph NW16.1 kmh NW -- 29.44 in997.0 mb 0.00 in0.0 mm 0.00 in0.0 mm 0.00 in0.0 mm
04:44 PM 45.9°F7.7°C 38.3°F3.5°C 75% 11.0 mph WNW17.7 kmh WNW -- 29.44 in997.0 mb 0.00 in0.0 mm 0.00 in0.0 mm 0.00 in0.0 mm
04:45 PM 45.9°F7.7°C 38.3°F3.5°C 75% 9.0 mph NW14.5 kmh NW -- 29.44 in997.0 mb 0.00 in0.0 mm 0.00 in0.0 mm 0.00 in0.0 mm
04:46 PM 45.9°F7.7°C 38.3°F3.5°C 75% 12.0 mph SSW19.3 kmh SSW -- 29.45 in997.3 mb 0.00 in0.0 mm 0.00 in0.0 mm 0.00 in0.0 mm
04:47 PM 45.9°F7.7°C 38.3°F3.5°C 75% 15.0 mph NW24.1 kmh NW -- 29.45 in997.3 mb 0.00 in0.0 mm 0.00 in0.0 mm 0.00 in0.0 mm
04:48 PM 45.9°F7.7°C 38.3°F3.5°C 75% 20.0 mph W32.2 kmh W -- 29.45 in997.3 mb 0.00 in0.0 mm 0.00 in0.0 mm 0.00 in0.0 mm
04:49 PM 45.9°F7.7°C 38.3°F3.5°C 75% 8.0 mph W12.9 kmh W -- 29.45 in997.3 mb 0.00 in0.0 mm 0.00 in0.0 mm 0.00 in0.0 mm
04:50 PM 45.9°F7.7°C 38.3°F3.5°C 75% 9.0 mph WNW14.5 kmh WNW -- 29.45 in997.3 mb 0.00 in0.0 mm 0.00 in0.0 mm 0.00 in0.0 mm
04:52 PM 45.9°F7.7°C 38.3°F3.5°C 75% 9.0 mph W14.5 kmh W -- 29.45 in997.3 mb 0.00 in0.0 mm 0.00 in0.0 mm 0.00 in0.0 mm
04:53 PM 45.9°F7.7°C 38.3°F3.5°C 75% 10.0 mph W16.1 kmh W -- 29.45 in997.3 mb 0.00 in0.0 mm 0.00 in0.0 mm 0.00 in0.0 mm
04:54 PM 45.9°F7.7°C 38.3°F3.5°C 75% 7.0 mph SW11.3 kmh SW -- 29.45 in997.3 mb 0.00 in0.0 mm 0.00 in0.0 mm 0.00 in0.0 mm
04:55 PM 45.9°F7.7°C 38.3°F3.5°C 75% 11.0 mph W17.7 kmh W -- 29.45 in997.3 mb 0.00 in0.0 mm 0.00 in0.0 mm 0.00 in0.0 mm
04:56 PM 45.9°F7.7°C 38.3°F3.5°C 75% 11.0 mph WNW17.7 kmh WNW -- 29.45 in997.3 mb 0.00 in0.0 mm 0.00 in0.0 mm 0.00 in0.0 mm
04:57 PM 45.9°F7.7°C 38.3°F3.5°C 75% 6.0 mph WSW9.7 kmh WSW -- 29.45 in997.3 mb 0.00 in0.0 mm 0.00 in0.0 mm 0.00 in0.0 mm
04:58 PM 45.9°F7.7°C 38.3°F3.5°C 75% 10.0 mph W16.1 kmh W -- 29.45 in997.3 mb 0.00 in0.0 mm 0.00 in0.0 mm 0.00 in0.0 mm
04:59 PM 45.9°F7.7°C 38.3°F3.5°C 75% 13.0 mph W20.9 kmh W -- 29.45 in997.3 mb 0.00 in0.0 mm 0.00 in0.0 mm 0.00 in0.0 mm
05:00 PM 45.7°F7.6°C 38.1°F3.4°C 75% 7.0 mph NW11.3 kmh NW -- 29.45 in997.3 mb 0.00 in0.0 mm 0.00 in0.0 mm 0.00 in0.0 mm
05:02 PM 45.7°F7.6°C 38.1°F3.4°C 75% 13.0 mph WNW20.9 kmh WNW -- 29.45 in997.3 mb 0.00 in0.0 mm 0.00 in0.0 mm 0.00 in0.0 mm
05:03 PM 45.7°F7.6°C 38.1°F3.4°C 75% 12.0 mph W19.3 kmh W -- 29.45 in997.3 mb 0.00 in0.0 mm 0.00 in0.0 mm 0.00 in0.0 mm
05:04 PM 45.7°F7.6°C 38.1°F3.4°C 75% 8.0 mph NNW12.9 kmh NNW -- 29.45 in997.3 mb 0.00 in0.0 mm 0.00 in0.0 mm 0.00 in0.0 mm
05:05 PM 45.9°F7.7°C 38.3°F3.5°C 75% 13.0 mph W20.9 kmh W -- 29.45 in997.3 mb 0.00 in0.0 mm 0.00 in0.0 mm 0.00 in0.0 mm
05:06 PM 45.9°F7.7°C 38.3°F3.5°C 75% 7.0 mph W11.3 kmh W -- 29.45 in997.3 mb 0.00 in0.0 mm 0.00 in0.0 mm 0.00 in0.0 mm
05:07 PM 45.9°F7.7°C 38.3°F3.5°C 75% 14.0 mph W22.5 kmh W -- 29.45 in997.3 mb 0.00 in0.0 mm 0.00 in0.0 mm 0.00 in0.0 mm
05:08 PM 45.5°F7.5°C 38.0°F3.3°C 75% 11.0 mph W17.7 kmh W -- 29.45 in997.3 mb 0.00 in0.0 mm 0.00 in0.0 mm 0.00 in0.0 mm
05:09 PM 45.5°F7.5°C 38.0°F3.3°C 75% 11.0 mph NW17.7 kmh NW -- 29.45 in997.3 mb 0.00 in0.0 mm 0.00 in0.0 mm 0.00 in0.0 mm
05:10 PM 45.5°F7.5°C 38.0°F3.3°C 75% 8.0 mph W12.9 kmh W -- 29.46 in997.6 mb 0.00 in0.0 mm 0.00 in0.0 mm 0.00 in0.0 mm
05:11 PM 45.5°F7.5°C 38.0°F3.3°C 75% 15.0 mph 24.1 kmh -- 29.46 in997.6 mb 0.00 in0.0 mm 0.00 in0.0 mm 0.00 in0.0 mm
05:12 PM 45.2°F7.3°C 37.6°F3.1°C 75% 15.0 mph NW24.1 kmh NW -- 29.46 in997.6 mb 0.00 in0.0 mm 0.00 in0.0 mm 0.00 in0.0 mm
05:13 PM 45.0°F7.2°C 37.4°F3.0°C 75% 11.0 mph NW17.7 kmh NW -- 29.45 in997.3 mb 0.00 in0.0 mm 0.00 in0.0 mm 0.00 in0.0 mm
05:14 PM 45.0°F7.2°C 37.8°F3.2°C 76% 9.0 mph W14.5 kmh W -- 29.45 in997.3 mb 0.00 in0.0 mm 0.00 in0.0 mm 0.00 in0.0 mm
05:15 PM 45.0°F7.2°C 37.8°F3.2°C 76% 9.0 mph W14.5 kmh W -- 29.46 in997.6 mb 0.00 in0.0 mm 0.00 in0.0 mm 0.00 in0.0 mm
05:16 PM 45.2°F7.3°C 37.9°F3.3°C 76% 15.0 mph W24.1 kmh W -- 29.46 in997.6 mb 0.00 in0.0 mm 0.00 in0.0 mm 0.00 in0.0 mm
05:17 PM 45.2°F7.3°C 37.9°F3.3°C 76% 9.0 mph W14.5 kmh W -- 29.46 in997.6 mb 0.00 in0.0 mm 0.00 in0.0 mm 0.00 in0.0 mm
05:18 PM 45.5°F7.5°C 38.3°F3.5°C 76% 13.0 mph W20.9 kmh W -- 29.46 in997.6 mb 0.00 in0.0 mm 0.00 in0.0 mm 0.00 in0.0 mm
05:19 PM 45.7°F7.6°C 38.5°F3.6°C 76% 11.0 mph W17.7 kmh W -- 29.46 in997.6 mb 0.00 in0.0 mm 0.00 in0.0 mm 0.00 in0.0 mm
05:20 PM 45.7°F7.6°C 38.5°F3.6°C 76% 9.0 mph WNW14.5 kmh WNW -- 29.46 in997.6 mb 0.00 in0.0 mm 0.00 in0.0 mm 0.00 in0.0 mm
05:21 PM 45.5°F7.5°C 38.0°F3.3°C 75% 11.0 mph W17.7 kmh W -- 29.45 in997.3 mb 0.00 in0.0 mm 0.00 in0.0 mm 0.00 in0.0 mm
05:22 PM 45.5°F7.5°C 38.0°F3.3°C 75% 12.0 mph NW19.3 kmh NW -- 29.45 in997.3 mb 0.00 in0.0 mm 0.00 in0.0 mm 0.00 in0.0 mm
05:23 PM 45.5°F7.5°C 38.0°F3.3°C 75% 11.0 mph WNW17.7 kmh WNW -- 29.45 in997.3 mb 0.00 in0.0 mm 0.00 in0.0 mm 0.00 in0.0 mm
05:24 PM 45.2°F7.3°C 37.6°F3.1°C 75% 12.0 mph WNW19.3 kmh WNW -- 29.46 in997.6 mb 0.00 in0.0 mm 0.00 in0.0 mm 0.00 in0.0 mm
05:25 PM 45.2°F7.3°C 37.6°F3.1°C 75% 8.0 mph W12.9 kmh W -- 29.46 in997.6 mb 0.00 in0.0 mm 0.00 in0.0 mm 0.00 in0.0 mm
05:27 PM 45.5°F7.5°C 38.0°F3.3°C 75% 7.0 mph W11.3 kmh W -- 29.46 in997.6 mb 0.00 in0.0 mm 0.00 in0.0 mm 0.00 in0.0 mm
05:28 PM 45.5°F7.5°C 38.0°F3.3°C 75% 9.0 mph WNW14.5 kmh WNW -- 29.46 in997.6 mb 0.00 in0.0 mm 0.00 in0.0 mm 0.00 in0.0 mm
05:29 PM 45.5°F7.5°C 38.0°F3.3°C 75% 12.0 mph W19.3 kmh W -- 29.46 in997.6 mb 0.00 in0.0 mm 0.00 in0.0 mm 0.00 in0.0 mm
05:30 PM 45.5°F7.5°C 38.0°F3.3°C 75% 12.0 mph WNW19.3 kmh WNW -- 29.46 in997.6 mb 0.00 in0.0 mm 0.00 in0.0 mm 0.00 in0.0 mm
05:32 PM 45.5°F7.5°C 38.3°F3.5°C 76% 10.0 mph WSW16.1 kmh WSW -- 29.46 in997.6 mb 0.00 in0.0 mm 0.00 in0.0 mm 0.00 in0.0 mm
05:33 PM 45.7°F7.6°C 38.1°F3.4°C 75% 14.0 mph WNW22.5 kmh WNW -- 29.46 in997.6 mb 0.00 in0.0 mm 0.00 in0.0 mm 0.00 in0.0 mm
05:34 PM 45.7°F7.6°C 38.1°F3.4°C 75% 8.0 mph W12.9 kmh W -- 29.46 in997.6 mb 0.00 in0.0 mm 0.00 in0.0 mm 0.00 in0.0 mm
05:35 PM 45.9°F7.7°C 38.3°F3.5°C 75% 9.0 mph WNW14.5 kmh WNW -- 29.46 in997.6 mb 0.00 in0.0 mm 0.00 in0.0 mm 0.00 in0.0 mm
05:36 PM 46.1°F7.8°C 38.5°F3.6°C 75% 15.0 mph WSW24.1 kmh WSW -- 29.46 in997.6 mb 0.00 in0.0 mm 0.00 in0.0 mm 0.00 in0.0 mm
05:37 PM 46.4°F8.0°C 38.8°F3.8°C 75% 7.0 mph WNW11.3 kmh WNW -- 29.46 in997.6 mb 0.00 in0.0 mm 0.00 in0.0 mm 0.00 in0.0 mm
05:38 PM 46.9°F8.3°C 39.3°F4.1°C 75% 12.0 mph W19.3 kmh W -- 29.46 in997.6 mb 0.00 in0.0 mm 0.00 in0.0 mm 0.00 in0.0 mm
05:39 PM 47.1°F8.4°C 39.2°F4.0°C 74% 18.0 mph W29.0 kmh W -- 29.46 in997.6 mb 0.00 in0.0 mm 0.00 in0.0 mm 0.00 in0.0 mm
05:40 PM 47.1°F8.4°C 39.2°F4.0°C 74% 12.0 mph W19.3 kmh W -- 29.46 in997.6 mb 0.00 in0.0 mm 0.00 in0.0 mm 0.00 in0.0 mm
05:41 PM 47.1°F8.4°C 39.2°F4.0°C 74% 14.0 mph NW22.5 kmh NW -- 29.46 in997.6 mb 0.00 in0.0 mm 0.00 in0.0 mm 0.00 in0.0 mm
05:42 PM 46.9°F8.3°C 39.0°F3.9°C 74% 13.0 mph W20.9 kmh W -- 29.46 in997.6 mb 0.00 in0.0 mm 0.00 in0.0 mm 0.00 in0.0 mm
05:43 PM 46.9°F8.3°C 39.0°F3.9°C 74% 9.0 mph WNW14.5 kmh WNW -- 29.46 in997.6 mb 0.00 in0.0 mm 0.00 in0.0 mm 0.00 in0.0 mm
05:44 PM 47.1°F8.4°C 39.2°F4.0°C 74% 15.0 mph NW24.1 kmh NW -- 29.46 in997.6 mb 0.00 in0.0 mm 0.00 in0.0 mm 0.00 in0.0 mm
05:45 PM 47.1°F8.4°C 39.2°F4.0°C 74% 13.0 mph NW20.9 kmh NW -- 29.46 in997.6 mb 0.00 in0.0 mm 0.00 in0.0 mm 0.00 in0.0 mm
05:46 PM 46.9°F8.3°C 39.0°F3.9°C 74% 12.0 mph WNW19.3 kmh WNW -- 29.46 in997.6 mb 0.00 in0.0 mm 0.00 in0.0 mm 0.00 in0.0 mm
05:47 PM 46.7°F8.2°C 38.8°F3.8°C 74% 14.0 mph WNW22.5 kmh WNW -- 29.46 in997.6 mb 0.00 in0.0 mm 0.00 in0.0 mm 0.00 in0.0 mm
05:48 PM 46.7°F8.2°C 38.8°F3.8°C 74% 7.0 mph WNW11.3 kmh WNW -- 29.46 in997.6 mb 0.00 in0.0 mm 0.00 in0.0 mm 0.00 in0.0 mm
05:49 PM 46.5°F8.1°C 38.6°F3.7°C 74% 16.0 mph W25.7 kmh W -- 29.46 in997.6 mb 0.00 in0.0 mm 0.00 in0.0 mm 0.00 in0.0 mm
05:50 PM 46.5°F8.1°C 38.6°F3.7°C 74% 10.0 mph WNW16.1 kmh WNW -- 29.46 in997.6 mb 0.00 in0.0 mm 0.00 in0.0 mm 0.00 in0.0 mm
05:51 PM 45.9°F7.7°C 38.3°F3.5°C 75% 7.0 mph WSW11.3 kmh WSW -- 29.46 in997.6 mb 0.00 in0.0 mm 0.00 in0.0 mm 0.00 in0.0 mm
05:52 PM 45.7°F7.6°C 38.1°F3.4°C 75% 11.0 mph WNW17.7 kmh WNW -- 29.46 in997.6 mb 0.00 in0.0 mm 0.00 in0.0 mm 0.00 in0.0 mm
05:53 PM 45.7°F7.6°C 38.1°F3.4°C 75% 9.0 mph W14.5 kmh W -- 29.46 in997.6 mb 0.00 in0.0 mm 0.00 in0.0 mm 0.00 in0.0 mm
05:54 PM 45.7°F7.6°C 38.1°F3.4°C 75% 10.0 mph W16.1 kmh W -- 29.46 in997.6 mb 0.00 in0.0 mm 0.00 in0.0 mm 0.00 in0.0 mm
05:55 PM 45.5°F7.5°C 38.0°F3.3°C 75% 11.0 mph WNW17.7 kmh WNW -- 29.46 in997.6 mb 0.00 in0.0 mm 0.00 in0.0 mm 0.00 in0.0 mm
05:56 PM 45.7°F7.6°C 38.5°F3.6°C 76% 10.0 mph W16.1 kmh W -- 29.46 in997.6 mb 0.00 in0.0 mm 0.00 in0.0 mm 0.00 in0.0 mm
05:57 PM 45.9°F7.7°C 38.6°F3.7°C 76% 12.0 mph W19.3 kmh W -- 29.46 in997.6 mb 0.00 in0.0 mm 0.00 in0.0 mm 0.00 in0.0 mm
05:58 PM 46.1°F7.8°C 38.8°F3.8°C 76% 9.0 mph WNW14.5 kmh WNW -- 29.46 in997.6 mb 0.00 in0.0 mm 0.00 in0.0 mm 0.00 in0.0 mm
05:59 PM 46.4°F8.0°C 38.8°F3.8°C 75% 12.0 mph WNW19.3 kmh WNW -- 29.46 in997.6 mb 0.00 in0.0 mm 0.00 in0.0 mm 0.00 in0.0 mm
06:00 PM 46.7°F8.2°C 39.2°F4.0°C 75% 8.0 mph WNW12.9 kmh WNW -- 29.46 in997.6 mb 0.00 in0.0 mm 0.00 in0.0 mm 0.00 in0.0 mm
06:01 PM 46.7°F8.2°C 39.2°F4.0°C 75% 7.0 mph W11.3 kmh W -- 29.46 in997.6 mb 0.00 in0.0 mm 0.00 in0.0 mm 0.00 in0.0 mm
06:02 PM 47.1°F8.4°C 39.5°F4.2°C 75% 12.0 mph W19.3 kmh W -- 29.46 in997.6 mb 0.00 in0.0 mm 0.00 in0.0 mm 0.00 in0.0 mm
06:03 PM 47.1°F8.4°C 39.5°F4.2°C 75% 15.0 mph WNW24.1 kmh WNW -- 29.46 in997.6 mb 0.00 in0.0 mm 0.00 in0.0 mm 0.00 in0.0 mm
06:04 PM 47.1°F8.4°C 39.5°F4.2°C 75% 11.0 mph W17.7 kmh W -- 29.46 in997.6 mb 0.00 in0.0 mm 0.00 in0.0 mm 0.00 in0.0 mm
06:05 PM 46.7°F8.2°C 39.2°F4.0°C 75% 10.0 mph W16.1 kmh W -- 29.46 in997.6 mb 0.00 in0.0 mm 0.00 in0.0 mm 0.00 in0.0 mm
06:06 PM 46.7°F8.2°C 39.2°F4.0°C 75% 14.0 mph WNW22.5 kmh WNW -- 29.46 in997.6 mb 0.00 in0.0 mm 0.00 in0.0 mm 0.00 in0.0 mm
06:07 PM 46.7°F8.2°C 39.2°F4.0°C 75% 8.0 mph WNW12.9 kmh WNW -- 29.46 in997.6 mb 0.00 in0.0 mm 0.00 in0.0 mm 0.00 in0.0 mm
06:08 PM 46.7°F8.2°C 39.2°F4.0°C 75% 14.0 mph WNW22.5 kmh WNW -- 29.46 in997.6 mb 0.00 in0.0 mm 0.00 in0.0 mm 0.00 in0.0 mm
06:09 PM 46.7°F8.2°C 39.2°F4.0°C 75% 9.0 mph W14.5 kmh W -- 29.46 in997.6 mb 0.00 in0.0 mm 0.00 in0.0 mm 0.00 in0.0 mm
06:10 PM 46.5°F8.1°C 39.0°F3.9°C 75% 12.0 mph W19.3 kmh W -- 29.46 in997.6 mb 0.00 in0.0 mm 0.00 in0.0 mm 0.00 in0.0 mm
06:11 PM 46.4°F8.0°C 38.8°F3.8°C 75% 8.0 mph W12.9 kmh W -- 29.46 in997.6 mb 0.00 in0.0 mm 0.00 in0.0 mm 0.00 in0.0 mm
06:12 PM 46.4°F8.0°C 38.8°F3.8°C 75% 11.0 mph SW17.7 kmh SW -- 29.46 in997.6 mb 0.00 in0.0 mm 0.00 in0.0 mm 0.00 in0.0 mm
06:13 PM 46.1°F7.8°C 38.5°F3.6°C 75% 19.0 mph NNW30.6 kmh NNW -- 29.46 in997.6 mb 0.00 in0.0 mm 0.00 in0.0 mm 0.00 in0.0 mm
06:14 PM 45.9°F7.7°C 38.3°F3.5°C 75% 9.0 mph W14.5 kmh W -- 29.46 in997.6 mb 0.00 in0.0 mm 0.00 in0.0 mm 0.00 in0.0 mm
06:15 PM 45.9°F7.7°C 38.3°F3.5°C 75% 6.0 mph W9.7 kmh W -- 29.47 in998.0 mb 0.00 in0.0 mm 0.00 in0.0 mm 0.00 in0.0 mm
06:16 PM 45.9°F7.7°C 38.3°F3.5°C 75% 10.0 mph W16.1 kmh W -- 29.46 in997.6 mb 0.00 in0.0 mm 0.00 in0.0 mm 0.00 in0.0 mm
06:17 PM 45.9°F7.7°C 38.3°F3.5°C 75% 8.0 mph W12.9 kmh W -- 29.46 in997.6 mb 0.00 in0.0 mm 0.00 in0.0 mm 0.00 in0.0 mm
06:18 PM 45.9°F7.7°C 38.6°F3.7°C 76% 8.0 mph S12.9 kmh S -- 29.47 in998.0 mb 0.00 in0.0 mm 0.00 in0.0 mm 0.00 in0.0 mm
06:19 PM 45.9°F7.7°C 38.6°F3.7°C 76% 8.0 mph W12.9 kmh W -- 29.47 in998.0 mb 0.00 in0.0 mm 0.00 in0.0 mm 0.00 in0.0 mm
06:20 PM 45.9°F7.7°C 38.6°F3.7°C 76% 10.0 mph W16.1 kmh W -- 29.47 in998.0 mb 0.00 in0.0 mm 0.00 in0.0 mm 0.00 in0.0 mm
06:21 PM 45.7°F7.6°C 38.5°F3.6°C 76% 7.0 mph W11.3 kmh W -- 29.47 in998.0 mb 0.00 in0.0 mm 0.00 in0.0 mm 0.00 in0.0 mm
06:22 PM 45.7°F7.6°C 38.5°F3.6°C 76% 12.0 mph W19.3 kmh W -- 29.46 in997.6 mb 0.00 in0.0 mm 0.00 in0.0 mm 0.00 in0.0 mm
06:23 PM 45.7°F7.6°C 38.5°F3.6°C 76% 11.0 mph W17.7 kmh W -- 29.46 in997.6 mb 0.00 in0.0 mm 0.00 in0.0 mm 0.00 in0.0 mm
06:24 PM 45.5°F7.5°C 38.3°F3.5°C 76% 8.0 mph NNW12.9 kmh NNW -- 29.46 in997.6 mb 0.00 in0.0 mm 0.00 in0.0 mm 0.00 in0.0 mm
06:25 PM 45.5°F7.5°C 38.3°F3.5°C 76% 12.0 mph WNW19.3 kmh WNW -- 29.46 in997.6 mb 0.00 in0.0 mm 0.00 in0.0 mm 0.00 in0.0 mm
06:26 PM 45.5°F7.5°C 38.0°F3.3°C 75% 14.0 mph WNW22.5 kmh WNW -- 29.47 in998.0 mb 0.00 in0.0 mm 0.00 in0.0 mm 0.00 in0.0 mm
06:27 PM 45.5°F7.5°C 38.0°F3.3°C 75% 12.0 mph WNW19.3 kmh WNW -- 29.47 in998.0 mb 0.00 in0.0 mm 0.00 in0.0 mm 0.00 in0.0 mm
06:28 PM 45.5°F7.5°C 38.0°F3.3°C 75% 13.0 mph W20.9 kmh W -- 29.47 in998.0 mb 0.00 in0.0 mm 0.00 in0.0 mm 0.00 in0.0 mm
06:29 PM 45.2°F7.3°C 37.6°F3.1°C 75% 14.0 mph W22.5 kmh W -- 29.47 in998.0 mb 0.00 in0.0 mm 0.00 in0.0 mm 0.00 in0.0 mm
06:30 PM 45.2°F7.3°C 37.6°F3.1°C 75% 13.0 mph W20.9 kmh W -- 29.47 in998.0 mb 0.00 in0.0 mm 0.00 in0.0 mm 0.00 in0.0 mm
06:31 PM 45.2°F7.3°C 37.6°F3.1°C 75% 12.0 mph W19.3 kmh W -- 29.47 in998.0 mb 0.00 in0.0 mm 0.00 in0.0 mm 0.00 in0.0 mm
06:32 PM 45.2°F7.3°C 37.6°F3.1°C 75% 13.0 mph W20.9 kmh W -- 29.47 in998.0 mb 0.00 in0.0 mm 0.00 in0.0 mm 0.00 in0.0 mm
06:33 PM 45.2°F7.3°C 37.6°F3.1°C 75% 10.0 mph NW16.1 kmh NW -- 29.47 in998.0 mb 0.00 in0.0 mm 0.00 in0.0 mm 0.00 in0.0 mm
06:34 PM 45.2°F7.3°C 37.6°F3.1°C 75% 10.0 mph WNW16.1 kmh WNW -- 29.47 in998.0 mb 0.00 in0.0 mm 0.00 in0.0 mm 0.00 in0.0 mm
06:36 PM 45.2°F7.3°C 37.6°F3.1°C 75% 7.0 mph WNW11.3 kmh WNW -- 29.47 in998.0 mb 0.00 in0.0 mm 0.00 in0.0 mm 0.00 in0.0 mm
06:38 PM 45.2°F7.3°C 37.6°F3.1°C 75% 8.0 mph WNW12.9 kmh WNW -- 29.47 in998.0 mb 0.00 in0.0 mm 0.00 in0.0 mm 0.00 in0.0 mm
06:39 PM 45.2°F7.3°C 37.6°F3.1°C 75% 15.0 mph W24.1 kmh W -- 29.47 in998.0 mb 0.00 in0.0 mm 0.00 in0.0 mm 0.00 in0.0 mm
06:40 PM 45.0°F7.2°C 37.4°F3.0°C 75% 11.0 mph NNW17.7 kmh NNW -- 29.47 in998.0 mb 0.00 in0.0 mm 0.00 in0.0 mm 0.00 in0.0 mm
06:41 PM 45.0°F7.2°C 37.8°F3.2°C 76% 14.0 mph WNW22.5 kmh WNW -- 29.47 in998.0 mb 0.00 in0.0 mm 0.00 in0.0 mm 0.00 in0.0 mm
06:42 PM 44.8°F7.1°C 37.6°F3.1°C 76% 9.0 mph W14.5 kmh W -- 29.48 in998.3 mb 0.00 in0.0 mm 0.00 in0.0 mm 0.00 in0.0 mm
06:43 PM 44.6°F7.0°C 38.1°F3.4°C 78% 9.0 mph WNW14.5 kmh WNW -- 29.47 in998.0 mb 0.00 in0.0 mm 0.00 in0.0 mm 0.00 in0.0 mm
06:44 PM 44.6°F7.0°C 38.1°F3.4°C 78% 8.0 mph NW12.9 kmh NW -- 29.47 in998.0 mb 0.00 in0.0 mm 0.00 in0.0 mm 0.00 in0.0 mm
06:45 PM 44.6°F7.0°C 38.1°F3.4°C 78% 14.0 mph WNW22.5 kmh WNW -- 29.47 in998.0 mb 0.00 in0.0 mm 0.00 in0.0 mm 0.00 in0.0 mm
06:46 PM 44.4°F6.9°C 37.9°F3.3°C 78% 14.0 mph WNW22.5 kmh WNW -- 29.48 in998.3 mb 0.00 in0.0 mm 0.00 in0.0 mm 0.00 in0.0 mm
06:47 PM 44.4°F6.9°C 37.9°F3.3°C 78% 11.0 mph WNW17.7 kmh WNW -- 29.48 in998.3 mb 0.00 in0.0 mm 0.00 in0.0 mm 0.00 in0.0 mm
06:48 PM 44.4°F6.9°C 37.9°F3.3°C 78% 12.0 mph WNW19.3 kmh WNW -- 29.47 in998.0 mb 0.00 in0.0 mm 0.00 in0.0 mm 0.00 in0.0 mm
06:49 PM 44.4°F6.9°C 37.9°F3.3°C 78% 9.0 mph W14.5 kmh W -- 29.47 in998.0 mb 0.00 in0.0 mm 0.00 in0.0 mm 0.00 in0.0 mm
06:50 PM 44.4°F6.9°C 37.9°F3.3°C 78% 10.0 mph WNW16.1 kmh WNW -- 29.48 in998.3 mb 0.00 in0.0 mm 0.00 in0.0 mm 0.00 in0.0 mm
06:51 PM 44.6°F7.0°C 38.1°F3.4°C 78% 9.0 mph NNE14.5 kmh NNE -- 29.48 in998.3 mb 0.00 in0.0 mm 0.00 in0.0 mm 0.00 in0.0 mm
06:52 PM 44.6°F7.0°C 38.1°F3.4°C 78% 8.0 mph W12.9 kmh W -- 29.48 in998.3 mb 0.00 in0.0 mm 0.00 in0.0 mm 0.00 in0.0 mm
06:53 PM 44.6°F7.0°C 38.1°F3.4°C 78% 7.0 mph WNW11.3 kmh WNW -- 29.48 in998.3 mb 0.00 in0.0 mm 0.00 in0.0 mm 0.00 in0.0 mm
06:54 PM 44.8°F7.1°C 38.3°F3.5°C 78% 10.0 mph WNW16.1 kmh WNW -- 29.48 in998.3 mb 0.00 in0.0 mm 0.00 in0.0 mm 0.00 in0.0 mm
06:55 PM 44.8°F7.1°C 38.3°F3.5°C 78% 15.0 mph NW24.1 kmh NW -- 29.48 in998.3 mb 0.00 in0.0 mm 0.00 in0.0 mm 0.00 in0.0 mm
06:56 PM 44.6°F7.0°C 38.1°F3.4°C 78% 16.0 mph SW25.7 kmh SW -- 29.48 in998.3 mb 0.00 in0.0 mm 0.00 in0.0 mm 0.00 in0.0 mm
06:57 PM 44.4°F6.9°C 37.9°F3.3°C 78% 16.0 mph SW25.7 kmh SW -- 29.48 in998.3 mb 0.00 in0.0 mm 0.00 in0.0 mm 0.00 in0.0 mm
06:58 PM 44.2°F6.8°C 37.7°F3.2°C 78% 16.0 mph WNW25.7 kmh WNW -- 29.48 in998.3 mb 0.00 in0.0 mm 0.00 in0.0 mm 0.00 in0.0 mm
06:59 PM 44.0°F6.7°C 37.9°F3.3°C 79% 8.0 mph NW12.9 kmh NW -- 29.48 in998.3 mb 0.00 in0.0 mm 0.00 in0.0 mm 0.00 in0.0 mm
07:01 PM 44.0°F6.7°C 37.9°F3.3°C 79% 11.0 mph W17.7 kmh W -- 29.48 in998.3 mb 0.00 in0.0 mm 0.00 in0.0 mm 0.00 in0.0 mm
07:02 PM 43.9°F6.6°C 37.7°F3.2°C 79% 11.0 mph W17.7 kmh W -- 29.48 in998.3 mb 0.00 in0.0 mm 0.00 in0.0 mm 0.00 in0.0 mm
07:03 PM 43.9°F6.6°C 37.7°F3.2°C 79% 15.0 mph W24.1 kmh W -- 29.48 in998.3 mb 0.00 in0.0 mm 0.00 in0.0 mm 0.00 in0.0 mm
07:04 PM 43.9°F6.6°C 37.7°F3.2°C 79% 10.0 mph WNW16.1 kmh WNW -- 29.48 in998.3 mb 0.00 in0.0 mm 0.00 in0.0 mm 0.00 in0.0 mm
07:05 PM 43.9°F6.6°C 37.7°F3.2°C 79% 15.0 mph W24.1 kmh W -- 29.48 in998.3 mb 0.00 in0.0 mm 0.00 in0.0 mm 0.00 in0.0 mm
07:06 PM 43.9°F6.6°C 38.0°F3.3°C 80% 9.0 mph W14.5 kmh W -- 29.48 in998.3 mb 0.00 in0.0 mm 0.00 in0.0 mm 0.00 in0.0 mm
07:07 PM 43.9°F6.6°C 38.0°F3.3°C 80% 6.0 mph W9.7 kmh W -- 29.48 in998.3 mb 0.00 in0.0 mm 0.00 in0.0 mm 0.00 in0.0 mm
07:08 PM 43.9°F6.6°C 38.0°F3.3°C 80% 11.0 mph WNW17.7 kmh WNW -- 29.49 in998.6 mb 0.00 in0.0 mm 0.00 in0.0 mm 0.00 in0.0 mm
07:09 PM 43.9°F6.6°C 38.0°F3.3°C 80% 10.0 mph NW16.1 kmh NW -- 29.49 in998.6 mb 0.00 in0.0 mm 0.00 in0.0 mm 0.00 in0.0 mm
07:10 PM 43.9°F6.6°C 38.0°F3.3°C 80% 10.0 mph WNW16.1 kmh WNW -- 29.49 in998.6 mb 0.00 in0.0 mm 0.00 in0.0 mm 0.00 in0.0 mm
07:11 PM 43.9°F6.6°C 38.0°F3.3°C 80% 9.0 mph SE14.5 kmh SE -- 29.48 in998.3 mb 0.00 in0.0 mm 0.00 in0.0 mm 0.00 in0.0 mm
07:12 PM 43.6°F6.4°C 37.7°F3.2°C 80% 11.0 mph SE17.7 kmh SE -- 29.49 in998.6 mb 0.00 in0.0 mm 0.00 in0.0 mm 0.00 in0.0 mm
07:13 PM 43.6°F6.4°C 37.7°F3.2°C 80% 15.0 mph WNW24.1 kmh WNW -- 29.48 in998.3 mb 0.00 in0.0 mm 0.00 in0.0 mm 0.00 in0.0 mm
07:14 PM 43.4°F6.3°C 37.8°F3.2°C 81% 6.0 mph W9.7 kmh W -- 29.49 in998.6 mb 0.00 in0.0 mm 0.00 in0.0 mm 0.00 in0.0 mm
07:15 PM 43.4°F6.3°C 37.8°F3.2°C 81% 6.0 mph 9.7 kmh -- 29.49 in998.6 mb 0.00 in0.0 mm 0.00 in0.0 mm 0.00 in0.0 mm
07:16 PM 43.4°F6.3°C 37.8°F3.2°C 81% 9.0 mph 14.5 kmh -- 29.49 in998.6 mb 0.00 in0.0 mm 0.00 in0.0 mm 0.00 in0.0 mm
07:17 PM 43.2°F6.2°C 37.7°F3.2°C 81% 10.0 mph W16.1 kmh W -- 29.49 in998.6 mb 0.00 in0.0 mm 0.00 in0.0 mm 0.00 in0.0 mm
07:18 PM 43.2°F6.2°C 37.7°F3.2°C 81% 8.0 mph W12.9 kmh W -- 29.49 in998.6 mb 0.00 in0.0 mm 0.00 in0.0 mm 0.00 in0.0 mm
07:19 PM 43.2°F6.2°C 37.7°F3.2°C 81% 10.0 mph WNW16.1 kmh WNW -- 29.48 in998.3 mb 0.00 in0.0 mm 0.00 in0.0 mm 0.00 in0.0 mm
07:20 PM 43.2°F6.2°C 37.7°F3.2°C 81% 8.0 mph WNW12.9 kmh WNW -- 29.49 in998.6 mb 0.00 in0.0 mm 0.00 in0.0 mm 0.00 in0.0 mm
07:21 PM 43.2°F6.2°C 37.7°F3.2°C 81% 7.0 mph WNW11.3 kmh WNW -- 29.49 in998.6 mb 0.00 in0.0 mm 0.00 in0.0 mm 0.00 in0.0 mm
07:22 PM 43.2°F6.2°C 37.7°F3.2°C 81% 8.0 mph W12.9 kmh W -- 29.49 in998.6 mb 0.00 in0.0 mm 0.00 in0.0 mm 0.00 in0.0 mm
07:23 PM 43.2°F6.2°C 37.7°F3.2°C 81% 5.0 mph WNW8.0 kmh WNW -- 29.49 in998.6 mb 0.00 in0.0 mm 0.00 in0.0 mm 0.00 in0.0 mm
07:24 PM 43.2°F6.2°C 37.7°F3.2°C 81% 7.0 mph WNW11.3 kmh WNW -- 29.49 in998.6 mb 0.00 in0.0 mm 0.00 in0.0 mm 0.00 in0.0 mm
07:25 PM 43.0°F6.1°C 37.5°F3.1°C 81% 7.0 mph WNW11.3 kmh WNW -- 29.49 in998.6 mb 0.00 in0.0 mm 0.00 in0.0 mm 0.00 in0.0 mm
07:26 PM 43.0°F6.1°C 37.5°F3.1°C 81% 8.0 mph WNW12.9 kmh WNW -- 29.49 in998.6 mb 0.00 in0.0 mm 0.00 in0.0 mm 0.00 in0.0 mm
07:27 PM 43.0°F6.1°C 37.5°F3.1°C 81% 8.0 mph W12.9 kmh W -- 29.49 in998.6 mb 0.00 in0.0 mm 0.00 in0.0 mm 0.00 in0.0 mm
07:28 PM 42.7°F5.9°C 37.1°F2.8°C 81% 11.0 mph WNW17.7 kmh WNW -- 29.49 in998.6 mb 0.00 in0.0 mm 0.00 in0.0 mm 0.00 in0.0 mm
07:29 PM 42.7°F5.9°C 37.1°F2.8°C 81% 10.0 mph WNW16.1 kmh WNW -- 29.49 in998.6 mb 0.00 in0.0 mm 0.00 in0.0 mm 0.00 in0.0 mm
07:30 PM 42.7°F5.9°C 37.8°F3.2°C 83% 9.0 mph W14.5 kmh W -- 29.49 in998.6 mb 0.00 in0.0 mm 0.00 in0.0 mm 0.00 in0.0 mm
07:31 PM 42.7°F5.9°C 37.8°F3.2°C 83% 8.0 mph W12.9 kmh W -- 29.49 in998.6 mb 0.00 in0.0 mm 0.00 in0.0 mm 0.00 in0.0 mm
07:32 PM 42.7°F5.9°C 37.8°F3.2°C 83% 12.0 mph W19.3 kmh W -- 29.49 in998.6 mb 0.00 in0.0 mm 0.00 in0.0 mm 0.00 in0.0 mm
07:33 PM 42.7°F5.9°C 37.8°F3.2°C 83% 10.0 mph W16.1 kmh W -- 29.49 in998.6 mb 0.00 in0.0 mm 0.00 in0.0 mm 0.00 in0.0 mm
07:34 PM 42.7°F5.9°C 37.8°F3.2°C 83% 7.0 mph W11.3 kmh W -- 29.49 in998.6 mb 0.00 in0.0 mm 0.00 in0.0 mm 0.00 in0.0 mm
07:36 PM 42.7°F5.9°C 37.8°F3.2°C 83% 5.0 mph W8.0 kmh W -- 29.49 in998.6 mb 0.00 in0.0 mm 0.00 in0.0 mm 0.00 in0.0 mm
07:37 PM 42.7°F5.9°C 37.8°F3.2°C 83% 11.0 mph NNW17.7 kmh NNW -- 29.49 in998.6 mb 0.00 in0.0 mm 0.00 in0.0 mm 0.00 in0.0 mm
07:38 PM 42.7°F5.9°C 37.8°F3.2°C 83% 12.0 mph W19.3 kmh W -- 29.49 in998.6 mb 0.00 in0.0 mm 0.00 in0.0 mm 0.00 in0.0 mm
07:39 PM 42.7°F5.9°C 37.8°F3.2°C 83% 6.0 mph WNW9.7 kmh WNW -- 29.49 in998.6 mb 0.00 in0.0 mm 0.00 in0.0 mm 0.00 in0.0 mm
07:40 PM 42.7°F5.9°C 37.8°F3.2°C 83% 12.0 mph WNW19.3 kmh WNW -- 29.49 in998.6 mb 0.00 in0.0 mm 0.00 in0.0 mm 0.00 in0.0 mm
07:41 PM 42.5°F5.8°C 37.6°F3.1°C 83% 7.0 mph NW11.3 kmh NW -- 29.49 in998.6 mb 0.00 in0.0 mm 0.00 in0.0 mm 0.00 in0.0 mm
07:43 PM 42.5°F5.8°C 37.6°F3.1°C 83% 9.0 mph W14.5 kmh W -- 29.49 in998.6 mb 0.00 in0.0 mm 0.00 in0.0 mm 0.00 in0.0 mm
07:44 PM 42.5°F5.8°C 37.6°F3.1°C 83% 9.0 mph WNW14.5 kmh WNW -- 29.49 in998.6 mb 0.00 in0.0 mm 0.00 in0.0 mm 0.00 in0.0 mm
07:45 PM 42.5°F5.8°C 37.6°F3.1°C 83% 4.0 mph WNW6.4 kmh WNW -- 29.49 in998.6 mb 0.00 in0.0 mm 0.00 in0.0 mm 0.00 in0.0 mm
07:46 PM 42.5°F5.8°C 37.6°F3.1°C 83% 5.0 mph W8.0 kmh W -- 29.49 in998.6 mb 0.00 in0.0 mm 0.00 in0.0 mm 0.00 in0.0 mm
07:47 PM 42.5°F5.8°C 37.6°F3.1°C 83% 7.0 mph NNW11.3 kmh NNW -- 29.49 in998.6 mb 0.00 in0.0 mm 0.00 in0.0 mm 0.00 in0.0 mm
07:48 PM 42.5°F5.8°C 37.6°F3.1°C 83% 10.0 mph W16.1 kmh W -- 29.49 in998.6 mb 0.00 in0.0 mm 0.00 in0.0 mm 0.00 in0.0 mm
07:50 PM 42.5°F5.8°C 37.6°F3.1°C 83% 9.0 mph W14.5 kmh W -- 29.49 in998.6 mb 0.00 in0.0 mm 0.00 in0.0 mm 0.00 in0.0 mm
07:51 PM 42.4°F5.8°C 37.6°F3.1°C 83% 7.0 mph W11.3 kmh W -- 29.49 in998.6 mb 0.00 in0.0 mm 0.00 in0.0 mm 0.00 in0.0 mm
07:53 PM 42.4°F5.8°C 37.6°F3.1°C 83% 5.0 mph W8.0 kmh W -- 29.49 in998.6 mb 0.00 in0.0 mm 0.00 in0.0 mm 0.00 in0.0 mm
07:54 PM 42.4°F5.8°C 37.6°F3.1°C 83% 11.0 mph WNW17.7 kmh WNW -- 29.50 in999.0 mb 0.00 in0.0 mm 0.00 in0.0 mm 0.00 in0.0 mm
07:55 PM 42.4°F5.8°C 37.6°F3.1°C 83% 12.0 mph W19.3 kmh W -- 29.49 in998.6 mb 0.00 in0.0 mm 0.00 in0.0 mm 0.00 in0.0 mm
07:56 PM 42.4°F5.8°C 37.6°F3.1°C 83% 7.0 mph WNW11.3 kmh WNW -- 29.49 in998.6 mb 0.00 in0.0 mm 0.00 in0.0 mm 0.00 in0.0 mm
07:57 PM 42.3°F5.7°C 37.4°F3.0°C 83% 9.0 mph W14.5 kmh W -- 29.49 in998.6 mb 0.00 in0.0 mm 0.00 in0.0 mm 0.00 in0.0 mm
07:58 PM 42.3°F5.7°C 37.4°F3.0°C 83% 8.0 mph WSW12.9 kmh WSW -- 29.49 in998.6 mb 0.00 in0.0 mm 0.00 in0.0 mm 0.00 in0.0 mm
07:59 PM 42.3°F5.7°C 37.4°F3.0°C 83% 9.0 mph W14.5 kmh W -- 29.49 in998.6 mb 0.00 in0.0 mm 0.00 in0.0 mm 0.00 in0.0 mm
08:00 PM 42.3°F5.7°C 37.4°F3.0°C 83% 8.0 mph W12.9 kmh W -- 29.49 in998.6 mb 0.00 in0.0 mm 0.00 in0.0 mm 0.00 in0.0 mm
08:01 PM 42.1°F5.6°C 37.2°F2.9°C 83% 12.0 mph WNW19.3 kmh WNW -- 29.49 in998.6 mb 0.00 in0.0 mm 0.00 in0.0 mm 0.00 in0.0 mm
08:02 PM 42.1°F5.6°C 37.2°F2.9°C 83% 7.0 mph NNW11.3 kmh NNW -- 29.49 in998.6 mb 0.00 in0.0 mm 0.00 in0.0 mm 0.00 in0.0 mm
08:03 PM 42.1°F5.6°C 36.6°F2.6°C 81% 9.0 mph W14.5 kmh W -- 29.49 in998.6 mb 0.00 in0.0 mm 0.00 in0.0 mm 0.00 in0.0 mm
08:04 PM 41.9°F5.5°C 36.4°F2.4°C 81% 9.0 mph W14.5 kmh W -- 29.49 in998.6 mb 0.00 in0.0 mm 0.00 in0.0 mm 0.00 in0.0 mm
08:05 PM 41.9°F5.5°C 36.4°F2.4°C 81% 16.0 mph WNW25.7 kmh WNW -- 29.50 in999.0 mb 0.00 in0.0 mm 0.00 in0.0 mm 0.00 in0.0 mm
08:06 PM 41.9°F5.5°C 36.4°F2.4°C 81% 10.0 mph NW16.1 kmh NW -- 29.50 in999.0 mb 0.00 in0.0 mm 0.00 in0.0 mm 0.00 in0.0 mm
08:07 PM 41.7°F5.4°C 36.3°F2.4°C 81% 7.0 mph NW11.3 kmh NW -- 29.49 in998.6 mb 0.00 in0.0 mm 0.00 in0.0 mm 0.00 in0.0 mm
08:08 PM 41.7°F5.4°C 36.3°F2.4°C 81% 10.0 mph NW16.1 kmh NW -- 29.49 in998.6 mb 0.00 in0.0 mm 0.00 in0.0 mm 0.00 in0.0 mm
08:09 PM 41.7°F5.4°C 36.3°F2.4°C 81% 11.0 mph W17.7 kmh W -- 29.49 in998.6 mb 0.00 in0.0 mm 0.00 in0.0 mm 0.00 in0.0 mm
08:10 PM 41.7°F5.4°C 36.3°F2.4°C 81% 9.0 mph W14.5 kmh W -- 29.49 in998.6 mb 0.00 in0.0 mm 0.00 in0.0 mm 0.00 in0.0 mm
08:11 PM 41.7°F5.4°C 36.3°F2.4°C 81% 13.0 mph NW20.9 kmh NW -- 29.49 in998.6 mb 0.00 in0.0 mm 0.00 in0.0 mm 0.00 in0.0 mm
08:12 PM 41.5°F5.3°C 36.1°F2.3°C 81% 9.0 mph W14.5 kmh W -- 29.49 in998.6 mb 0.00 in0.0 mm 0.00 in0.0 mm 0.00 in0.0 mm
08:13 PM 41.5°F5.3°C 36.1°F2.3°C 81% 10.0 mph SW16.1 kmh SW -- 29.50 in999.0 mb 0.00 in0.0 mm 0.00 in0.0 mm 0.00 in0.0 mm
08:14 PM 41.5°F5.3°C 36.1°F2.3°C 81% 5.0 mph W8.0 kmh W -- 29.50 in999.0 mb 0.00 in0.0 mm 0.00 in0.0 mm 0.00 in0.0 mm
08:15 PM 41.4°F5.2°C 35.9°F2.2°C 81% 15.0 mph S24.1 kmh S -- 29.50 in999.0 mb 0.00 in0.0 mm 0.00 in0.0 mm 0.00 in0.0 mm
08:16 PM 41.4°F5.2°C 35.9°F2.2°C 81% 11.0 mph W17.7 kmh W -- 29.50 in999.0 mb 0.00 in0.0 mm 0.00 in0.0 mm 0.00 in0.0 mm
08:17 PM 41.4°F5.2°C 35.9°F2.2°C 81% 12.0 mph W19.3 kmh W -- 29.50 in999.0 mb 0.00 in0.0 mm 0.00 in0.0 mm 0.00 in0.0 mm
08:18 PM 41.4°F5.2°C 35.9°F2.2°C 81% 10.0 mph W16.1 kmh W -- 29.49 in998.6 mb 0.00 in0.0 mm 0.00 in0.0 mm 0.00 in0.0 mm
08:19 PM 41.4°F5.2°C 35.9°F2.2°C 81% 10.0 mph WNW16.1 kmh WNW -- 29.50 in999.0 mb 0.00 in0.0 mm 0.00 in0.0 mm 0.00 in0.0 mm
08:20 PM 41.4°F5.2°C 35.9°F2.2°C 81% 6.0 mph W9.7 kmh W -- 29.50 in999.0 mb 0.00 in0.0 mm 0.00 in0.0 mm 0.00 in0.0 mm
08:21 PM 41.4°F5.2°C 35.9°F2.2°C 81% 11.0 mph W17.7 kmh W -- 29.50 in999.0 mb 0.00 in0.0 mm 0.00 in0.0 mm 0.00 in0.0 mm
08:22 PM 41.4°F5.2°C 36.2°F2.3°C 82% 12.0 mph WNW19.3 kmh WNW -- 29.50 in999.0 mb 0.00 in0.0 mm 0.00 in0.0 mm 0.00 in0.0 mm
08:23 PM 41.1°F5.1°C 35.7°F2.1°C 81% 6.0 mph NNE9.7 kmh NNE -- 29.50 in999.0 mb 0.00 in0.0 mm 0.00 in0.0 mm 0.00 in0.0 mm
08:24 PM 41.1°F5.1°C 35.7°F2.1°C 81% 6.0 mph W9.7 kmh W -- 29.50 in999.0 mb 0.00 in0.0 mm 0.00 in0.0 mm 0.00 in0.0 mm
08:25 PM 41.1°F5.1°C 35.7°F2.1°C 81% 11.0 mph WNW17.7 kmh WNW -- 29.50 in999.0 mb 0.00 in0.0 mm 0.00 in0.0 mm 0.00 in0.0 mm
08:26 PM 41.1°F5.1°C 35.7°F2.1°C 81% 7.0 mph W11.3 kmh W -- 29.50 in999.0 mb 0.00 in0.0 mm 0.00 in0.0 mm 0.00 in0.0 mm
08:27 PM 41.1°F5.1°C 35.7°F2.1°C 81% 7.0 mph NW11.3 kmh NW -- 29.50 in999.0 mb 0.00 in0.0 mm 0.00 in0.0 mm 0.00 in0.0 mm
08:28 PM 41.1°F5.1°C 35.7°F2.1°C 81% 13.0 mph WNW20.9 kmh WNW -- 29.50 in999.0 mb 0.00 in0.0 mm 0.00 in0.0 mm 0.00 in0.0 mm
08:29 PM 41.1°F5.1°C 35.7°F2.1°C 81% 6.0 mph WNW9.7 kmh WNW -- 29.50 in999.0 mb 0.00 in0.0 mm 0.00 in0.0 mm 0.00 in0.0 mm
08:30 PM 41.1°F5.1°C 35.7°F2.1°C 81% 8.0 mph NW12.9 kmh NW -- 29.50 in999.0 mb 0.00 in0.0 mm 0.00 in0.0 mm 0.00 in0.0 mm
08:31 PM 41.1°F5.1°C 35.7°F2.1°C 81% 9.0 mph NW14.5 kmh NW -- 29.50 in999.0 mb 0.00 in0.0 mm 0.00 in0.0 mm 0.00 in0.0 mm
08:32 PM 40.9°F4.9°C 35.4°F1.9°C 81% 8.0 mph NW12.9 kmh NW -- 29.50 in999.0 mb 0.00 in0.0 mm 0.00 in0.0 mm 0.00 in0.0 mm
08:33 PM 40.9°F4.9°C 35.4°F1.9°C 81% 9.0 mph NW14.5 kmh NW -- 29.50 in999.0 mb 0.00 in0.0 mm 0.00 in0.0 mm 0.00 in0.0 mm
08:34 PM 40.9°F4.9°C 35.4°F1.9°C 81% 8.0 mph W12.9 kmh W -- 29.50 in999.0 mb 0.00 in0.0 mm 0.00 in0.0 mm 0.00 in0.0 mm
08:35 PM 40.9°F4.9°C 35.4°F1.9°C 81% 10.0 mph W16.1 kmh W -- 29.50 in999.0 mb 0.00 in0.0 mm 0.00 in0.0 mm 0.00 in0.0 mm
08:36 PM 40.9°F4.9°C 35.4°F1.9°C 81% 9.0 mph NNW14.5 kmh NNW -- 29.50 in999.0 mb 0.00 in0.0 mm 0.00 in0.0 mm 0.00 in0.0 mm
08:37 PM 40.9°F4.9°C 35.4°F1.9°C 81% 8.0 mph WNW12.9 kmh WNW -- 29.50 in999.0 mb 0.00 in0.0 mm 0.00 in0.0 mm 0.00 in0.0 mm
08:38 PM 40.9°F4.9°C 35.4°F1.9°C 81% 7.0 mph WNW11.3 kmh WNW -- 29.50 in999.0 mb 0.00 in0.0 mm 0.00 in0.0 mm 0.00 in0.0 mm
08:39 PM 40.9°F4.9°C 35.4°F1.9°C 81% 7.0 mph W11.3 kmh W -- 29.51 in999.3 mb 0.00 in0.0 mm 0.00 in0.0 mm 0.00 in0.0 mm
08:40 PM 40.9°F4.9°C 35.4°F1.9°C 81% 15.0 mph WNW24.1 kmh WNW -- 29.51 in999.3 mb 0.00 in0.0 mm 0.00 in0.0 mm 0.00 in0.0 mm
08:41 PM 40.9°F4.9°C 35.4°F1.9°C 81% 11.0 mph WNW17.7 kmh WNW -- 29.50 in999.0 mb 0.00 in0.0 mm 0.00 in0.0 mm 0.00 in0.0 mm
08:42 PM 40.9°F4.9°C 35.4°F1.9°C 81% 7.0 mph W11.3 kmh W -- 29.50 in999.0 mb 0.00 in0.0 mm 0.00 in0.0 mm 0.00 in0.0 mm
08:43 PM 40.7°F4.8°C 35.2°F1.8°C 81% 9.0 mph NW14.5 kmh NW -- 29.51 in999.3 mb 0.00 in0.0 mm 0.00 in0.0 mm 0.00 in0.0 mm
08:44 PM 40.7°F4.8°C 35.2°F1.8°C 81% 6.0 mph NW9.7 kmh NW -- 29.51 in999.3 mb 0.00 in0.0 mm 0.00 in0.0 mm 0.00 in0.0 mm
08:45 PM 40.7°F4.8°C 35.2°F1.8°C 81% 9.0 mph NNW14.5 kmh NNW -- 29.51 in999.3 mb 0.00 in0.0 mm 0.00 in0.0 mm 0.00 in0.0 mm
08:46 PM 40.7°F4.8°C 35.2°F1.8°C 81% 8.0 mph NW12.9 kmh NW -- 29.51 in999.3 mb 0.00 in0.0 mm 0.00 in0.0 mm 0.00 in0.0 mm
08:47 PM 40.7°F4.8°C 35.2°F1.8°C 81% 5.0 mph NNW8.0 kmh NNW -- 29.51 in999.3 mb 0.00 in0.0 mm 0.00 in0.0 mm 0.00 in0.0 mm
08:48 PM 40.7°F4.8°C 35.2°F1.8°C 81% 8.0 mph WSW12.9 kmh WSW -- 29.51 in999.3 mb 0.00 in0.0 mm 0.00 in0.0 mm 0.00 in0.0 mm
08:49 PM 40.7°F4.8°C 35.2°F1.8°C 81% 8.0 mph WNW12.9 kmh WNW -- 29.51 in999.3 mb 0.00 in0.0 mm 0.00 in0.0 mm 0.00 in0.0 mm
08:50 PM 40.7°F4.8°C 35.2°F1.8°C 81% 6.0 mph W9.7 kmh W -- 29.51 in999.3 mb 0.00 in0.0 mm 0.00 in0.0 mm 0.00 in0.0 mm
08:51 PM 40.7°F4.8°C 35.2°F1.8°C 81% 11.0 mph NW17.7 kmh NW -- 29.51 in999.3 mb 0.00 in0.0 mm 0.00 in0.0 mm 0.00 in0.0 mm
08:52 PM 40.7°F4.8°C 35.2°F1.8°C 81% 10.0 mph WNW16.1 kmh WNW -- 29.51 in999.3 mb 0.00 in0.0 mm 0.00 in0.0 mm 0.00 in0.0 mm
08:53 PM 40.5°F4.7°C 35.0°F1.7°C 81% 5.0 mph NW8.0 kmh NW -- 29.51 in999.3 mb 0.00 in0.0 mm 0.00 in0.0 mm 0.00 in0.0 mm
08:54 PM 40.5°F4.7°C 35.6°F2.0°C 83% 7.0 mph SSE11.3 kmh SSE -- 29.51 in999.3 mb 0.00 in0.0 mm 0.00 in0.0 mm 0.00 in0.0 mm
08:55 PM 40.5°F4.7°C 35.6°F2.0°C 83% 4.0 mph WNW6.4 kmh WNW -- 29.51 in999.3 mb 0.00 in0.0 mm 0.00 in0.0 mm 0.00 in0.0 mm
08:56 PM 40.5°F4.7°C 35.6°F2.0°C 83% 8.0 mph NW12.9 kmh NW -- 29.51 in999.3 mb 0.00 in0.0 mm 0.00 in0.0 mm 0.00 in0.0 mm
08:57 PM 40.5°F4.7°C 35.6°F2.0°C 83% 9.0 mph NW14.5 kmh NW -- 29.51 in999.3 mb 0.00 in0.0 mm 0.00 in0.0 mm 0.00 in0.0 mm
08:58 PM 40.5°F4.7°C 35.6°F2.0°C 83% 6.0 mph WNW9.7 kmh WNW -- 29.51 in999.3 mb 0.00 in0.0 mm 0.00 in0.0 mm 0.00 in0.0 mm
08:59 PM 40.5°F4.7°C 35.6°F2.0°C 83% 5.0 mph WNW8.0 kmh WNW -- 29.52 in999.7 mb 0.00 in0.0 mm 0.00 in0.0 mm 0.00 in0.0 mm
09:00 PM 40.5°F4.7°C 35.6°F2.0°C 83% 13.0 mph W20.9 kmh W -- 29.52 in999.7 mb 0.00 in0.0 mm 0.00 in0.0 mm 0.00 in0.0 mm
09:01 PM 40.2°F4.6°C 35.5°F1.9°C 83% 3.0 mph NW4.8 kmh NW -- 29.52 in999.7 mb 0.00 in0.0 mm 0.00 in0.0 mm 0.00 in0.0 mm
09:02 PM 40.2°F4.6°C 36.1°F2.3°C 85% 7.0 mph W11.3 kmh W -- 29.52 in999.7 mb 0.00 in0.0 mm 0.00 in0.0 mm 0.00 in0.0 mm
09:03 PM 40.2°F4.6°C 36.1°F2.3°C 85% 6.0 mph WNW9.7 kmh WNW -- 29.52 in999.7 mb 0.00 in0.0 mm 0.00 in0.0 mm 0.00 in0.0 mm
09:04 PM 40.2°F4.6°C 36.1°F2.3°C 85% 4.0 mph NW6.4 kmh NW -- 29.51 in999.3 mb 0.00 in0.0 mm 0.00 in0.0 mm 0.00 in0.0 mm
09:05 PM 40.0°F4.4°C 35.7°F2.1°C 85% 8.0 mph WNW12.9 kmh WNW -- 29.51 in999.3 mb 0.00 in0.0 mm 0.00 in0.0 mm 0.00 in0.0 mm
09:06 PM 40.0°F4.4°C 35.7°F2.1°C 85% 7.0 mph NW11.3 kmh NW -- 29.52 in999.7 mb 0.00 in0.0 mm 0.00 in0.0 mm 0.00 in0.0 mm
09:07 PM 39.9°F4.4°C 35.7°F2.1°C 85% 7.0 mph W11.3 kmh W -- 29.52 in999.7 mb 0.00 in0.0 mm 0.00 in0.0 mm 0.00 in0.0 mm
09:08 PM 39.9°F4.4°C 36.0°F2.2°C 86% 8.0 mph W12.9 kmh W -- 29.52 in999.7 mb 0.00 in0.0 mm 0.00 in0.0 mm 0.00 in0.0 mm
09:09 PM 39.9°F4.4°C 36.0°F2.2°C 86% 6.0 mph W9.7 kmh W -- 29.52 in999.7 mb 0.00 in0.0 mm 0.00 in0.0 mm 0.00 in0.0 mm
09:10 PM 39.9°F4.4°C 36.0°F2.2°C 86% 5.0 mph WSW8.0 kmh WSW -- 29.52 in999.7 mb 0.00 in0.0 mm 0.00 in0.0 mm 0.00 in0.0 mm
09:11 PM 39.7°F4.3°C 35.8°F2.1°C 86% 7.0 mph W11.3 kmh W -- 29.52 in999.7 mb 0.00 in0.0 mm 0.00 in0.0 mm 0.00 in0.0 mm
09:12 PM 39.7°F4.3°C 35.8°F2.1°C 86% 5.0 mph W8.0 kmh W -- 29.52 in999.7 mb 0.00 in0.0 mm 0.00 in0.0 mm 0.00 in0.0 mm
09:13 PM 39.7°F4.3°C 35.8°F2.1°C 86% 5.0 mph WNW8.0 kmh WNW -- 29.52 in999.7 mb 0.00 in0.0 mm 0.00 in0.0 mm 0.00 in0.0 mm
09:14 PM 39.7°F4.3°C 35.8°F2.1°C 86% 4.0 mph WNW6.4 kmh WNW -- 29.52 in999.7 mb 0.00 in0.0 mm 0.00 in0.0 mm 0.00 in0.0 mm
09:15 PM 39.5°F4.2°C 35.7°F2.1°C 86% 10.0 mph WSW16.1 kmh WSW -- 29.52 in999.7 mb 0.00 in0.0 mm 0.00 in0.0 mm 0.00 in0.0 mm
09:16 PM 39.5°F4.2°C 35.7°F2.1°C 86% 6.0 mph W9.7 kmh W -- 29.52 in999.7 mb 0.00 in0.0 mm 0.00 in0.0 mm 0.00 in0.0 mm
09:17 PM 39.4°F4.1°C 36.1°F2.3°C 88% 9.0 mph NW14.5 kmh NW -- 29.52 in999.7 mb 0.00 in0.0 mm 0.00 in0.0 mm 0.00 in0.0 mm
09:18 PM 39.4°F4.1°C 36.1°F2.3°C 88% 8.0 mph W12.9 kmh W -- 29.52 in999.7 mb 0.00 in0.0 mm 0.00 in0.0 mm 0.00 in0.0 mm
09:19 PM 39.4°F4.1°C 36.1°F2.3°C 88% 7.0 mph W11.3 kmh W -- 29.52 in999.7 mb 0.00 in0.0 mm 0.00 in0.0 mm 0.00 in0.0 mm
09:20 PM 39.2°F4.0°C 35.9°F2.2°C 88% 5.0 mph W8.0 kmh W -- 29.52 in999.7 mb 0.00 in0.0 mm 0.00 in0.0 mm 0.00 in0.0 mm
09:21 PM 39.2°F4.0°C 35.9°F2.2°C 88% 8.0 mph W12.9 kmh W -- 29.52 in999.7 mb 0.00 in0.0 mm 0.00 in0.0 mm 0.00 in0.0 mm
09:22 PM 39.0°F3.9°C 35.7°F2.1°C 88% 11.0 mph W17.7 kmh W -- 29.52 in999.7 mb 0.00 in0.0 mm 0.00 in0.0 mm 0.00 in0.0 mm
09:23 PM 39.0°F3.9°C 35.7°F2.1°C 88% 6.0 mph WNW9.7 kmh WNW -- 29.52 in999.7 mb 0.00 in0.0 mm 0.00 in0.0 mm 0.00 in0.0 mm
09:24 PM 39.0°F3.9°C 35.7°F2.1°C 88% 5.0 mph WNW8.0 kmh WNW -- 29.52 in999.7 mb 0.00 in0.0 mm 0.00 in0.0 mm 0.00 in0.0 mm
09:25 PM 38.7°F3.7°C 35.4°F1.9°C 88% 6.0 mph W9.7 kmh W -- 29.52 in999.7 mb 0.00 in0.0 mm 0.00 in0.0 mm 0.00 in0.0 mm
09:26 PM 38.7°F3.7°C 35.4°F1.9°C 88% 5.0 mph WNW8.0 kmh WNW -- 29.52 in999.7 mb 0.00 in0.0 mm 0.00 in0.0 mm 0.00 in0.0 mm
09:27 PM 38.7°F3.7°C 35.4°F1.9°C 88% 7.0 mph WNW11.3 kmh WNW -- 29.52 in999.7 mb 0.00 in0.0 mm 0.00 in0.0 mm 0.00 in0.0 mm
09:28 PM 38.7°F3.7°C 35.9°F2.2°C 90% 4.0 mph W6.4 kmh W -- 29.52 in999.7 mb 0.00 in0.0 mm 0.00 in0.0 mm 0.00 in0.0 mm
09:29 PM 38.7°F3.7°C 35.9°F2.2°C 90% 6.0 mph W9.7 kmh W -- 29.53 in1000.0 mb 0.00 in0.0 mm 0.00 in0.0 mm 0.00 in0.0 mm
09:30 PM 38.7°F3.7°C 35.9°F2.2°C 90% 6.0 mph NE9.7 kmh NE -- 29.52 in999.7 mb 0.00 in0.0 mm 0.00 in0.0 mm 0.00 in0.0 mm
09:31 PM 38.4°F3.6°C 35.8°F2.1°C 90% 7.0 mph W11.3 kmh W -- 29.53 in1000.0 mb 0.00 in0.0 mm 0.00 in0.0 mm 0.00 in0.0 mm
09:32 PM 38.4°F3.6°C 35.8°F2.1°C 90% 10.0 mph W16.1 kmh W -- 29.53 in1000.0 mb 0.01 in0.3 mm 0.60 in15.2 mm 0.01 in0.3 mm
09:33 PM 38.2°F3.4°C 35.4°F1.9°C 90% 7.0 mph W11.3 kmh W -- 29.53 in1000.0 mb 0.01 in0.3 mm 0.00 in0.0 mm 0.01 in0.3 mm
09:34 PM 38.2°F3.4°C 35.4°F1.9°C 90% 11.0 mph WNW17.7 kmh WNW -- 29.53 in1000.0 mb 0.01 in0.3 mm 0.00 in0.0 mm 0.01 in0.3 mm
09:35 PM 38.2°F3.4°C 35.4°F1.9°C 90% 11.0 mph W17.7 kmh W -- 29.53 in1000.0 mb 0.01 in0.3 mm 0.00 in0.0 mm 0.01 in0.3 mm
09:36 PM 38.2°F3.4°C 35.4°F1.9°C 90% 9.0 mph WNW14.5 kmh WNW -- 29.53 in1000.0 mb 0.01 in0.3 mm 0.00 in0.0 mm 0.01 in0.3 mm
09:37 PM 38.3°F3.5°C 35.6°F2.0°C 90% 9.0 mph W14.5 kmh W -- 29.53 in1000.0 mb 0.01 in0.3 mm 0.00 in0.0 mm 0.01 in0.3 mm
09:38 PM 38.0°F3.3°C 35.2°F1.8°C 90% 10.0 mph W16.1 kmh W -- 29.52 in999.7 mb 0.01 in0.3 mm 0.00 in0.0 mm 0.01 in0.3 mm
09:39 PM 38.0°F3.3°C 35.2°F1.8°C 90% 10.0 mph W16.1 kmh W -- 29.53 in1000.0 mb 0.01 in0.3 mm 0.00 in0.0 mm 0.01 in0.3 mm
09:40 PM 38.0°F3.3°C 35.2°F1.8°C 90% 11.0 mph WNW17.7 kmh WNW -- 29.53 in1000.0 mb 0.01 in0.3 mm 0.00 in0.0 mm 0.01 in0.3 mm
09:41 PM 37.8°F3.2°C 35.3°F1.8°C 91% 12.0 mph NW19.3 kmh NW -- 29.53 in1000.0 mb 0.01 in0.3 mm 0.00 in0.0 mm 0.01 in0.3 mm
09:42 PM 37.8°F3.2°C 35.3°F1.8°C 91% 8.0 mph WNW12.9 kmh WNW -- 29.53 in1000.0 mb 0.02 in0.5 mm 0.60 in15.2 mm 0.02 in0.5 mm
09:43 PM 37.8°F3.2°C 35.3°F1.8°C 91% 7.0 mph W11.3 kmh W -- 29.53 in1000.0 mb 0.02 in0.5 mm 0.00 in0.0 mm 0.02 in0.5 mm
09:44 PM 37.7°F3.2°C 35.3°F1.8°C 91% 12.0 mph W19.3 kmh W -- 29.53 in1000.0 mb 0.02 in0.5 mm 0.00 in0.0 mm 0.02 in0.5 mm
09:46 PM 37.7°F3.2°C 35.3°F1.8°C 91% 9.0 mph WNW14.5 kmh WNW -- 29.53 in1000.0 mb 0.02 in0.5 mm 0.00 in0.0 mm 0.02 in0.5 mm
09:47 PM 37.5°F3.1°C 35.2°F1.8°C 91% 9.0 mph WNW14.5 kmh WNW -- 29.53 in1000.0 mb 0.02 in0.5 mm 0.00 in0.0 mm 0.02 in0.5 mm
09:48 PM 37.4°F3.0°C 35.0°F1.7°C 91% 12.0 mph 19.3 kmh -- 29.53 in1000.0 mb 0.02 in0.5 mm 0.00 in0.0 mm 0.02 in0.5 mm
09:49 PM 37.4°F3.0°C 35.0°F1.7°C 91% 10.0 mph 16.1 kmh -- 29.53 in1000.0 mb 0.02 in0.5 mm 0.00 in0.0 mm 0.02 in0.5 mm
09:50 PM 37.4°F3.0°C 35.0°F1.7°C 91% 5.0 mph WNW8.0 kmh WNW -- 29.53 in1000.0 mb 0.02 in0.5 mm 0.00 in0.0 mm 0.02 in0.5 mm
09:51 PM 37.2°F2.9°C 34.8°F1.6°C 91% 5.0 mph W8.0 kmh W -- 29.53 in1000.0 mb 0.02 in0.5 mm 0.00 in0.0 mm 0.02 in0.5 mm
09:52 PM 37.2°F2.9°C 34.8°F1.6°C 91% 7.0 mph W11.3 kmh W -- 29.53 in1000.0 mb 0.02 in0.5 mm 0.00 in0.0 mm 0.02 in0.5 mm
09:53 PM 37.2°F2.9°C 34.8°F1.6°C 91% 14.0 mph WNW22.5 kmh WNW -- 29.53 in1000.0 mb 0.03 in0.8 mm 0.60 in15.2 mm 0.03 in0.8 mm
09:54 PM 37.0°F2.8°C 34.6°F1.4°C 91% 10.0 mph W16.1 kmh W -- 29.53 in1000.0 mb 0.03 in0.8 mm 0.00 in0.0 mm 0.03 in0.8 mm
09:55 PM 36.9°F2.7°C 34.4°F1.3°C 91% 6.0 mph W9.7 kmh W -- 29.53 in1000.0 mb 0.03 in0.8 mm 0.00 in0.0 mm 0.03 in0.8 mm
09:56 PM 36.9°F2.7°C 34.4°F1.3°C 91% 10.0 mph W16.1 kmh W -- 29.53 in1000.0 mb 0.03 in0.8 mm 0.00 in0.0 mm 0.03 in0.8 mm
09:57 PM 36.9°F2.7°C 34.4°F1.3°C 91% 6.0 mph W9.7 kmh W -- 29.53 in1000.0 mb 0.03 in0.8 mm 0.00 in0.0 mm 0.03 in0.8 mm
09:59 PM 36.9°F2.7°C 34.4°F1.3°C 91% 7.0 mph W11.3 kmh W -- 29.53 in1000.0 mb 0.03 in0.8 mm 0.00 in0.0 mm 0.03 in0.8 mm
10:00 PM 36.7°F2.6°C 34.3°F1.3°C 91% 8.0 mph W12.9 kmh W -- 29.54 in1000.3 mb 0.03 in0.8 mm 0.00 in0.0 mm 0.03 in0.8 mm
10:01 PM 36.7°F2.6°C 34.3°F1.3°C 91% 6.0 mph WSW9.7 kmh WSW -- 29.54 in1000.3 mb 0.00 in0.0 mm 0.00 in0.0 mm 0.03 in0.8 mm
10:02 PM 36.7°F2.6°C 34.3°F1.3°C 91% 6.0 mph W9.7 kmh W -- 29.53 in1000.0 mb 0.03 in0.8 mm 1.80 in45.7 mm 0.03 in0.8 mm
10:03 PM 36.5°F2.5°C 34.1°F1.2°C 91% 9.0 mph W14.5 kmh W -- 29.53 in1000.0 mb 0.01 in0.3 mm 0.00 in0.0 mm 0.04 in1.0 mm
10:04 PM 36.5°F2.5°C 34.1°F1.2°C 91% 9.0 mph WSW14.5 kmh WSW -- 29.54 in1000.3 mb 0.01 in0.3 mm 0.00 in0.0 mm 0.04 in1.0 mm
10:05 PM 36.2°F2.3°C 33.7°F0.9°C 91% 6.0 mph W9.7 kmh W -- 29.54 in1000.3 mb 0.01 in0.3 mm 0.00 in0.0 mm 0.04 in1.0 mm
10:06 PM 36.2°F2.3°C 33.7°F0.9°C 91% 8.0 mph W12.9 kmh W -- 29.53 in1000.0 mb 0.01 in0.3 mm 0.00 in0.0 mm 0.04 in1.0 mm
10:07 PM 36.2°F2.3°C 33.7°F0.9°C 91% 6.0 mph W9.7 kmh W -- 29.53 in1000.0 mb 0.04 in1.0 mm 1.80 in45.7 mm 0.04 in1.0 mm
10:08 PM 36.2°F2.3°C 33.7°F0.9°C 91% 8.0 mph W12.9 kmh W -- 29.54 in1000.3 mb 0.04 in1.0 mm 0.00 in0.0 mm 0.04 in1.0 mm
10:09 PM 36.2°F2.3°C 33.7°F0.9°C 91% 13.0 mph W20.9 kmh W -- 29.54 in1000.3 mb 0.01 in0.3 mm 0.00 in0.0 mm 0.04 in1.0 mm
10:10 PM 36.1°F2.3°C 34.3°F1.3°C 93% 10.0 mph NW16.1 kmh NW -- 29.54 in1000.3 mb 0.02 in0.5 mm 0.60 in15.2 mm 0.05 in1.3 mm
10:11 PM 36.1°F2.3°C 34.3°F1.3°C 93% 12.0 mph NW19.3 kmh NW -- 29.54 in1000.3 mb 0.02 in0.5 mm 0.00 in0.0 mm 0.05 in1.3 mm
10:12 PM 36.1°F2.3°C 34.3°F1.3°C 93% 10.0 mph NW16.1 kmh NW -- 29.54 in1000.3 mb 0.02 in0.5 mm 0.00 in0.0 mm 0.05 in1.3 mm
10:13 PM 35.9°F2.2°C 34.1°F1.2°C 93% 5.0 mph W8.0 kmh W -- 29.54 in1000.3 mb 0.02 in0.5 mm 0.00 in0.0 mm 0.05 in1.3 mm
10:14 PM 35.9°F2.2°C 34.1°F1.2°C 93% 9.0 mph W14.5 kmh W -- 29.54 in1000.3 mb 0.02 in0.5 mm 0.00 in0.0 mm 0.05 in1.3 mm
10:15 PM 35.9°F2.2°C 34.1°F1.2°C 93% 8.0 mph WNW12.9 kmh WNW -- 29.54 in1000.3 mb 0.02 in0.5 mm 0.00 in0.0 mm 0.05 in1.3 mm
10:16 PM 35.9°F2.2°C 34.1°F1.2°C 93% 7.0 mph WNW11.3 kmh WNW -- 29.54 in1000.3 mb 0.02 in0.5 mm 0.00 in0.0 mm 0.05 in1.3 mm
10:17 PM 35.9°F2.2°C 34.1°F1.2°C 93% 7.0 mph W11.3 kmh W -- 29.54 in1000.3 mb 0.03 in0.8 mm 0.60 in15.2 mm 0.06 in1.5 mm
10:18 PM 35.7°F2.1°C 33.9°F1.1°C 93% 6.0 mph W9.7 kmh W -- 29.54 in1000.3 mb 0.03 in0.8 mm 0.00 in0.0 mm 0.06 in1.5 mm
10:19 PM 35.7°F2.1°C 33.9°F1.1°C 93% 9.0 mph NW14.5 kmh NW -- 29.54 in1000.3 mb 0.03 in0.8 mm 0.00 in0.0 mm 0.06 in1.5 mm
10:20 PM 35.7°F2.1°C 33.9°F1.1°C 93% 12.0 mph W19.3 kmh W -- 29.54 in1000.3 mb 0.03 in0.8 mm 0.00 in0.0 mm 0.06 in1.5 mm
10:22 PM 35.7°F2.1°C 33.9°F1.1°C 93% 13.0 mph WNW20.9 kmh WNW -- 29.54 in1000.3 mb 0.03 in0.8 mm 0.00 in0.0 mm 0.06 in1.5 mm
10:23 PM 35.7°F2.1°C 33.9°F1.1°C 93% 9.0 mph W14.5 kmh W -- 29.54 in1000.3 mb 0.03 in0.8 mm 0.00 in0.0 mm 0.06 in1.5 mm
10:24 PM 35.7°F2.1°C 33.9°F1.1°C 93% 5.0 mph W8.0 kmh W -- 29.54 in1000.3 mb 0.03 in0.8 mm 0.00 in0.0 mm 0.06 in1.5 mm
10:25 PM 35.7°F2.1°C 33.9°F1.1°C 93% 5.0 mph WNW8.0 kmh WNW -- 29.54 in1000.3 mb 0.03 in0.8 mm 0.00 in0.0 mm 0.06 in1.5 mm
10:26 PM 35.5°F1.9°C 33.6°F0.9°C 93% 12.0 mph W19.3 kmh W -- 29.54 in1000.3 mb 0.04 in1.0 mm 0.60 in15.2 mm 0.07 in1.8 mm
10:27 PM 35.6°F2.0°C 33.8°F1.0°C 93% 10.0 mph WNW16.1 kmh WNW -- 29.54 in1000.3 mb 0.04 in1.0 mm 0.00 in0.0 mm 0.07 in1.8 mm
10:28 PM 35.5°F1.9°C 33.6°F0.9°C 93% 8.0 mph W12.9 kmh W -- 29.54 in1000.3 mb 0.04 in1.0 mm 0.00 in0.0 mm 0.07 in1.8 mm
10:29 PM 35.5°F1.9°C 33.6°F0.9°C 93% 9.0 mph W14.5 kmh W -- 29.54 in1000.3 mb 0.04 in1.0 mm 0.00 in0.0 mm 0.07 in1.8 mm
10:30 PM 35.5°F1.9°C 33.6°F0.9°C 93% 8.0 mph W12.9 kmh W -- 29.54 in1000.3 mb 0.04 in1.0 mm 0.00 in0.0 mm 0.07 in1.8 mm
10:31 PM 35.5°F1.9°C 33.6°F0.9°C 93% 10.0 mph WNW16.1 kmh WNW -- 29.54 in1000.3 mb 0.04 in1.0 mm 0.00 in0.0 mm 0.07 in1.8 mm
10:32 PM 35.5°F1.9°C 33.6°F0.9°C 93% 7.0 mph WNW11.3 kmh WNW -- 29.54 in1000.3 mb 0.04 in1.0 mm 0.00 in0.0 mm 0.07 in1.8 mm
10:33 PM 35.5°F1.9°C 33.6°F0.9°C 93% 9.0 mph W14.5 kmh W -- 29.54 in1000.3 mb 0.04 in1.0 mm 0.00 in0.0 mm 0.07 in1.8 mm
10:34 PM 35.5°F1.9°C 33.6°F0.9°C 93% 5.0 mph W8.0 kmh W -- 29.54 in1000.3 mb 0.04 in1.0 mm 0.00 in0.0 mm 0.07 in1.8 mm
10:35 PM 35.5°F1.9°C 33.6°F0.9°C 93% 12.0 mph WNW19.3 kmh WNW -- 29.54 in1000.3 mb 0.04 in1.0 mm 0.00 in0.0 mm 0.07 in1.8 mm
10:36 PM 35.5°F1.9°C 33.6°F0.9°C 93% 9.0 mph WNW14.5 kmh WNW -- 29.54 in1000.3 mb 0.04 in1.0 mm 0.00 in0.0 mm 0.07 in1.8 mm
10:37 PM 35.5°F1.9°C 33.6°F0.9°C 93% 5.0 mph NNW8.0 kmh NNW -- 29.54 in1000.3 mb 0.05 in1.3 mm 0.60 in15.2 mm 0.08 in2.0 mm
10:38 PM 35.5°F1.9°C 33.6°F0.9°C 93% 9.0 mph WNW14.5 kmh WNW -- 29.54 in1000.3 mb 0.05 in1.3 mm 0.00 in0.0 mm 0.08 in2.0 mm
10:39 PM 35.5°F1.9°C 33.6°F0.9°C 93% 7.0 mph WNW11.3 kmh WNW -- 29.54 in1000.3 mb 0.05 in1.3 mm 0.00 in0.0 mm 0.08 in2.0 mm
10:40 PM 35.5°F1.9°C 33.6°F0.9°C 93% 9.0 mph WNW14.5 kmh WNW -- 29.54 in1000.3 mb 0.05 in1.3 mm 0.00 in0.0 mm 0.08 in2.0 mm
10:41 PM 35.5°F1.9°C 33.6°F0.9°C 93% 8.0 mph W12.9 kmh W -- 29.54 in1000.3 mb 0.05 in1.3 mm 0.00 in0.0 mm 0.08 in2.0 mm
10:42 PM 35.5°F1.9°C 33.6°F0.9°C 93% 5.0 mph W8.0 kmh W -- 29.54 in1000.3 mb 0.05 in1.3 mm 0.00 in0.0 mm 0.08 in2.0 mm
10:43 PM 35.5°F1.9°C 33.6°F0.9°C 93% 5.0 mph WNW8.0 kmh WNW -- 29.54 in1000.3 mb 0.05 in1.3 mm 0.00 in0.0 mm 0.08 in2.0 mm
10:44 PM 35.5°F1.9°C 33.6°F0.9°C 93% 6.0 mph W9.7 kmh W -- 29.54 in1000.3 mb 0.05 in1.3 mm 0.00 in0.0 mm 0.08 in2.0 mm
10:45 PM 35.7°F2.1°C 33.9°F1.1°C 93% 6.0 mph W9.7 kmh W -- 29.54 in1000.3 mb 0.05 in1.3 mm 0.00 in0.0 mm 0.08 in2.0 mm
10:46 PM 35.7°F2.1°C 33.9°F1.1°C 93% 7.0 mph WNW11.3 kmh WNW -- 29.54 in1000.3 mb 0.05 in1.3 mm 0.00 in0.0 mm 0.08 in2.0 mm
10:47 PM 35.7°F2.1°C 33.9°F1.1°C 93% 9.0 mph NW14.5 kmh NW -- 29.54 in1000.3 mb 0.05 in1.3 mm 0.00 in0.0 mm 0.08 in2.0 mm
10:48 PM 35.7°F2.1°C 33.9°F1.1°C 93% 7.0 mph WNW11.3 kmh WNW -- 29.54 in1000.3 mb 0.05 in1.3 mm 0.00 in0.0 mm 0.08 in2.0 mm
10:49 PM 35.7°F2.1°C 33.9°F1.1°C 93% 7.0 mph NW11.3 kmh NW -- 29.54 in1000.3 mb 0.06 in1.5 mm 0.60 in15.2 mm 0.09 in2.3 mm
10:50 PM 35.7°F2.1°C 33.9°F1.1°C 93% 5.0 mph W8.0 kmh W -- 29.55 in1000.7 mb 0.06 in1.5 mm 0.00 in0.0 mm 0.09 in2.3 mm
10:51 PM 35.7°F2.1°C 33.9°F1.1°C 93% 5.0 mph W8.0 kmh W -- 29.54 in1000.3 mb 0.06 in1.5 mm 0.00 in0.0 mm 0.09 in2.3 mm
10:52 PM 35.7°F2.1°C 33.9°F1.1°C 93% 9.0 mph NW14.5 kmh NW -- 29.54 in1000.3 mb 0.06 in1.5 mm 0.00 in0.0 mm 0.09 in2.3 mm
10:53 PM 35.7°F2.1°C 33.9°F1.1°C 93% 4.0 mph WNW6.4 kmh WNW -- 29.54 in1000.3 mb 0.06 in1.5 mm 0.00 in0.0 mm 0.09 in2.3 mm
10:54 PM 35.7°F2.1°C 33.9°F1.1°C 93% 7.0 mph W11.3 kmh W -- 29.54 in1000.3 mb 0.06 in1.5 mm 0.00 in0.0 mm 0.09 in2.3 mm
10:55 PM 35.7°F2.1°C 33.9°F1.1°C 93% 10.0 mph W16.1 kmh W -- 29.55 in1000.7 mb 0.06 in1.5 mm 0.00 in0.0 mm 0.09 in2.3 mm
10:56 PM 35.7°F2.1°C 33.9°F1.1°C 93% 7.0 mph WNW11.3 kmh WNW -- 29.54 in1000.3 mb 0.06 in1.5 mm 0.00 in0.0 mm 0.09 in2.3 mm
10:57 PM 35.7°F2.1°C 33.9°F1.1°C 93% 6.0 mph WNW9.7 kmh WNW -- 29.54 in1000.3 mb 0.06 in1.5 mm 0.00 in0.0 mm 0.09 in2.3 mm
10:58 PM 35.7°F2.1°C 33.9°F1.1°C 93% 10.0 mph W16.1 kmh W -- 29.54 in1000.3 mb 0.06 in1.5 mm 0.00 in0.0 mm 0.09 in2.3 mm
10:59 PM 35.7°F2.1°C 33.9°F1.1°C 93% 5.0 mph W8.0 kmh W -- 29.54 in1000.3 mb 0.06 in1.5 mm 0.00 in0.0 mm 0.09 in2.3 mm
11:00 PM 35.7°F2.1°C 33.9°F1.1°C 93% 5.0 mph WNW8.0 kmh WNW -- 29.54 in1000.3 mb 0.07 in1.8 mm 0.01 in0.3 mm 0.10 in2.5 mm
11:01 PM 35.7°F2.1°C 33.9°F1.1°C 93% 7.0 mph WNW11.3 kmh WNW -- 29.54 in1000.3 mb 0.07 in1.8 mm 0.00 in0.0 mm 0.10 in2.5 mm
11:02 PM 35.9°F2.2°C 34.1°F1.2°C 93% 6.0 mph W9.7 kmh W -- 29.54 in1000.3 mb 0.00 in0.0 mm 0.00 in0.0 mm 0.10 in2.5 mm
11:03 PM 35.9°F2.2°C 34.1°F1.2°C 93% 7.0 mph W11.3 kmh W -- 29.54 in1000.3 mb 0.00 in0.0 mm 0.00 in0.0 mm 0.10 in2.5 mm
11:04 PM 35.9°F2.2°C 34.1°F1.2°C 93% 5.0 mph W8.0 kmh W -- 29.54 in1000.3 mb 0.00 in0.0 mm 0.00 in0.0 mm 0.10 in2.5 mm
11:05 PM 35.9°F2.2°C 34.1°F1.2°C 93% 7.0 mph W11.3 kmh W -- 29.54 in1000.3 mb 0.00 in0.0 mm 0.00 in0.0 mm 0.10 in2.5 mm
11:06 PM 35.9°F2.2°C 34.1°F1.2°C 93% 5.0 mph W8.0 kmh W -- 29.54 in1000.3 mb 0.00 in0.0 mm 0.00 in0.0 mm 0.10 in2.5 mm
11:07 PM 35.9°F2.2°C 34.1°F1.2°C 93% 7.0 mph W11.3 kmh W -- 29.54 in1000.3 mb 0.00 in0.0 mm 0.00 in0.0 mm 0.10 in2.5 mm
11:09 PM 35.9°F2.2°C 34.1°F1.2°C 93% 6.0 mph W9.7 kmh W -- 29.54 in1000.3 mb 0.00 in0.0 mm 0.00 in0.0 mm 0.10 in2.5 mm
11:10 PM 35.9°F2.2°C 34.1°F1.2°C 93% 8.0 mph W12.9 kmh W -- 29.54 in1000.3 mb 0.01 in0.3 mm 0.60 in15.2 mm 0.11 in2.8 mm
11:12 PM 35.9°F2.2°C 34.1°F1.2°C 93% 8.0 mph WNW12.9 kmh WNW -- 29.54 in1000.3 mb 0.01 in0.3 mm 0.00 in0.0 mm 0.11 in2.8 mm
11:13 PM 35.9°F2.2°C 34.1°F1.2°C 93% 6.0 mph W9.7 kmh W -- 29.54 in1000.3 mb 0.01 in0.3 mm 0.00 in0.0 mm 0.11 in2.8 mm
11:14 PM 35.9°F2.2°C 34.1°F1.2°C 93% 5.0 mph W8.0 kmh W -- 29.54 in1000.3 mb 0.01 in0.3 mm 0.00 in0.0 mm 0.11 in2.8 mm
11:15 PM 35.9°F2.2°C 34.1°F1.2°C 93% 8.0 mph W12.9 kmh W -- 29.54 in1000.3 mb 0.01 in0.3 mm 0.00 in0.0 mm 0.11 in2.8 mm
11:17 PM 35.9°F2.2°C 34.1°F1.2°C 93% 7.0 mph W11.3 kmh W -- 29.54 in1000.3 mb 0.01 in0.3 mm 0.00 in0.0 mm 0.11 in2.8 mm
11:18 PM 35.9°F2.2°C 34.1°F1.2°C 93% 9.0 mph W14.5 kmh W -- 29.54 in1000.3 mb 0.01 in0.3 mm 0.00 in0.0 mm 0.11 in2.8 mm
11:19 PM 35.9°F2.2°C 34.1°F1.2°C 93% 8.0 mph W12.9 kmh W